<?xml version="1.0" encoding="utf-8"?>
<gpx xmlns:xsi="http://www.w3.org/2001/XMLSchema-instance" xmlns:xsd="http://www.w3.org/2001/XMLSchema" version="1.1" creator="Shapelink.com" xmlns="http://www.topografix.com/GPX/1/1" xmlns:gpxtpx="http://www.garmin.com/xmlschemas/TrackPointExtension/v1">
  <metadata>
    <name>Sykling 21.09 km, 2014-03-12</name>
    <desc></desc>
    <author><name>Stefan Östlund</name></author> 
    <time>2014-03-12T20:39:30Z</time>
  </metadata>
  <trk>
    <name>Sykling 21.09 km, 2014-03-12</name>
    <trkseg>
      <trkpt lat="59.9838919" lon="15.8273099">
        <ele>2.8</ele>
        <time>2014-03-12T20:39:30Z</time>
      </trkpt>
      <trkpt lat="59.9839231" lon="15.8273127">
        <ele>2.8</ele>
        <time>2014-03-12T20:39:36Z</time>
      </trkpt>
      <trkpt lat="59.9839201" lon="15.8273163">
        <ele>2.8</ele>
        <time>2014-03-12T20:39:37Z</time>
      </trkpt>
      <trkpt lat="59.9839461" lon="15.827299">
        <ele>2.8</ele>
        <time>2014-03-12T20:39:43Z</time>
      </trkpt>
      <trkpt lat="59.9839543" lon="15.8272885">
        <ele>2.8</ele>
        <time>2014-03-12T20:39:44Z</time>
      </trkpt>
      <trkpt lat="59.9839697" lon="15.8272737">
        <ele>2.8</ele>
        <time>2014-03-12T20:39:51Z</time>
      </trkpt>
      <trkpt lat="59.9840009" lon="15.8272742">
        <ele>2.8</ele>
        <time>2014-03-12T20:39:52Z</time>
      </trkpt>
      <trkpt lat="59.9840219" lon="15.8272733">
        <ele>2.8</ele>
        <time>2014-03-12T20:39:54Z</time>
      </trkpt>
      <trkpt lat="59.9840405" lon="15.8272746">
        <ele>2.8</ele>
        <time>2014-03-12T20:39:56Z</time>
      </trkpt>
      <trkpt lat="59.98405" lon="15.8272772">
        <ele>2.8</ele>
        <time>2014-03-12T20:39:57Z</time>
      </trkpt>
      <trkpt lat="59.9840406" lon="15.827294">
        <ele>2.8</ele>
        <time>2014-03-12T20:40:01Z</time>
      </trkpt>
      <trkpt lat="59.9840476" lon="15.8273082">
        <ele>2.8</ele>
        <time>2014-03-12T20:40:08Z</time>
      </trkpt>
      <trkpt lat="59.9840544" lon="15.8273224">
        <ele>2.8</ele>
        <time>2014-03-12T20:40:12Z</time>
      </trkpt>
      <trkpt lat="59.9840364" lon="15.8273352">
        <ele>2.8</ele>
        <time>2014-03-12T20:40:14Z</time>
      </trkpt>
      <trkpt lat="59.9839979" lon="15.8273263">
        <ele>2.8</ele>
        <time>2014-03-12T20:40:17Z</time>
      </trkpt>
      <trkpt lat="59.9839934" lon="15.8273286">
        <ele>2.8</ele>
        <time>2014-03-12T20:40:18Z</time>
      </trkpt>
      <trkpt lat="59.9839918" lon="15.8273326">
        <ele>2.8</ele>
        <time>2014-03-12T20:40:19Z</time>
      </trkpt>
      <trkpt lat="59.9839945" lon="15.8272543">
        <ele>2.8</ele>
        <time>2014-03-12T20:40:24Z</time>
      </trkpt>
      <trkpt lat="59.9839664" lon="15.8272697">
        <ele>2.8</ele>
        <time>2014-03-12T20:40:29Z</time>
      </trkpt>
      <trkpt lat="59.9839806" lon="15.8272575">
        <ele>2.8</ele>
        <time>2014-03-12T20:40:34Z</time>
      </trkpt>
      <trkpt lat="59.9841241" lon="15.8269751">
        <ele>2.8</ele>
        <time>2014-03-12T20:40:39Z</time>
      </trkpt>
      <trkpt lat="59.9841427" lon="15.8269578">
        <ele>2.8</ele>
        <time>2014-03-12T20:40:40Z</time>
      </trkpt>
      <trkpt lat="59.9841509" lon="15.8269373">
        <ele>2.8</ele>
        <time>2014-03-12T20:40:42Z</time>
      </trkpt>
      <trkpt lat="59.984164" lon="15.8268976">
        <ele>2.8</ele>
        <time>2014-03-12T20:40:44Z</time>
      </trkpt>
      <trkpt lat="59.984169" lon="15.826876">
        <ele>2.8</ele>
        <time>2014-03-12T20:40:46Z</time>
      </trkpt>
      <trkpt lat="59.9841612" lon="15.8269063">
        <ele>2.8</ele>
        <time>2014-03-12T20:40:50Z</time>
      </trkpt>
      <trkpt lat="59.9842827" lon="15.8267217">
        <ele>2.8</ele>
        <time>2014-03-12T20:40:54Z</time>
      </trkpt>
      <trkpt lat="59.9842937" lon="15.8267161">
        <ele>2.8</ele>
        <time>2014-03-12T20:40:55Z</time>
      </trkpt>
      <trkpt lat="59.9843153" lon="15.8266964">
        <ele>2.6</ele>
        <time>2014-03-12T20:40:56Z</time>
      </trkpt>
      <trkpt lat="59.9843213" lon="15.826706">
        <ele>2.8</ele>
        <time>2014-03-12T20:41:00Z</time>
      </trkpt>
      <trkpt lat="59.9843659" lon="15.826547">
        <ele>2.8</ele>
        <time>2014-03-12T20:41:04Z</time>
      </trkpt>
      <trkpt lat="59.9843576" lon="15.8265245">
        <ele>2.8</ele>
        <time>2014-03-12T20:41:05Z</time>
      </trkpt>
      <trkpt lat="59.9843833" lon="15.8264076">
        <ele>2.8</ele>
        <time>2014-03-12T20:41:09Z</time>
      </trkpt>
      <trkpt lat="59.9844266" lon="15.8262389">
        <ele>2.8</ele>
        <time>2014-03-12T20:41:14Z</time>
      </trkpt>
      <trkpt lat="59.9843856" lon="15.8262009">
        <ele>2.6</ele>
        <time>2014-03-12T20:41:18Z</time>
      </trkpt>
      <trkpt lat="59.9843922" lon="15.8261404">
        <ele>2.6</ele>
        <time>2014-03-12T20:41:20Z</time>
      </trkpt>
      <trkpt lat="59.9843904" lon="15.8260276">
        <ele>2.6</ele>
        <time>2014-03-12T20:41:24Z</time>
      </trkpt>
      <trkpt lat="59.9843877" lon="15.826009">
        <ele>2.6</ele>
        <time>2014-03-12T20:41:25Z</time>
      </trkpt>
      <trkpt lat="59.9843798" lon="15.8260353">
        <ele>2.6</ele>
        <time>2014-03-12T20:41:28Z</time>
      </trkpt>
      <trkpt lat="59.9843813" lon="15.8260429">
        <ele>2.6</ele>
        <time>2014-03-12T20:41:29Z</time>
      </trkpt>
      <trkpt lat="59.9843718" lon="15.8261048">
        <ele>2.6</ele>
        <time>2014-03-12T20:41:32Z</time>
      </trkpt>
      <trkpt lat="59.9843841" lon="15.8261632">
        <ele>2.6</ele>
        <time>2014-03-12T20:41:36Z</time>
      </trkpt>
      <trkpt lat="59.9843911" lon="15.8261594">
        <ele>2.6</ele>
        <time>2014-03-12T20:41:42Z</time>
      </trkpt>
      <trkpt lat="59.9843942" lon="15.8263277">
        <ele>2.6</ele>
        <time>2014-03-12T20:41:44Z</time>
      </trkpt>
      <trkpt lat="59.9843999" lon="15.8263684">
        <ele>2.6</ele>
        <time>2014-03-12T20:41:46Z</time>
      </trkpt>
      <trkpt lat="59.9843894" lon="15.8263724">
        <ele>2.6</ele>
        <time>2014-03-12T20:41:51Z</time>
      </trkpt>
      <trkpt lat="59.9843742" lon="15.826335">
        <ele>2.6</ele>
        <time>2014-03-12T20:41:54Z</time>
      </trkpt>
      <trkpt lat="59.9844156" lon="15.8263922">
        <ele>2.6</ele>
        <time>2014-03-12T20:41:57Z</time>
      </trkpt>
      <trkpt lat="59.9844266" lon="15.8264437">
        <ele>2.6</ele>
        <time>2014-03-12T20:42:02Z</time>
      </trkpt>
      <trkpt lat="59.9844238" lon="15.8264549">
        <ele>2.6</ele>
        <time>2014-03-12T20:42:08Z</time>
      </trkpt>
      <trkpt lat="59.9843822" lon="15.8265011">
        <ele>2.6</ele>
        <time>2014-03-12T20:42:11Z</time>
      </trkpt>
      <trkpt lat="59.9843636" lon="15.826475">
        <ele>2.6</ele>
        <time>2014-03-12T20:42:13Z</time>
      </trkpt>
      <trkpt lat="59.9843519" lon="15.8264605">
        <ele>2.6</ele>
        <time>2014-03-12T20:42:15Z</time>
      </trkpt>
      <trkpt lat="59.9843474" lon="15.8264625">
        <ele>2.6</ele>
        <time>2014-03-12T20:42:16Z</time>
      </trkpt>
      <trkpt lat="59.9843296" lon="15.826482">
        <ele>2.6</ele>
        <time>2014-03-12T20:42:18Z</time>
      </trkpt>
      <trkpt lat="59.9843214" lon="15.8264817">
        <ele>2.6</ele>
        <time>2014-03-12T20:42:20Z</time>
      </trkpt>
      <trkpt lat="59.9843414" lon="15.8264675">
        <ele>2.6</ele>
        <time>2014-03-12T20:42:22Z</time>
      </trkpt>
      <trkpt lat="59.9843547" lon="15.8264624">
        <ele>2.6</ele>
        <time>2014-03-12T20:42:23Z</time>
      </trkpt>
      <trkpt lat="59.9843887" lon="15.8264678">
        <ele>2.6</ele>
        <time>2014-03-12T20:42:25Z</time>
      </trkpt>
      <trkpt lat="59.9844085" lon="15.8265041">
        <ele>2.6</ele>
        <time>2014-03-12T20:42:28Z</time>
      </trkpt>
      <trkpt lat="59.9844236" lon="15.8265116">
        <ele>2.6</ele>
        <time>2014-03-12T20:42:29Z</time>
      </trkpt>
      <trkpt lat="59.9844754" lon="15.8265216">
        <ele>2.6</ele>
        <time>2014-03-12T20:42:33Z</time>
      </trkpt>
      <trkpt lat="59.9844828" lon="15.826517">
        <ele>2.6</ele>
        <time>2014-03-12T20:42:34Z</time>
      </trkpt>
      <trkpt lat="59.984474" lon="15.8264928">
        <ele>2.6</ele>
        <time>2014-03-12T20:42:38Z</time>
      </trkpt>
      <trkpt lat="59.9844503" lon="15.8264994">
        <ele>2.6</ele>
        <time>2014-03-12T20:42:41Z</time>
      </trkpt>
      <trkpt lat="59.9844607" lon="15.8265038">
        <ele>2.6</ele>
        <time>2014-03-12T20:42:43Z</time>
      </trkpt>
      <trkpt lat="59.9844556" lon="15.8264922">
        <ele>2.6</ele>
        <time>2014-03-12T20:42:49Z</time>
      </trkpt>
      <trkpt lat="59.9843543" lon="15.8265249">
        <ele>2.6</ele>
        <time>2014-03-12T20:42:56Z</time>
      </trkpt>
      <trkpt lat="59.9843073" lon="15.8265486">
        <ele>2.6</ele>
        <time>2014-03-12T20:43:00Z</time>
      </trkpt>
      <trkpt lat="59.9843035" lon="15.8265299">
        <ele>2.4</ele>
        <time>2014-03-12T20:43:02Z</time>
      </trkpt>
      <trkpt lat="59.984332" lon="15.8265474">
        <ele>2.4</ele>
        <time>2014-03-12T20:43:04Z</time>
      </trkpt>
      <trkpt lat="59.9843315" lon="15.8265491">
        <ele>2.4</ele>
        <time>2014-03-12T20:43:09Z</time>
      </trkpt>
      <trkpt lat="59.9845215" lon="15.8266734">
        <ele>2.4</ele>
        <time>2014-03-12T20:43:16Z</time>
        <extensions><gpxtpx:TrackPointExtension><gpxtpx:hr>112</gpxtpx:hr></gpxtpx:TrackPointExtension></extensions>
      </trkpt>
      <trkpt lat="59.9845324" lon="15.8266764">
        <ele>2.4</ele>
        <time>2014-03-12T20:43:17Z</time>
        <extensions><gpxtpx:TrackPointExtension><gpxtpx:hr>112</gpxtpx:hr></gpxtpx:TrackPointExtension></extensions>
      </trkpt>
      <trkpt lat="59.9845288" lon="15.8266505">
        <ele>2.4</ele>
        <time>2014-03-12T20:43:25Z</time>
      </trkpt>
      <trkpt lat="59.9845739" lon="15.8266858">
        <ele>2.4</ele>
        <time>2014-03-12T20:43:27Z</time>
      </trkpt>
      <trkpt lat="59.9845673" lon="15.8267021">
        <ele>2.4</ele>
        <time>2014-03-12T20:43:31Z</time>
        <extensions><gpxtpx:TrackPointExtension><gpxtpx:hr>112</gpxtpx:hr></gpxtpx:TrackPointExtension></extensions>
      </trkpt>
      <trkpt lat="59.984559" lon="15.8267129">
        <ele>2.4</ele>
        <time>2014-03-12T20:43:38Z</time>
        <extensions><gpxtpx:TrackPointExtension><gpxtpx:hr>112</gpxtpx:hr></gpxtpx:TrackPointExtension></extensions>
      </trkpt>
      <trkpt lat="59.9845623" lon="15.8267018">
        <ele>2.4</ele>
        <time>2014-03-12T20:43:46Z</time>
        <extensions><gpxtpx:TrackPointExtension><gpxtpx:hr>112</gpxtpx:hr></gpxtpx:TrackPointExtension></extensions>
      </trkpt>
      <trkpt lat="59.9846102" lon="15.8267523">
        <ele>2.4</ele>
        <time>2014-03-12T20:43:47Z</time>
        <extensions><gpxtpx:TrackPointExtension><gpxtpx:hr>112</gpxtpx:hr></gpxtpx:TrackPointExtension></extensions>
      </trkpt>
      <trkpt lat="59.9846074" lon="15.8267585">
        <ele>2.4</ele>
        <time>2014-03-12T20:43:48Z</time>
        <extensions><gpxtpx:TrackPointExtension><gpxtpx:hr>83</gpxtpx:hr></gpxtpx:TrackPointExtension></extensions>
      </trkpt>
      <trkpt lat="59.9846036" lon="15.8267615">
        <ele>2.4</ele>
        <time>2014-03-12T20:43:49Z</time>
        <extensions><gpxtpx:TrackPointExtension><gpxtpx:hr>95</gpxtpx:hr></gpxtpx:TrackPointExtension></extensions>
      </trkpt>
      <trkpt lat="59.9846016" lon="15.8267661">
        <ele>2.4</ele>
        <time>2014-03-12T20:43:50Z</time>
        <extensions><gpxtpx:TrackPointExtension><gpxtpx:hr>109</gpxtpx:hr></gpxtpx:TrackPointExtension></extensions>
      </trkpt>
      <trkpt lat="59.9846023" lon="15.8267682">
        <ele>2.4</ele>
        <time>2014-03-12T20:43:51Z</time>
        <extensions><gpxtpx:TrackPointExtension><gpxtpx:hr>115</gpxtpx:hr></gpxtpx:TrackPointExtension></extensions>
      </trkpt>
      <trkpt lat="59.984615" lon="15.8267568">
        <ele>2.4</ele>
        <time>2014-03-12T20:43:52Z</time>
        <extensions><gpxtpx:TrackPointExtension><gpxtpx:hr>120</gpxtpx:hr></gpxtpx:TrackPointExtension></extensions>
      </trkpt>
      <trkpt lat="59.9846224" lon="15.8267445">
        <ele>2.4</ele>
        <time>2014-03-12T20:43:53Z</time>
        <extensions><gpxtpx:TrackPointExtension><gpxtpx:hr>123</gpxtpx:hr></gpxtpx:TrackPointExtension></extensions>
      </trkpt>
      <trkpt lat="59.9846251" lon="15.8267354">
        <ele>2.4</ele>
        <time>2014-03-12T20:43:54Z</time>
        <extensions><gpxtpx:TrackPointExtension><gpxtpx:hr>127</gpxtpx:hr></gpxtpx:TrackPointExtension></extensions>
      </trkpt>
      <trkpt lat="59.98463" lon="15.8267278">
        <ele>2.4</ele>
        <time>2014-03-12T20:43:56Z</time>
        <extensions><gpxtpx:TrackPointExtension><gpxtpx:hr>131</gpxtpx:hr></gpxtpx:TrackPointExtension></extensions>
      </trkpt>
      <trkpt lat="59.984637" lon="15.8267238">
        <ele>2.4</ele>
        <time>2014-03-12T20:43:59Z</time>
        <extensions><gpxtpx:TrackPointExtension><gpxtpx:hr>133</gpxtpx:hr></gpxtpx:TrackPointExtension></extensions>
      </trkpt>
      <trkpt lat="59.9846573" lon="15.826711">
        <ele>2.4</ele>
        <time>2014-03-12T20:44:01Z</time>
        <extensions><gpxtpx:TrackPointExtension><gpxtpx:hr>134</gpxtpx:hr></gpxtpx:TrackPointExtension></extensions>
      </trkpt>
      <trkpt lat="59.9846574" lon="15.8267153">
        <ele>2.4</ele>
        <time>2014-03-12T20:44:06Z</time>
        <extensions><gpxtpx:TrackPointExtension><gpxtpx:hr>136</gpxtpx:hr></gpxtpx:TrackPointExtension></extensions>
      </trkpt>
      <trkpt lat="59.9846622" lon="15.8267194">
        <ele>2.4</ele>
        <time>2014-03-12T20:44:08Z</time>
        <extensions><gpxtpx:TrackPointExtension><gpxtpx:hr>136</gpxtpx:hr></gpxtpx:TrackPointExtension></extensions>
      </trkpt>
      <trkpt lat="59.9846606" lon="15.8267201">
        <ele>2.6</ele>
        <time>2014-03-12T20:44:14Z</time>
        <extensions><gpxtpx:TrackPointExtension><gpxtpx:hr>136</gpxtpx:hr></gpxtpx:TrackPointExtension></extensions>
      </trkpt>
      <trkpt lat="59.9846528" lon="15.826737">
        <ele>2.6</ele>
        <time>2014-03-12T20:44:22Z</time>
        <extensions><gpxtpx:TrackPointExtension><gpxtpx:hr>136</gpxtpx:hr></gpxtpx:TrackPointExtension></extensions>
      </trkpt>
      <trkpt lat="59.9846551" lon="15.8267373">
        <ele>2.6</ele>
        <time>2014-03-12T20:44:23Z</time>
        <extensions><gpxtpx:TrackPointExtension><gpxtpx:hr>136</gpxtpx:hr></gpxtpx:TrackPointExtension></extensions>
      </trkpt>
      <trkpt lat="59.9846456" lon="15.8267567">
        <ele>2.6</ele>
        <time>2014-03-12T20:44:30Z</time>
        <extensions><gpxtpx:TrackPointExtension><gpxtpx:hr>137</gpxtpx:hr></gpxtpx:TrackPointExtension></extensions>
      </trkpt>
      <trkpt lat="59.9846454" lon="15.8267599">
        <ele>2.6</ele>
        <time>2014-03-12T20:44:31Z</time>
        <extensions><gpxtpx:TrackPointExtension><gpxtpx:hr>137</gpxtpx:hr></gpxtpx:TrackPointExtension></extensions>
      </trkpt>
      <trkpt lat="59.9846414" lon="15.8267712">
        <ele>2.4</ele>
        <time>2014-03-12T20:44:39Z</time>
        <extensions><gpxtpx:TrackPointExtension><gpxtpx:hr>139</gpxtpx:hr></gpxtpx:TrackPointExtension></extensions>
      </trkpt>
      <trkpt lat="59.9846417" lon="15.826769">
        <ele>2.4</ele>
        <time>2014-03-12T20:44:40Z</time>
        <extensions><gpxtpx:TrackPointExtension><gpxtpx:hr>139</gpxtpx:hr></gpxtpx:TrackPointExtension></extensions>
      </trkpt>
      <trkpt lat="59.9846409" lon="15.8267829">
        <ele>2.6</ele>
        <time>2014-03-12T20:44:47Z</time>
        <extensions><gpxtpx:TrackPointExtension><gpxtpx:hr>139</gpxtpx:hr></gpxtpx:TrackPointExtension></extensions>
      </trkpt>
      <trkpt lat="59.9846404" lon="15.826787">
        <ele>2.6</ele>
        <time>2014-03-12T20:44:48Z</time>
        <extensions><gpxtpx:TrackPointExtension><gpxtpx:hr>139</gpxtpx:hr></gpxtpx:TrackPointExtension></extensions>
      </trkpt>
      <trkpt lat="59.9847031" lon="15.826763">
        <ele>2.6</ele>
        <time>2014-03-12T20:44:54Z</time>
        <extensions><gpxtpx:TrackPointExtension><gpxtpx:hr>139</gpxtpx:hr></gpxtpx:TrackPointExtension></extensions>
      </trkpt>
      <trkpt lat="59.9847056" lon="15.8267506">
        <ele>2.6</ele>
        <time>2014-03-12T20:44:56Z</time>
        <extensions><gpxtpx:TrackPointExtension><gpxtpx:hr>138</gpxtpx:hr></gpxtpx:TrackPointExtension></extensions>
      </trkpt>
      <trkpt lat="59.9847124" lon="15.8267358">
        <ele>2.4</ele>
        <time>2014-03-12T20:45:04Z</time>
        <extensions><gpxtpx:TrackPointExtension><gpxtpx:hr>138</gpxtpx:hr></gpxtpx:TrackPointExtension></extensions>
      </trkpt>
      <trkpt lat="59.9847093" lon="15.8268306">
        <ele>2.6</ele>
        <time>2014-03-12T20:45:06Z</time>
        <extensions><gpxtpx:TrackPointExtension><gpxtpx:hr>138</gpxtpx:hr></gpxtpx:TrackPointExtension></extensions>
      </trkpt>
      <trkpt lat="59.9847058" lon="15.8268752">
        <ele>2.6</ele>
        <time>2014-03-12T20:45:11Z</time>
        <extensions><gpxtpx:TrackPointExtension><gpxtpx:hr>138</gpxtpx:hr></gpxtpx:TrackPointExtension></extensions>
      </trkpt>
      <trkpt lat="59.9847047" lon="15.8269029">
        <ele>2.6</ele>
        <time>2014-03-12T20:45:13Z</time>
        <extensions><gpxtpx:TrackPointExtension><gpxtpx:hr>139</gpxtpx:hr></gpxtpx:TrackPointExtension></extensions>
      </trkpt>
      <trkpt lat="59.9847081" lon="15.8268839">
        <ele>2.6</ele>
        <time>2014-03-12T20:45:20Z</time>
        <extensions><gpxtpx:TrackPointExtension><gpxtpx:hr>140</gpxtpx:hr></gpxtpx:TrackPointExtension></extensions>
      </trkpt>
      <trkpt lat="59.9847077" lon="15.8268868">
        <ele>2.6</ele>
        <time>2014-03-12T20:45:27Z</time>
        <extensions><gpxtpx:TrackPointExtension><gpxtpx:hr>141</gpxtpx:hr></gpxtpx:TrackPointExtension></extensions>
      </trkpt>
      <trkpt lat="59.9847061" lon="15.8268915">
        <ele>2.6</ele>
        <time>2014-03-12T20:45:30Z</time>
        <extensions><gpxtpx:TrackPointExtension><gpxtpx:hr>141</gpxtpx:hr></gpxtpx:TrackPointExtension></extensions>
      </trkpt>
      <trkpt lat="59.9847084" lon="15.8269056">
        <ele>2.6</ele>
        <time>2014-03-12T20:45:37Z</time>
        <extensions><gpxtpx:TrackPointExtension><gpxtpx:hr>142</gpxtpx:hr></gpxtpx:TrackPointExtension></extensions>
      </trkpt>
      <trkpt lat="59.9846835" lon="15.8271272">
        <ele>2.6</ele>
        <time>2014-03-12T20:45:41Z</time>
        <extensions><gpxtpx:TrackPointExtension><gpxtpx:hr>142</gpxtpx:hr></gpxtpx:TrackPointExtension></extensions>
      </trkpt>
      <trkpt lat="59.9846812" lon="15.82715">
        <ele>2.6</ele>
        <time>2014-03-12T20:45:42Z</time>
        <extensions><gpxtpx:TrackPointExtension><gpxtpx:hr>142</gpxtpx:hr></gpxtpx:TrackPointExtension></extensions>
      </trkpt>
      <trkpt lat="59.9846748" lon="15.8272294">
        <ele>2.6</ele>
        <time>2014-03-12T20:45:47Z</time>
        <extensions><gpxtpx:TrackPointExtension><gpxtpx:hr>143</gpxtpx:hr></gpxtpx:TrackPointExtension></extensions>
      </trkpt>
      <trkpt lat="59.984676" lon="15.8272409">
        <ele>2.6</ele>
        <time>2014-03-12T20:45:50Z</time>
        <extensions><gpxtpx:TrackPointExtension><gpxtpx:hr>143</gpxtpx:hr></gpxtpx:TrackPointExtension></extensions>
      </trkpt>
      <trkpt lat="59.9846732" lon="15.8273004">
        <ele>2.6</ele>
        <time>2014-03-12T20:45:57Z</time>
        <extensions><gpxtpx:TrackPointExtension><gpxtpx:hr>143</gpxtpx:hr></gpxtpx:TrackPointExtension></extensions>
      </trkpt>
      <trkpt lat="59.9846722" lon="15.8273304">
        <ele>2.6</ele>
        <time>2014-03-12T20:46:02Z</time>
        <extensions><gpxtpx:TrackPointExtension><gpxtpx:hr>143</gpxtpx:hr></gpxtpx:TrackPointExtension></extensions>
      </trkpt>
      <trkpt lat="59.9846766" lon="15.8273173">
        <ele>2.6</ele>
        <time>2014-03-12T20:46:04Z</time>
        <extensions><gpxtpx:TrackPointExtension><gpxtpx:hr>143</gpxtpx:hr></gpxtpx:TrackPointExtension></extensions>
      </trkpt>
      <trkpt lat="59.9846755" lon="15.8272982">
        <ele>2.6</ele>
        <time>2014-03-12T20:46:06Z</time>
        <extensions><gpxtpx:TrackPointExtension><gpxtpx:hr>144</gpxtpx:hr></gpxtpx:TrackPointExtension></extensions>
      </trkpt>
      <trkpt lat="59.984672" lon="15.8272812">
        <ele>2.6</ele>
        <time>2014-03-12T20:46:10Z</time>
        <extensions><gpxtpx:TrackPointExtension><gpxtpx:hr>143</gpxtpx:hr></gpxtpx:TrackPointExtension></extensions>
      </trkpt>
      <trkpt lat="59.9846652" lon="15.8273121">
        <ele>2.6</ele>
        <time>2014-03-12T20:46:14Z</time>
        <extensions><gpxtpx:TrackPointExtension><gpxtpx:hr>144</gpxtpx:hr></gpxtpx:TrackPointExtension></extensions>
      </trkpt>
      <trkpt lat="59.9846578" lon="15.8273381">
        <ele>2.6</ele>
        <time>2014-03-12T20:46:17Z</time>
        <extensions><gpxtpx:TrackPointExtension><gpxtpx:hr>144</gpxtpx:hr></gpxtpx:TrackPointExtension></extensions>
      </trkpt>
      <trkpt lat="59.9846419" lon="15.8273178">
        <ele>2.6</ele>
        <time>2014-03-12T20:46:23Z</time>
        <extensions><gpxtpx:TrackPointExtension><gpxtpx:hr>144</gpxtpx:hr></gpxtpx:TrackPointExtension></extensions>
      </trkpt>
      <trkpt lat="59.9846403" lon="15.8273106">
        <ele>2.6</ele>
        <time>2014-03-12T20:46:24Z</time>
        <extensions><gpxtpx:TrackPointExtension><gpxtpx:hr>144</gpxtpx:hr></gpxtpx:TrackPointExtension></extensions>
      </trkpt>
      <trkpt lat="59.9846306" lon="15.8273289">
        <ele>2.6</ele>
        <time>2014-03-12T20:46:26Z</time>
        <extensions><gpxtpx:TrackPointExtension><gpxtpx:hr>144</gpxtpx:hr></gpxtpx:TrackPointExtension></extensions>
      </trkpt>
      <trkpt lat="59.9846356" lon="15.8273369">
        <ele>2.6</ele>
        <time>2014-03-12T20:46:29Z</time>
        <extensions><gpxtpx:TrackPointExtension><gpxtpx:hr>144</gpxtpx:hr></gpxtpx:TrackPointExtension></extensions>
      </trkpt>
      <trkpt lat="59.9846482" lon="15.8272894">
        <ele>2.6</ele>
        <time>2014-03-12T20:46:32Z</time>
        <extensions><gpxtpx:TrackPointExtension><gpxtpx:hr>144</gpxtpx:hr></gpxtpx:TrackPointExtension></extensions>
      </trkpt>
      <trkpt lat="59.984645" lon="15.8272966">
        <ele>2.8</ele>
        <time>2014-03-12T20:46:35Z</time>
        <extensions><gpxtpx:TrackPointExtension><gpxtpx:hr>144</gpxtpx:hr></gpxtpx:TrackPointExtension></extensions>
      </trkpt>
      <trkpt lat="59.9846417" lon="15.8273047">
        <ele>2.8</ele>
        <time>2014-03-12T20:46:40Z</time>
        <extensions><gpxtpx:TrackPointExtension><gpxtpx:hr>145</gpxtpx:hr></gpxtpx:TrackPointExtension></extensions>
      </trkpt>
      <trkpt lat="59.9846604" lon="15.827293">
        <ele>2.8</ele>
        <time>2014-03-12T20:46:47Z</time>
        <extensions><gpxtpx:TrackPointExtension><gpxtpx:hr>145</gpxtpx:hr></gpxtpx:TrackPointExtension></extensions>
      </trkpt>
      <trkpt lat="59.984684" lon="15.8272792">
        <ele>2.8</ele>
        <time>2014-03-12T20:46:53Z</time>
        <extensions><gpxtpx:TrackPointExtension><gpxtpx:hr>146</gpxtpx:hr></gpxtpx:TrackPointExtension></extensions>
      </trkpt>
      <trkpt lat="59.9846766" lon="15.8273083">
        <ele>2.8</ele>
        <time>2014-03-12T20:46:55Z</time>
        <extensions><gpxtpx:TrackPointExtension><gpxtpx:hr>146</gpxtpx:hr></gpxtpx:TrackPointExtension></extensions>
      </trkpt>
      <trkpt lat="59.9846518" lon="15.8273426">
        <ele>2.8</ele>
        <time>2014-03-12T20:46:59Z</time>
        <extensions><gpxtpx:TrackPointExtension><gpxtpx:hr>147</gpxtpx:hr></gpxtpx:TrackPointExtension></extensions>
      </trkpt>
      <trkpt lat="59.9846366" lon="15.8273319">
        <ele>2.8</ele>
        <time>2014-03-12T20:47:02Z</time>
        <extensions><gpxtpx:TrackPointExtension><gpxtpx:hr>146</gpxtpx:hr></gpxtpx:TrackPointExtension></extensions>
      </trkpt>
      <trkpt lat="59.984622" lon="15.8273309">
        <ele>2.8</ele>
        <time>2014-03-12T20:47:04Z</time>
        <extensions><gpxtpx:TrackPointExtension><gpxtpx:hr>146</gpxtpx:hr></gpxtpx:TrackPointExtension></extensions>
      </trkpt>
      <trkpt lat="59.984618" lon="15.82735">
        <ele>3</ele>
        <time>2014-03-12T20:47:06Z</time>
        <extensions><gpxtpx:TrackPointExtension><gpxtpx:hr>146</gpxtpx:hr></gpxtpx:TrackPointExtension></extensions>
      </trkpt>
      <trkpt lat="59.9846148" lon="15.8273482">
        <ele>3</ele>
        <time>2014-03-12T20:47:10Z</time>
        <extensions><gpxtpx:TrackPointExtension><gpxtpx:hr>147</gpxtpx:hr></gpxtpx:TrackPointExtension></extensions>
      </trkpt>
      <trkpt lat="59.9846043" lon="15.8273626">
        <ele>3</ele>
        <time>2014-03-12T20:47:12Z</time>
        <extensions><gpxtpx:TrackPointExtension><gpxtpx:hr>146</gpxtpx:hr></gpxtpx:TrackPointExtension></extensions>
      </trkpt>
      <trkpt lat="59.9845958" lon="15.8273748">
        <ele>3</ele>
        <time>2014-03-12T20:47:16Z</time>
        <extensions><gpxtpx:TrackPointExtension><gpxtpx:hr>146</gpxtpx:hr></gpxtpx:TrackPointExtension></extensions>
      </trkpt>
      <trkpt lat="59.9846119" lon="15.8273633">
        <ele>3</ele>
        <time>2014-03-12T20:47:18Z</time>
        <extensions><gpxtpx:TrackPointExtension><gpxtpx:hr>145</gpxtpx:hr></gpxtpx:TrackPointExtension></extensions>
      </trkpt>
      <trkpt lat="59.9846101" lon="15.8273602">
        <ele>3</ele>
        <time>2014-03-12T20:47:21Z</time>
        <extensions><gpxtpx:TrackPointExtension><gpxtpx:hr>145</gpxtpx:hr></gpxtpx:TrackPointExtension></extensions>
      </trkpt>
      <trkpt lat="59.984597" lon="15.8273994">
        <ele>3</ele>
        <time>2014-03-12T20:47:24Z</time>
        <extensions><gpxtpx:TrackPointExtension><gpxtpx:hr>146</gpxtpx:hr></gpxtpx:TrackPointExtension></extensions>
      </trkpt>
      <trkpt lat="59.9846" lon="15.8274055">
        <ele>3</ele>
        <time>2014-03-12T20:47:26Z</time>
        <extensions><gpxtpx:TrackPointExtension><gpxtpx:hr>146</gpxtpx:hr></gpxtpx:TrackPointExtension></extensions>
      </trkpt>
      <trkpt lat="59.9846067" lon="15.8274004">
        <ele>3</ele>
        <time>2014-03-12T20:47:28Z</time>
        <extensions><gpxtpx:TrackPointExtension><gpxtpx:hr>146</gpxtpx:hr></gpxtpx:TrackPointExtension></extensions>
      </trkpt>
      <trkpt lat="59.9846122" lon="15.8273872">
        <ele>3</ele>
        <time>2014-03-12T20:47:31Z</time>
        <extensions><gpxtpx:TrackPointExtension><gpxtpx:hr>146</gpxtpx:hr></gpxtpx:TrackPointExtension></extensions>
      </trkpt>
      <trkpt lat="59.9846035" lon="15.8273795">
        <ele>3</ele>
        <time>2014-03-12T20:47:35Z</time>
        <extensions><gpxtpx:TrackPointExtension><gpxtpx:hr>146</gpxtpx:hr></gpxtpx:TrackPointExtension></extensions>
      </trkpt>
      <trkpt lat="59.9845902" lon="15.8273811">
        <ele>3</ele>
        <time>2014-03-12T20:47:37Z</time>
        <extensions><gpxtpx:TrackPointExtension><gpxtpx:hr>147</gpxtpx:hr></gpxtpx:TrackPointExtension></extensions>
      </trkpt>
      <trkpt lat="59.9846134" lon="15.827258">
        <ele>3</ele>
        <time>2014-03-12T20:47:43Z</time>
        <extensions><gpxtpx:TrackPointExtension><gpxtpx:hr>147</gpxtpx:hr></gpxtpx:TrackPointExtension></extensions>
      </trkpt>
      <trkpt lat="59.9846335" lon="15.8271457">
        <ele>3</ele>
        <time>2014-03-12T20:47:48Z</time>
        <extensions><gpxtpx:TrackPointExtension><gpxtpx:hr>147</gpxtpx:hr></gpxtpx:TrackPointExtension></extensions>
      </trkpt>
      <trkpt lat="59.9846374" lon="15.8271468">
        <ele>3</ele>
        <time>2014-03-12T20:47:49Z</time>
        <extensions><gpxtpx:TrackPointExtension><gpxtpx:hr>148</gpxtpx:hr></gpxtpx:TrackPointExtension></extensions>
      </trkpt>
      <trkpt lat="59.984651" lon="15.827081">
        <ele>3</ele>
        <time>2014-03-12T20:47:51Z</time>
        <extensions><gpxtpx:TrackPointExtension><gpxtpx:hr>148</gpxtpx:hr></gpxtpx:TrackPointExtension></extensions>
      </trkpt>
      <trkpt lat="59.9846646" lon="15.8270427">
        <ele>3</ele>
        <time>2014-03-12T20:47:53Z</time>
        <extensions><gpxtpx:TrackPointExtension><gpxtpx:hr>148</gpxtpx:hr></gpxtpx:TrackPointExtension></extensions>
      </trkpt>
      <trkpt lat="59.9846686" lon="15.8270029">
        <ele>3</ele>
        <time>2014-03-12T20:47:55Z</time>
        <extensions><gpxtpx:TrackPointExtension><gpxtpx:hr>148</gpxtpx:hr></gpxtpx:TrackPointExtension></extensions>
      </trkpt>
      <trkpt lat="59.984708" lon="15.8269458">
        <ele>3</ele>
        <time>2014-03-12T20:47:58Z</time>
        <extensions><gpxtpx:TrackPointExtension><gpxtpx:hr>148</gpxtpx:hr></gpxtpx:TrackPointExtension></extensions>
      </trkpt>
      <trkpt lat="59.984727" lon="15.8269117">
        <ele>3</ele>
        <time>2014-03-12T20:48:00Z</time>
        <extensions><gpxtpx:TrackPointExtension><gpxtpx:hr>147</gpxtpx:hr></gpxtpx:TrackPointExtension></extensions>
      </trkpt>
      <trkpt lat="59.9847067" lon="15.8269139">
        <ele>3</ele>
        <time>2014-03-12T20:48:04Z</time>
        <extensions><gpxtpx:TrackPointExtension><gpxtpx:hr>148</gpxtpx:hr></gpxtpx:TrackPointExtension></extensions>
      </trkpt>
      <trkpt lat="59.9847059" lon="15.8269246">
        <ele>3</ele>
        <time>2014-03-12T20:48:05Z</time>
        <extensions><gpxtpx:TrackPointExtension><gpxtpx:hr>148</gpxtpx:hr></gpxtpx:TrackPointExtension></extensions>
      </trkpt>
      <trkpt lat="59.9846997" lon="15.8269407">
        <ele>3</ele>
        <time>2014-03-12T20:48:10Z</time>
        <extensions><gpxtpx:TrackPointExtension><gpxtpx:hr>148</gpxtpx:hr></gpxtpx:TrackPointExtension></extensions>
      </trkpt>
      <trkpt lat="59.9847288" lon="15.8268398">
        <ele>3</ele>
        <time>2014-03-12T20:48:13Z</time>
        <extensions><gpxtpx:TrackPointExtension><gpxtpx:hr>149</gpxtpx:hr></gpxtpx:TrackPointExtension></extensions>
      </trkpt>
      <trkpt lat="59.9847435" lon="15.8268346">
        <ele>3</ele>
        <time>2014-03-12T20:48:16Z</time>
        <extensions><gpxtpx:TrackPointExtension><gpxtpx:hr>148</gpxtpx:hr></gpxtpx:TrackPointExtension></extensions>
      </trkpt>
      <trkpt lat="59.9847209" lon="15.8267882">
        <ele>3</ele>
        <time>2014-03-12T20:48:22Z</time>
        <extensions><gpxtpx:TrackPointExtension><gpxtpx:hr>148</gpxtpx:hr></gpxtpx:TrackPointExtension></extensions>
      </trkpt>
      <trkpt lat="59.9847078" lon="15.8268331">
        <ele>3</ele>
        <time>2014-03-12T20:48:28Z</time>
        <extensions><gpxtpx:TrackPointExtension><gpxtpx:hr>149</gpxtpx:hr></gpxtpx:TrackPointExtension></extensions>
      </trkpt>
      <trkpt lat="59.9847015" lon="15.8268399">
        <ele>3</ele>
        <time>2014-03-12T20:48:33Z</time>
        <extensions><gpxtpx:TrackPointExtension><gpxtpx:hr>149</gpxtpx:hr></gpxtpx:TrackPointExtension></extensions>
      </trkpt>
      <trkpt lat="59.984731" lon="15.8267776">
        <ele>3</ele>
        <time>2014-03-12T20:48:36Z</time>
        <extensions><gpxtpx:TrackPointExtension><gpxtpx:hr>150</gpxtpx:hr></gpxtpx:TrackPointExtension></extensions>
      </trkpt>
      <trkpt lat="59.984738" lon="15.8267732">
        <ele>3</ele>
        <time>2014-03-12T20:48:39Z</time>
        <extensions><gpxtpx:TrackPointExtension><gpxtpx:hr>150</gpxtpx:hr></gpxtpx:TrackPointExtension></extensions>
      </trkpt>
      <trkpt lat="59.984725" lon="15.8266999">
        <ele>3</ele>
        <time>2014-03-12T20:48:43Z</time>
        <extensions><gpxtpx:TrackPointExtension><gpxtpx:hr>150</gpxtpx:hr></gpxtpx:TrackPointExtension></extensions>
      </trkpt>
      <trkpt lat="59.9847311" lon="15.8266627">
        <ele>3</ele>
        <time>2014-03-12T20:48:45Z</time>
        <extensions><gpxtpx:TrackPointExtension><gpxtpx:hr>151</gpxtpx:hr></gpxtpx:TrackPointExtension></extensions>
      </trkpt>
      <trkpt lat="59.9847451" lon="15.8266352">
        <ele>3</ele>
        <time>2014-03-12T20:48:47Z</time>
        <extensions><gpxtpx:TrackPointExtension><gpxtpx:hr>151</gpxtpx:hr></gpxtpx:TrackPointExtension></extensions>
      </trkpt>
      <trkpt lat="59.9847348" lon="15.8266542">
        <ele>3</ele>
        <time>2014-03-12T20:48:50Z</time>
        <extensions><gpxtpx:TrackPointExtension><gpxtpx:hr>150</gpxtpx:hr></gpxtpx:TrackPointExtension></extensions>
      </trkpt>
      <trkpt lat="59.9847064" lon="15.8266369">
        <ele>3</ele>
        <time>2014-03-12T20:48:51Z</time>
        <extensions><gpxtpx:TrackPointExtension><gpxtpx:hr>151</gpxtpx:hr></gpxtpx:TrackPointExtension></extensions>
      </trkpt>
      <trkpt lat="59.9846803" lon="15.8266349">
        <ele>3</ele>
        <time>2014-03-12T20:48:55Z</time>
        <extensions><gpxtpx:TrackPointExtension><gpxtpx:hr>150</gpxtpx:hr></gpxtpx:TrackPointExtension></extensions>
      </trkpt>
      <trkpt lat="59.9846746" lon="15.8266439">
        <ele>3</ele>
        <time>2014-03-12T20:48:57Z</time>
        <extensions><gpxtpx:TrackPointExtension><gpxtpx:hr>151</gpxtpx:hr></gpxtpx:TrackPointExtension></extensions>
      </trkpt>
      <trkpt lat="59.9846662" lon="15.8266525">
        <ele>3.2</ele>
        <time>2014-03-12T20:48:59Z</time>
        <extensions><gpxtpx:TrackPointExtension><gpxtpx:hr>150</gpxtpx:hr></gpxtpx:TrackPointExtension></extensions>
      </trkpt>
      <trkpt lat="59.9846842" lon="15.8266788">
        <ele>3</ele>
        <time>2014-03-12T20:49:03Z</time>
        <extensions><gpxtpx:TrackPointExtension><gpxtpx:hr>150</gpxtpx:hr></gpxtpx:TrackPointExtension></extensions>
      </trkpt>
      <trkpt lat="59.9846913" lon="15.8266779">
        <ele>3</ele>
        <time>2014-03-12T20:49:05Z</time>
        <extensions><gpxtpx:TrackPointExtension><gpxtpx:hr>150</gpxtpx:hr></gpxtpx:TrackPointExtension></extensions>
      </trkpt>
      <trkpt lat="59.9846765" lon="15.8266905">
        <ele>3</ele>
        <time>2014-03-12T20:49:06Z</time>
        <extensions><gpxtpx:TrackPointExtension><gpxtpx:hr>151</gpxtpx:hr></gpxtpx:TrackPointExtension></extensions>
      </trkpt>
      <trkpt lat="59.9846638" lon="15.8266965">
        <ele>3</ele>
        <time>2014-03-12T20:49:08Z</time>
        <extensions><gpxtpx:TrackPointExtension><gpxtpx:hr>151</gpxtpx:hr></gpxtpx:TrackPointExtension></extensions>
      </trkpt>
      <trkpt lat="59.9846585" lon="15.826684">
        <ele>3</ele>
        <time>2014-03-12T20:49:09Z</time>
        <extensions><gpxtpx:TrackPointExtension><gpxtpx:hr>151</gpxtpx:hr></gpxtpx:TrackPointExtension></extensions>
      </trkpt>
      <trkpt lat="59.9846339" lon="15.8267384">
        <ele>3.2</ele>
        <time>2014-03-12T20:49:13Z</time>
        <extensions><gpxtpx:TrackPointExtension><gpxtpx:hr>151</gpxtpx:hr></gpxtpx:TrackPointExtension></extensions>
      </trkpt>
      <trkpt lat="59.984642" lon="15.8266936">
        <ele>3</ele>
        <time>2014-03-12T20:49:16Z</time>
        <extensions><gpxtpx:TrackPointExtension><gpxtpx:hr>152</gpxtpx:hr></gpxtpx:TrackPointExtension></extensions>
      </trkpt>
      <trkpt lat="59.9846652" lon="15.8266674">
        <ele>3</ele>
        <time>2014-03-12T20:49:18Z</time>
        <extensions><gpxtpx:TrackPointExtension><gpxtpx:hr>152</gpxtpx:hr></gpxtpx:TrackPointExtension></extensions>
      </trkpt>
      <trkpt lat="59.9846877" lon="15.8266285">
        <ele>3</ele>
        <time>2014-03-12T20:49:24Z</time>
        <extensions><gpxtpx:TrackPointExtension><gpxtpx:hr>152</gpxtpx:hr></gpxtpx:TrackPointExtension></extensions>
      </trkpt>
      <trkpt lat="59.9847036" lon="15.8266625">
        <ele>3</ele>
        <time>2014-03-12T20:49:28Z</time>
        <extensions><gpxtpx:TrackPointExtension><gpxtpx:hr>153</gpxtpx:hr></gpxtpx:TrackPointExtension></extensions>
      </trkpt>
      <trkpt lat="59.9847111" lon="15.826693">
        <ele>3</ele>
        <time>2014-03-12T20:49:31Z</time>
        <extensions><gpxtpx:TrackPointExtension><gpxtpx:hr>153</gpxtpx:hr></gpxtpx:TrackPointExtension></extensions>
      </trkpt>
      <trkpt lat="59.9847004" lon="15.8267486">
        <ele>3</ele>
        <time>2014-03-12T20:49:33Z</time>
        <extensions><gpxtpx:TrackPointExtension><gpxtpx:hr>153</gpxtpx:hr></gpxtpx:TrackPointExtension></extensions>
      </trkpt>
      <trkpt lat="59.984671" lon="15.8266952">
        <ele>3</ele>
        <time>2014-03-12T20:49:36Z</time>
        <extensions><gpxtpx:TrackPointExtension><gpxtpx:hr>153</gpxtpx:hr></gpxtpx:TrackPointExtension></extensions>
      </trkpt>
      <trkpt lat="59.9846679" lon="15.82669">
        <ele>3</ele>
        <time>2014-03-12T20:49:37Z</time>
        <extensions><gpxtpx:TrackPointExtension><gpxtpx:hr>153</gpxtpx:hr></gpxtpx:TrackPointExtension></extensions>
      </trkpt>
      <trkpt lat="59.9846656" lon="15.8267086">
        <ele>3</ele>
        <time>2014-03-12T20:49:38Z</time>
        <extensions><gpxtpx:TrackPointExtension><gpxtpx:hr>152</gpxtpx:hr></gpxtpx:TrackPointExtension></extensions>
      </trkpt>
      <trkpt lat="59.9846627" lon="15.8267046">
        <ele>3</ele>
        <time>2014-03-12T20:49:40Z</time>
        <extensions><gpxtpx:TrackPointExtension><gpxtpx:hr>152</gpxtpx:hr></gpxtpx:TrackPointExtension></extensions>
      </trkpt>
      <trkpt lat="59.9846601" lon="15.8267143">
        <ele>3</ele>
        <time>2014-03-12T20:49:45Z</time>
        <extensions><gpxtpx:TrackPointExtension><gpxtpx:hr>152</gpxtpx:hr></gpxtpx:TrackPointExtension></extensions>
      </trkpt>
      <trkpt lat="59.9846072" lon="15.82676">
        <ele>3</ele>
        <time>2014-03-12T20:49:49Z</time>
        <extensions><gpxtpx:TrackPointExtension><gpxtpx:hr>151</gpxtpx:hr></gpxtpx:TrackPointExtension></extensions>
      </trkpt>
      <trkpt lat="59.9845777" lon="15.8267033">
        <ele>3</ele>
        <time>2014-03-12T20:49:53Z</time>
        <extensions><gpxtpx:TrackPointExtension><gpxtpx:hr>152</gpxtpx:hr></gpxtpx:TrackPointExtension></extensions>
      </trkpt>
      <trkpt lat="59.9845876" lon="15.8266898">
        <ele>3</ele>
        <time>2014-03-12T20:49:57Z</time>
        <extensions><gpxtpx:TrackPointExtension><gpxtpx:hr>151</gpxtpx:hr></gpxtpx:TrackPointExtension></extensions>
      </trkpt>
      <trkpt lat="59.9845902" lon="15.826684">
        <ele>3</ele>
        <time>2014-03-12T20:49:58Z</time>
        <extensions><gpxtpx:TrackPointExtension><gpxtpx:hr>151</gpxtpx:hr></gpxtpx:TrackPointExtension></extensions>
      </trkpt>
      <trkpt lat="59.9845822" lon="15.8267404">
        <ele>2.8</ele>
        <time>2014-03-12T20:50:01Z</time>
        <extensions><gpxtpx:TrackPointExtension><gpxtpx:hr>151</gpxtpx:hr></gpxtpx:TrackPointExtension></extensions>
      </trkpt>
      <trkpt lat="59.9845927" lon="15.8268004">
        <ele>3</ele>
        <time>2014-03-12T20:50:03Z</time>
        <extensions><gpxtpx:TrackPointExtension><gpxtpx:hr>151</gpxtpx:hr></gpxtpx:TrackPointExtension></extensions>
      </trkpt>
      <trkpt lat="59.9845877" lon="15.8268941">
        <ele>2.8</ele>
        <time>2014-03-12T20:50:09Z</time>
        <extensions><gpxtpx:TrackPointExtension><gpxtpx:hr>151</gpxtpx:hr></gpxtpx:TrackPointExtension></extensions>
      </trkpt>
      <trkpt lat="59.9845716" lon="15.8268977">
        <ele>3</ele>
        <time>2014-03-12T20:50:10Z</time>
        <extensions><gpxtpx:TrackPointExtension><gpxtpx:hr>150</gpxtpx:hr></gpxtpx:TrackPointExtension></extensions>
      </trkpt>
      <trkpt lat="59.9845477" lon="15.8268866">
        <ele>3</ele>
        <time>2014-03-12T20:50:11Z</time>
        <extensions><gpxtpx:TrackPointExtension><gpxtpx:hr>151</gpxtpx:hr></gpxtpx:TrackPointExtension></extensions>
      </trkpt>
      <trkpt lat="59.9844829" lon="15.8268071">
        <ele>3</ele>
        <time>2014-03-12T20:50:14Z</time>
        <extensions><gpxtpx:TrackPointExtension><gpxtpx:hr>150</gpxtpx:hr></gpxtpx:TrackPointExtension></extensions>
      </trkpt>
      <trkpt lat="59.9844678" lon="15.8267827">
        <ele>2.8</ele>
        <time>2014-03-12T20:50:15Z</time>
        <extensions><gpxtpx:TrackPointExtension><gpxtpx:hr>151</gpxtpx:hr></gpxtpx:TrackPointExtension></extensions>
      </trkpt>
      <trkpt lat="59.9840359" lon="15.8260724">
        <ele>2.6</ele>
        <time>2014-03-12T20:50:50Z</time>
        <extensions><gpxtpx:TrackPointExtension><gpxtpx:hr>150</gpxtpx:hr></gpxtpx:TrackPointExtension></extensions>
      </trkpt>
      <trkpt lat="59.9840324" lon="15.8260519">
        <ele>2.8</ele>
        <time>2014-03-12T20:50:52Z</time>
        <extensions><gpxtpx:TrackPointExtension><gpxtpx:hr>149</gpxtpx:hr></gpxtpx:TrackPointExtension></extensions>
      </trkpt>
      <trkpt lat="59.984034" lon="15.8260606">
        <ele>2.6</ele>
        <time>2014-03-12T20:50:58Z</time>
        <extensions><gpxtpx:TrackPointExtension><gpxtpx:hr>150</gpxtpx:hr></gpxtpx:TrackPointExtension></extensions>
      </trkpt>
      <trkpt lat="59.9847471" lon="15.8261405">
        <ele>2.6</ele>
        <time>2014-03-12T20:50:59Z</time>
        <extensions><gpxtpx:TrackPointExtension><gpxtpx:hr>149</gpxtpx:hr></gpxtpx:TrackPointExtension></extensions>
      </trkpt>
      <trkpt lat="59.9847523" lon="15.826004">
        <ele>2.6</ele>
        <time>2014-03-12T20:51:03Z</time>
        <extensions><gpxtpx:TrackPointExtension><gpxtpx:hr>149</gpxtpx:hr></gpxtpx:TrackPointExtension></extensions>
      </trkpt>
      <trkpt lat="59.9847675" lon="15.8258322">
        <ele>2.6</ele>
        <time>2014-03-12T20:51:08Z</time>
        <extensions><gpxtpx:TrackPointExtension><gpxtpx:hr>150</gpxtpx:hr></gpxtpx:TrackPointExtension></extensions>
      </trkpt>
      <trkpt lat="59.9847592" lon="15.825903">
        <ele>2.6</ele>
        <time>2014-03-12T20:51:12Z</time>
        <extensions><gpxtpx:TrackPointExtension><gpxtpx:hr>150</gpxtpx:hr></gpxtpx:TrackPointExtension></extensions>
      </trkpt>
      <trkpt lat="59.9847511" lon="15.825928">
        <ele>2.6</ele>
        <time>2014-03-12T20:51:13Z</time>
        <extensions><gpxtpx:TrackPointExtension><gpxtpx:hr>150</gpxtpx:hr></gpxtpx:TrackPointExtension></extensions>
      </trkpt>
      <trkpt lat="59.9847368" lon="15.8260295">
        <ele>2.6</ele>
        <time>2014-03-12T20:51:15Z</time>
        <extensions><gpxtpx:TrackPointExtension><gpxtpx:hr>150</gpxtpx:hr></gpxtpx:TrackPointExtension></extensions>
      </trkpt>
      <trkpt lat="59.9847297" lon="15.8262607">
        <ele>2.6</ele>
        <time>2014-03-12T20:51:19Z</time>
        <extensions><gpxtpx:TrackPointExtension><gpxtpx:hr>150</gpxtpx:hr></gpxtpx:TrackPointExtension></extensions>
      </trkpt>
      <trkpt lat="59.9847158" lon="15.8263153">
        <ele>2.6</ele>
        <time>2014-03-12T20:51:20Z</time>
        <extensions><gpxtpx:TrackPointExtension><gpxtpx:hr>150</gpxtpx:hr></gpxtpx:TrackPointExtension></extensions>
      </trkpt>
      <trkpt lat="59.9847085" lon="15.8264408">
        <ele>2.6</ele>
        <time>2014-03-12T20:51:22Z</time>
        <extensions><gpxtpx:TrackPointExtension><gpxtpx:hr>150</gpxtpx:hr></gpxtpx:TrackPointExtension></extensions>
      </trkpt>
      <trkpt lat="59.9847128" lon="15.8264752">
        <ele>2.4</ele>
        <time>2014-03-12T20:51:24Z</time>
        <extensions><gpxtpx:TrackPointExtension><gpxtpx:hr>150</gpxtpx:hr></gpxtpx:TrackPointExtension></extensions>
      </trkpt>
      <trkpt lat="59.9847149" lon="15.826485">
        <ele>2.4</ele>
        <time>2014-03-12T20:51:25Z</time>
        <extensions><gpxtpx:TrackPointExtension><gpxtpx:hr>150</gpxtpx:hr></gpxtpx:TrackPointExtension></extensions>
      </trkpt>
      <trkpt lat="59.9847303" lon="15.8264691">
        <ele>2.4</ele>
        <time>2014-03-12T20:51:26Z</time>
        <extensions><gpxtpx:TrackPointExtension><gpxtpx:hr>150</gpxtpx:hr></gpxtpx:TrackPointExtension></extensions>
      </trkpt>
      <trkpt lat="59.9847212" lon="15.8265196">
        <ele>2.4</ele>
        <time>2014-03-12T20:51:29Z</time>
        <extensions><gpxtpx:TrackPointExtension><gpxtpx:hr>150</gpxtpx:hr></gpxtpx:TrackPointExtension></extensions>
      </trkpt>
      <trkpt lat="59.9847264" lon="15.826535">
        <ele>2.4</ele>
        <time>2014-03-12T20:51:31Z</time>
        <extensions><gpxtpx:TrackPointExtension><gpxtpx:hr>150</gpxtpx:hr></gpxtpx:TrackPointExtension></extensions>
      </trkpt>
      <trkpt lat="59.9847315" lon="15.8264926">
        <ele>2.4</ele>
        <time>2014-03-12T20:51:35Z</time>
        <extensions><gpxtpx:TrackPointExtension><gpxtpx:hr>151</gpxtpx:hr></gpxtpx:TrackPointExtension></extensions>
      </trkpt>
      <trkpt lat="59.9847377" lon="15.8264786">
        <ele>2.4</ele>
        <time>2014-03-12T20:51:37Z</time>
        <extensions><gpxtpx:TrackPointExtension><gpxtpx:hr>151</gpxtpx:hr></gpxtpx:TrackPointExtension></extensions>
      </trkpt>
      <trkpt lat="59.984742" lon="15.8264579">
        <ele>2.4</ele>
        <time>2014-03-12T20:51:39Z</time>
        <extensions><gpxtpx:TrackPointExtension><gpxtpx:hr>151</gpxtpx:hr></gpxtpx:TrackPointExtension></extensions>
      </trkpt>
      <trkpt lat="59.9847403" lon="15.8264009">
        <ele>2.4</ele>
        <time>2014-03-12T20:51:44Z</time>
        <extensions><gpxtpx:TrackPointExtension><gpxtpx:hr>150</gpxtpx:hr></gpxtpx:TrackPointExtension></extensions>
      </trkpt>
      <trkpt lat="59.9847357" lon="15.8263865">
        <ele>2.4</ele>
        <time>2014-03-12T20:51:45Z</time>
        <extensions><gpxtpx:TrackPointExtension><gpxtpx:hr>150</gpxtpx:hr></gpxtpx:TrackPointExtension></extensions>
      </trkpt>
      <trkpt lat="59.9847305" lon="15.8263037">
        <ele>2.4</ele>
        <time>2014-03-12T20:51:51Z</time>
        <extensions><gpxtpx:TrackPointExtension><gpxtpx:hr>151</gpxtpx:hr></gpxtpx:TrackPointExtension></extensions>
      </trkpt>
      <trkpt lat="59.9847293" lon="15.8263642">
        <ele>2.4</ele>
        <time>2014-03-12T20:51:56Z</time>
        <extensions><gpxtpx:TrackPointExtension><gpxtpx:hr>151</gpxtpx:hr></gpxtpx:TrackPointExtension></extensions>
      </trkpt>
      <trkpt lat="59.9847238" lon="15.8263684">
        <ele>2.4</ele>
        <time>2014-03-12T20:51:58Z</time>
        <extensions><gpxtpx:TrackPointExtension><gpxtpx:hr>151</gpxtpx:hr></gpxtpx:TrackPointExtension></extensions>
      </trkpt>
      <trkpt lat="59.984733" lon="15.8265236">
        <ele>2.4</ele>
        <time>2014-03-12T20:52:01Z</time>
        <extensions><gpxtpx:TrackPointExtension><gpxtpx:hr>151</gpxtpx:hr></gpxtpx:TrackPointExtension></extensions>
      </trkpt>
      <trkpt lat="59.9847289" lon="15.8266276">
        <ele>2.4</ele>
        <time>2014-03-12T20:52:04Z</time>
        <extensions><gpxtpx:TrackPointExtension><gpxtpx:hr>151</gpxtpx:hr></gpxtpx:TrackPointExtension></extensions>
      </trkpt>
      <trkpt lat="59.9847331" lon="15.8266911">
        <ele>2.2</ele>
        <time>2014-03-12T20:52:06Z</time>
        <extensions><gpxtpx:TrackPointExtension><gpxtpx:hr>152</gpxtpx:hr></gpxtpx:TrackPointExtension></extensions>
      </trkpt>
      <trkpt lat="59.9847105" lon="15.8267342">
        <ele>2.2</ele>
        <time>2014-03-12T20:52:08Z</time>
        <extensions><gpxtpx:TrackPointExtension><gpxtpx:hr>152</gpxtpx:hr></gpxtpx:TrackPointExtension></extensions>
      </trkpt>
      <trkpt lat="59.9847023" lon="15.8267329">
        <ele>2.2</ele>
        <time>2014-03-12T20:52:10Z</time>
        <extensions><gpxtpx:TrackPointExtension><gpxtpx:hr>152</gpxtpx:hr></gpxtpx:TrackPointExtension></extensions>
      </trkpt>
      <trkpt lat="59.9846964" lon="15.8267331">
        <ele>2.2</ele>
        <time>2014-03-12T20:52:17Z</time>
        <extensions><gpxtpx:TrackPointExtension><gpxtpx:hr>154</gpxtpx:hr></gpxtpx:TrackPointExtension></extensions>
      </trkpt>
      <trkpt lat="59.9846538" lon="15.8269568">
        <ele>2.2</ele>
        <time>2014-03-12T20:52:21Z</time>
        <extensions><gpxtpx:TrackPointExtension><gpxtpx:hr>155</gpxtpx:hr></gpxtpx:TrackPointExtension></extensions>
      </trkpt>
      <trkpt lat="59.984658" lon="15.8269689">
        <ele>2.2</ele>
        <time>2014-03-12T20:52:22Z</time>
        <extensions><gpxtpx:TrackPointExtension><gpxtpx:hr>155</gpxtpx:hr></gpxtpx:TrackPointExtension></extensions>
      </trkpt>
      <trkpt lat="59.9846615" lon="15.8269666">
        <ele>2.2</ele>
        <time>2014-03-12T20:52:26Z</time>
        <extensions><gpxtpx:TrackPointExtension><gpxtpx:hr>156</gpxtpx:hr></gpxtpx:TrackPointExtension></extensions>
      </trkpt>
      <trkpt lat="59.9846645" lon="15.826964">
        <ele>2.2</ele>
        <time>2014-03-12T20:52:27Z</time>
        <extensions><gpxtpx:TrackPointExtension><gpxtpx:hr>156</gpxtpx:hr></gpxtpx:TrackPointExtension></extensions>
      </trkpt>
      <trkpt lat="59.9846704" lon="15.8269853">
        <ele>2.2</ele>
        <time>2014-03-12T20:52:33Z</time>
        <extensions><gpxtpx:TrackPointExtension><gpxtpx:hr>153</gpxtpx:hr></gpxtpx:TrackPointExtension></extensions>
      </trkpt>
      <trkpt lat="59.9846673" lon="15.8270023">
        <ele>2</ele>
        <time>2014-03-12T20:52:40Z</time>
        <extensions><gpxtpx:TrackPointExtension><gpxtpx:hr>151</gpxtpx:hr></gpxtpx:TrackPointExtension></extensions>
      </trkpt>
      <trkpt lat="59.9846698" lon="15.8269957">
        <ele>2</ele>
        <time>2014-03-12T20:52:47Z</time>
        <extensions><gpxtpx:TrackPointExtension><gpxtpx:hr>151</gpxtpx:hr></gpxtpx:TrackPointExtension></extensions>
      </trkpt>
      <trkpt lat="59.9846647" lon="15.8271925">
        <ele>2</ele>
        <time>2014-03-12T20:52:48Z</time>
        <extensions><gpxtpx:TrackPointExtension><gpxtpx:hr>151</gpxtpx:hr></gpxtpx:TrackPointExtension></extensions>
      </trkpt>
      <trkpt lat="59.9846635" lon="15.8272046">
        <ele>2</ele>
        <time>2014-03-12T20:52:53Z</time>
        <extensions><gpxtpx:TrackPointExtension><gpxtpx:hr>151</gpxtpx:hr></gpxtpx:TrackPointExtension></extensions>
      </trkpt>
      <trkpt lat="59.9846608" lon="15.8272165">
        <ele>2</ele>
        <time>2014-03-12T20:53:00Z</time>
        <extensions><gpxtpx:TrackPointExtension><gpxtpx:hr>152</gpxtpx:hr></gpxtpx:TrackPointExtension></extensions>
      </trkpt>
      <trkpt lat="59.9846584" lon="15.8272189">
        <ele>2</ele>
        <time>2014-03-12T20:53:02Z</time>
        <extensions><gpxtpx:TrackPointExtension><gpxtpx:hr>151</gpxtpx:hr></gpxtpx:TrackPointExtension></extensions>
      </trkpt>
      <trkpt lat="59.9846585" lon="15.8272284">
        <ele>2</ele>
        <time>2014-03-12T20:53:09Z</time>
        <extensions><gpxtpx:TrackPointExtension><gpxtpx:hr>150</gpxtpx:hr></gpxtpx:TrackPointExtension></extensions>
      </trkpt>
      <trkpt lat="59.984658" lon="15.8272277">
        <ele>2</ele>
        <time>2014-03-12T20:53:10Z</time>
        <extensions><gpxtpx:TrackPointExtension><gpxtpx:hr>150</gpxtpx:hr></gpxtpx:TrackPointExtension></extensions>
      </trkpt>
      <trkpt lat="59.9846607" lon="15.8272172">
        <ele>2</ele>
        <time>2014-03-12T20:53:17Z</time>
        <extensions><gpxtpx:TrackPointExtension><gpxtpx:hr>151</gpxtpx:hr></gpxtpx:TrackPointExtension></extensions>
      </trkpt>
      <trkpt lat="59.9846607" lon="15.8272161">
        <ele>2</ele>
        <time>2014-03-12T20:53:18Z</time>
        <extensions><gpxtpx:TrackPointExtension><gpxtpx:hr>151</gpxtpx:hr></gpxtpx:TrackPointExtension></extensions>
      </trkpt>
      <trkpt lat="59.9846606" lon="15.8272219">
        <ele>1.8</ele>
        <time>2014-03-12T20:53:25Z</time>
        <extensions><gpxtpx:TrackPointExtension><gpxtpx:hr>151</gpxtpx:hr></gpxtpx:TrackPointExtension></extensions>
      </trkpt>
      <trkpt lat="59.9846619" lon="15.827222">
        <ele>2</ele>
        <time>2014-03-12T20:53:27Z</time>
        <extensions><gpxtpx:TrackPointExtension><gpxtpx:hr>151</gpxtpx:hr></gpxtpx:TrackPointExtension></extensions>
      </trkpt>
      <trkpt lat="59.9846617" lon="15.827224">
        <ele>1.8</ele>
        <time>2014-03-12T20:53:34Z</time>
        <extensions><gpxtpx:TrackPointExtension><gpxtpx:hr>152</gpxtpx:hr></gpxtpx:TrackPointExtension></extensions>
      </trkpt>
      <trkpt lat="59.9846487" lon="15.8275803">
        <ele>2</ele>
        <time>2014-03-12T20:53:36Z</time>
        <extensions><gpxtpx:TrackPointExtension><gpxtpx:hr>152</gpxtpx:hr></gpxtpx:TrackPointExtension></extensions>
      </trkpt>
      <trkpt lat="59.9846458" lon="15.8275914">
        <ele>2</ele>
        <time>2014-03-12T20:53:37Z</time>
        <extensions><gpxtpx:TrackPointExtension><gpxtpx:hr>152</gpxtpx:hr></gpxtpx:TrackPointExtension></extensions>
      </trkpt>
      <trkpt lat="59.9846457" lon="15.8276101">
        <ele>1.8</ele>
        <time>2014-03-12T20:53:43Z</time>
        <extensions><gpxtpx:TrackPointExtension><gpxtpx:hr>152</gpxtpx:hr></gpxtpx:TrackPointExtension></extensions>
      </trkpt>
      <trkpt lat="59.9846456" lon="15.8276126">
        <ele>1.8</ele>
        <time>2014-03-12T20:53:50Z</time>
        <extensions><gpxtpx:TrackPointExtension><gpxtpx:hr>153</gpxtpx:hr></gpxtpx:TrackPointExtension></extensions>
      </trkpt>
      <trkpt lat="59.984651" lon="15.8275464">
        <ele>1.8</ele>
        <time>2014-03-12T20:53:51Z</time>
        <extensions><gpxtpx:TrackPointExtension><gpxtpx:hr>153</gpxtpx:hr></gpxtpx:TrackPointExtension></extensions>
      </trkpt>
      <trkpt lat="59.9846555" lon="15.8275199">
        <ele>1.8</ele>
        <time>2014-03-12T20:53:58Z</time>
        <extensions><gpxtpx:TrackPointExtension><gpxtpx:hr>152</gpxtpx:hr></gpxtpx:TrackPointExtension></extensions>
      </trkpt>
      <trkpt lat="59.9846585" lon="15.8274685">
        <ele>1.8</ele>
        <time>2014-03-12T20:54:05Z</time>
        <extensions><gpxtpx:TrackPointExtension><gpxtpx:hr>151</gpxtpx:hr></gpxtpx:TrackPointExtension></extensions>
      </trkpt>
      <trkpt lat="59.9846579" lon="15.8274751">
        <ele>1.8</ele>
        <time>2014-03-12T20:54:06Z</time>
        <extensions><gpxtpx:TrackPointExtension><gpxtpx:hr>151</gpxtpx:hr></gpxtpx:TrackPointExtension></extensions>
      </trkpt>
      <trkpt lat="59.9846562" lon="15.8274828">
        <ele>1.8</ele>
        <time>2014-03-12T20:54:07Z</time>
        <extensions><gpxtpx:TrackPointExtension><gpxtpx:hr>152</gpxtpx:hr></gpxtpx:TrackPointExtension></extensions>
      </trkpt>
      <trkpt lat="59.9846564" lon="15.8274854">
        <ele>1.8</ele>
        <time>2014-03-12T20:54:14Z</time>
        <extensions><gpxtpx:TrackPointExtension><gpxtpx:hr>152</gpxtpx:hr></gpxtpx:TrackPointExtension></extensions>
      </trkpt>
      <trkpt lat="59.984671" lon="15.8274784">
        <ele>1.8</ele>
        <time>2014-03-12T20:54:22Z</time>
        <extensions><gpxtpx:TrackPointExtension><gpxtpx:hr>154</gpxtpx:hr></gpxtpx:TrackPointExtension></extensions>
      </trkpt>
      <trkpt lat="59.9846682" lon="15.8274865">
        <ele>1.8</ele>
        <time>2014-03-12T20:54:29Z</time>
        <extensions><gpxtpx:TrackPointExtension><gpxtpx:hr>154</gpxtpx:hr></gpxtpx:TrackPointExtension></extensions>
      </trkpt>
      <trkpt lat="59.9846861" lon="15.8273462">
        <ele>1.8</ele>
        <time>2014-03-12T20:54:35Z</time>
        <extensions><gpxtpx:TrackPointExtension><gpxtpx:hr>153</gpxtpx:hr></gpxtpx:TrackPointExtension></extensions>
      </trkpt>
      <trkpt lat="59.9846899" lon="15.827325">
        <ele>1.8</ele>
        <time>2014-03-12T20:54:36Z</time>
        <extensions><gpxtpx:TrackPointExtension><gpxtpx:hr>153</gpxtpx:hr></gpxtpx:TrackPointExtension></extensions>
      </trkpt>
      <trkpt lat="59.984697" lon="15.827309">
        <ele>1.8</ele>
        <time>2014-03-12T20:54:39Z</time>
        <extensions><gpxtpx:TrackPointExtension><gpxtpx:hr>151</gpxtpx:hr></gpxtpx:TrackPointExtension></extensions>
      </trkpt>
      <trkpt lat="59.9846934" lon="15.8273085">
        <ele>1.8</ele>
        <time>2014-03-12T20:54:42Z</time>
        <extensions><gpxtpx:TrackPointExtension><gpxtpx:hr>151</gpxtpx:hr></gpxtpx:TrackPointExtension></extensions>
      </trkpt>
      <trkpt lat="59.984685" lon="15.827337">
        <ele>1.8</ele>
        <time>2014-03-12T20:54:44Z</time>
        <extensions><gpxtpx:TrackPointExtension><gpxtpx:hr>150</gpxtpx:hr></gpxtpx:TrackPointExtension></extensions>
      </trkpt>
      <trkpt lat="59.984687" lon="15.8273361">
        <ele>1.6</ele>
        <time>2014-03-12T20:54:49Z</time>
        <extensions><gpxtpx:TrackPointExtension><gpxtpx:hr>151</gpxtpx:hr></gpxtpx:TrackPointExtension></extensions>
      </trkpt>
      <trkpt lat="59.9846902" lon="15.8273318">
        <ele>1.6</ele>
        <time>2014-03-12T20:54:56Z</time>
        <extensions><gpxtpx:TrackPointExtension><gpxtpx:hr>150</gpxtpx:hr></gpxtpx:TrackPointExtension></extensions>
      </trkpt>
      <trkpt lat="59.9846704" lon="15.8274007">
        <ele>1.6</ele>
        <time>2014-03-12T20:55:03Z</time>
        <extensions><gpxtpx:TrackPointExtension><gpxtpx:hr>151</gpxtpx:hr></gpxtpx:TrackPointExtension></extensions>
      </trkpt>
      <trkpt lat="59.9846709" lon="15.8273981">
        <ele>1.6</ele>
        <time>2014-03-12T20:55:04Z</time>
        <extensions><gpxtpx:TrackPointExtension><gpxtpx:hr>151</gpxtpx:hr></gpxtpx:TrackPointExtension></extensions>
      </trkpt>
      <trkpt lat="59.9846689" lon="15.8273976">
        <ele>1.6</ele>
        <time>2014-03-12T20:55:11Z</time>
        <extensions><gpxtpx:TrackPointExtension><gpxtpx:hr>151</gpxtpx:hr></gpxtpx:TrackPointExtension></extensions>
      </trkpt>
      <trkpt lat="59.9846626" lon="15.8274334">
        <ele>1.6</ele>
        <time>2014-03-12T20:55:12Z</time>
        <extensions><gpxtpx:TrackPointExtension><gpxtpx:hr>152</gpxtpx:hr></gpxtpx:TrackPointExtension></extensions>
      </trkpt>
      <trkpt lat="59.9846616" lon="15.8274379">
        <ele>1.6</ele>
        <time>2014-03-12T20:55:13Z</time>
        <extensions><gpxtpx:TrackPointExtension><gpxtpx:hr>152</gpxtpx:hr></gpxtpx:TrackPointExtension></extensions>
      </trkpt>
      <trkpt lat="59.9846584" lon="15.8274697">
        <ele>1.6</ele>
        <time>2014-03-12T20:55:20Z</time>
        <extensions><gpxtpx:TrackPointExtension><gpxtpx:hr>152</gpxtpx:hr></gpxtpx:TrackPointExtension></extensions>
      </trkpt>
      <trkpt lat="59.9846571" lon="15.8274742">
        <ele>1.6</ele>
        <time>2014-03-12T20:55:24Z</time>
        <extensions><gpxtpx:TrackPointExtension><gpxtpx:hr>152</gpxtpx:hr></gpxtpx:TrackPointExtension></extensions>
      </trkpt>
      <trkpt lat="59.9846497" lon="15.8275252">
        <ele>1.6</ele>
        <time>2014-03-12T20:55:27Z</time>
        <extensions><gpxtpx:TrackPointExtension><gpxtpx:hr>152</gpxtpx:hr></gpxtpx:TrackPointExtension></extensions>
      </trkpt>
      <trkpt lat="59.9846479" lon="15.8275398">
        <ele>1.6</ele>
        <time>2014-03-12T20:55:31Z</time>
        <extensions><gpxtpx:TrackPointExtension><gpxtpx:hr>153</gpxtpx:hr></gpxtpx:TrackPointExtension></extensions>
      </trkpt>
      <trkpt lat="59.9846437" lon="15.8275829">
        <ele>1.6</ele>
        <time>2014-03-12T20:55:38Z</time>
        <extensions><gpxtpx:TrackPointExtension><gpxtpx:hr>153</gpxtpx:hr></gpxtpx:TrackPointExtension></extensions>
      </trkpt>
      <trkpt lat="59.984645" lon="15.8275773">
        <ele>1.8</ele>
        <time>2014-03-12T20:55:39Z</time>
        <extensions><gpxtpx:TrackPointExtension><gpxtpx:hr>153</gpxtpx:hr></gpxtpx:TrackPointExtension></extensions>
      </trkpt>
      <trkpt lat="59.9846492" lon="15.8275556">
        <ele>1.6</ele>
        <time>2014-03-12T20:55:40Z</time>
        <extensions><gpxtpx:TrackPointExtension><gpxtpx:hr>153</gpxtpx:hr></gpxtpx:TrackPointExtension></extensions>
      </trkpt>
      <trkpt lat="59.9846604" lon="15.8274861">
        <ele>1.6</ele>
        <time>2014-03-12T20:55:46Z</time>
        <extensions><gpxtpx:TrackPointExtension><gpxtpx:hr>154</gpxtpx:hr></gpxtpx:TrackPointExtension></extensions>
      </trkpt>
      <trkpt lat="59.9846657" lon="15.8274734">
        <ele>1.8</ele>
        <time>2014-03-12T20:55:53Z</time>
        <extensions><gpxtpx:TrackPointExtension><gpxtpx:hr>153</gpxtpx:hr></gpxtpx:TrackPointExtension></extensions>
      </trkpt>
      <trkpt lat="59.9846623" lon="15.8274901">
        <ele>1.8</ele>
        <time>2014-03-12T20:55:55Z</time>
        <extensions><gpxtpx:TrackPointExtension><gpxtpx:hr>154</gpxtpx:hr></gpxtpx:TrackPointExtension></extensions>
      </trkpt>
      <trkpt lat="59.9846564" lon="15.8275319">
        <ele>1.8</ele>
        <time>2014-03-12T20:55:59Z</time>
        <extensions><gpxtpx:TrackPointExtension><gpxtpx:hr>154</gpxtpx:hr></gpxtpx:TrackPointExtension></extensions>
      </trkpt>
      <trkpt lat="59.9846555" lon="15.8275364">
        <ele>1.8</ele>
        <time>2014-03-12T20:56:04Z</time>
        <extensions><gpxtpx:TrackPointExtension><gpxtpx:hr>155</gpxtpx:hr></gpxtpx:TrackPointExtension></extensions>
      </trkpt>
      <trkpt lat="59.9846537" lon="15.8275483">
        <ele>1.8</ele>
        <time>2014-03-12T20:56:12Z</time>
        <extensions><gpxtpx:TrackPointExtension><gpxtpx:hr>156</gpxtpx:hr></gpxtpx:TrackPointExtension></extensions>
      </trkpt>
      <trkpt lat="59.9846581" lon="15.8275322">
        <ele>1.8</ele>
        <time>2014-03-12T20:56:20Z</time>
        <extensions><gpxtpx:TrackPointExtension><gpxtpx:hr>156</gpxtpx:hr></gpxtpx:TrackPointExtension></extensions>
      </trkpt>
      <trkpt lat="59.9846508" lon="15.8275392">
        <ele>1.8</ele>
        <time>2014-03-12T20:56:22Z</time>
        <extensions><gpxtpx:TrackPointExtension><gpxtpx:hr>155</gpxtpx:hr></gpxtpx:TrackPointExtension></extensions>
      </trkpt>
      <trkpt lat="59.9846482" lon="15.8275621">
        <ele>1.8</ele>
        <time>2014-03-12T20:56:25Z</time>
        <extensions><gpxtpx:TrackPointExtension><gpxtpx:hr>154</gpxtpx:hr></gpxtpx:TrackPointExtension></extensions>
      </trkpt>
      <trkpt lat="59.9846473" lon="15.8275856">
        <ele>1.8</ele>
        <time>2014-03-12T20:56:30Z</time>
        <extensions><gpxtpx:TrackPointExtension><gpxtpx:hr>153</gpxtpx:hr></gpxtpx:TrackPointExtension></extensions>
      </trkpt>
      <trkpt lat="59.984655" lon="15.8275323">
        <ele>1.8</ele>
        <time>2014-03-12T20:56:37Z</time>
        <extensions><gpxtpx:TrackPointExtension><gpxtpx:hr>153</gpxtpx:hr></gpxtpx:TrackPointExtension></extensions>
      </trkpt>
      <trkpt lat="59.9846559" lon="15.8275271">
        <ele>1.8</ele>
        <time>2014-03-12T20:56:38Z</time>
        <extensions><gpxtpx:TrackPointExtension><gpxtpx:hr>153</gpxtpx:hr></gpxtpx:TrackPointExtension></extensions>
      </trkpt>
      <trkpt lat="59.9846529" lon="15.8275665">
        <ele>1.8</ele>
        <time>2014-03-12T20:56:45Z</time>
        <extensions><gpxtpx:TrackPointExtension><gpxtpx:hr>153</gpxtpx:hr></gpxtpx:TrackPointExtension></extensions>
      </trkpt>
      <trkpt lat="59.9846504" lon="15.8275889">
        <ele>1.8</ele>
        <time>2014-03-12T20:56:52Z</time>
        <extensions><gpxtpx:TrackPointExtension><gpxtpx:hr>153</gpxtpx:hr></gpxtpx:TrackPointExtension></extensions>
      </trkpt>
      <trkpt lat="59.9846457" lon="15.8276144">
        <ele>1.8</ele>
        <time>2014-03-12T20:56:59Z</time>
        <extensions><gpxtpx:TrackPointExtension><gpxtpx:hr>153</gpxtpx:hr></gpxtpx:TrackPointExtension></extensions>
      </trkpt>
      <trkpt lat="59.9846408" lon="15.8276374">
        <ele>1.8</ele>
        <time>2014-03-12T20:57:05Z</time>
        <extensions><gpxtpx:TrackPointExtension><gpxtpx:hr>153</gpxtpx:hr></gpxtpx:TrackPointExtension></extensions>
      </trkpt>
      <trkpt lat="59.9846366" lon="15.8276543">
        <ele>1.8</ele>
        <time>2014-03-12T20:57:11Z</time>
        <extensions><gpxtpx:TrackPointExtension><gpxtpx:hr>154</gpxtpx:hr></gpxtpx:TrackPointExtension></extensions>
      </trkpt>
      <trkpt lat="59.9846401" lon="15.827631">
        <ele>1.8</ele>
        <time>2014-03-12T20:57:17Z</time>
        <extensions><gpxtpx:TrackPointExtension><gpxtpx:hr>153</gpxtpx:hr></gpxtpx:TrackPointExtension></extensions>
      </trkpt>
      <trkpt lat="59.9846223" lon="15.8275158">
        <ele>1.8</ele>
        <time>2014-03-12T20:57:21Z</time>
        <extensions><gpxtpx:TrackPointExtension><gpxtpx:hr>153</gpxtpx:hr></gpxtpx:TrackPointExtension></extensions>
      </trkpt>
      <trkpt lat="59.9846204" lon="15.827515">
        <ele>1.8</ele>
        <time>2014-03-12T20:57:22Z</time>
        <extensions><gpxtpx:TrackPointExtension><gpxtpx:hr>154</gpxtpx:hr></gpxtpx:TrackPointExtension></extensions>
      </trkpt>
      <trkpt lat="59.9846265" lon="15.8274812">
        <ele>1.8</ele>
        <time>2014-03-12T20:57:27Z</time>
        <extensions><gpxtpx:TrackPointExtension><gpxtpx:hr>153</gpxtpx:hr></gpxtpx:TrackPointExtension></extensions>
      </trkpt>
      <trkpt lat="59.9846259" lon="15.8274909">
        <ele>1.8</ele>
        <time>2014-03-12T20:57:28Z</time>
        <extensions><gpxtpx:TrackPointExtension><gpxtpx:hr>154</gpxtpx:hr></gpxtpx:TrackPointExtension></extensions>
      </trkpt>
      <trkpt lat="59.9846304" lon="15.8274776">
        <ele>1.8</ele>
        <time>2014-03-12T20:57:34Z</time>
        <extensions><gpxtpx:TrackPointExtension><gpxtpx:hr>153</gpxtpx:hr></gpxtpx:TrackPointExtension></extensions>
      </trkpt>
      <trkpt lat="59.9846432" lon="15.8274775">
        <ele>1.6</ele>
        <time>2014-03-12T20:57:40Z</time>
        <extensions><gpxtpx:TrackPointExtension><gpxtpx:hr>154</gpxtpx:hr></gpxtpx:TrackPointExtension></extensions>
      </trkpt>
      <trkpt lat="59.9846264" lon="15.8275003">
        <ele>1.8</ele>
        <time>2014-03-12T20:57:45Z</time>
        <extensions><gpxtpx:TrackPointExtension><gpxtpx:hr>155</gpxtpx:hr></gpxtpx:TrackPointExtension></extensions>
      </trkpt>
      <trkpt lat="59.9846338" lon="15.8274965">
        <ele>1.8</ele>
        <time>2014-03-12T20:57:50Z</time>
        <extensions><gpxtpx:TrackPointExtension><gpxtpx:hr>154</gpxtpx:hr></gpxtpx:TrackPointExtension></extensions>
      </trkpt>
      <trkpt lat="59.9846928" lon="15.827066">
        <ele>1.6</ele>
        <time>2014-03-12T20:57:54Z</time>
        <extensions><gpxtpx:TrackPointExtension><gpxtpx:hr>154</gpxtpx:hr></gpxtpx:TrackPointExtension></extensions>
      </trkpt>
      <trkpt lat="59.9846969" lon="15.8270541">
        <ele>1.8</ele>
        <time>2014-03-12T20:57:56Z</time>
        <extensions><gpxtpx:TrackPointExtension><gpxtpx:hr>154</gpxtpx:hr></gpxtpx:TrackPointExtension></extensions>
      </trkpt>
      <trkpt lat="59.984723" lon="15.8269691">
        <ele>1.8</ele>
        <time>2014-03-12T20:58:00Z</time>
        <extensions><gpxtpx:TrackPointExtension><gpxtpx:hr>153</gpxtpx:hr></gpxtpx:TrackPointExtension></extensions>
      </trkpt>
      <trkpt lat="59.9847314" lon="15.8269562">
        <ele>1.8</ele>
        <time>2014-03-12T20:58:03Z</time>
        <extensions><gpxtpx:TrackPointExtension><gpxtpx:hr>153</gpxtpx:hr></gpxtpx:TrackPointExtension></extensions>
      </trkpt>
      <trkpt lat="59.9847392" lon="15.8269433">
        <ele>1.6</ele>
        <time>2014-03-12T20:58:08Z</time>
        <extensions><gpxtpx:TrackPointExtension><gpxtpx:hr>154</gpxtpx:hr></gpxtpx:TrackPointExtension></extensions>
      </trkpt>
      <trkpt lat="59.9846834" lon="15.8269918">
        <ele>1.6</ele>
        <time>2014-03-12T20:58:13Z</time>
        <extensions><gpxtpx:TrackPointExtension><gpxtpx:hr>155</gpxtpx:hr></gpxtpx:TrackPointExtension></extensions>
      </trkpt>
      <trkpt lat="59.9846898" lon="15.8270295">
        <ele>1.6</ele>
        <time>2014-03-12T20:58:16Z</time>
        <extensions><gpxtpx:TrackPointExtension><gpxtpx:hr>156</gpxtpx:hr></gpxtpx:TrackPointExtension></extensions>
      </trkpt>
      <trkpt lat="59.9846974" lon="15.8270607">
        <ele>1.8</ele>
        <time>2014-03-12T20:58:21Z</time>
        <extensions><gpxtpx:TrackPointExtension><gpxtpx:hr>155</gpxtpx:hr></gpxtpx:TrackPointExtension></extensions>
      </trkpt>
      <trkpt lat="59.9846619" lon="15.8271528">
        <ele>1.8</ele>
        <time>2014-03-12T20:58:24Z</time>
        <extensions><gpxtpx:TrackPointExtension><gpxtpx:hr>156</gpxtpx:hr></gpxtpx:TrackPointExtension></extensions>
      </trkpt>
      <trkpt lat="59.9846677" lon="15.8271495">
        <ele>1.8</ele>
        <time>2014-03-12T20:58:26Z</time>
        <extensions><gpxtpx:TrackPointExtension><gpxtpx:hr>156</gpxtpx:hr></gpxtpx:TrackPointExtension></extensions>
      </trkpt>
      <trkpt lat="59.9846711" lon="15.8271946">
        <ele>1.8</ele>
        <time>2014-03-12T20:58:27Z</time>
        <extensions><gpxtpx:TrackPointExtension><gpxtpx:hr>156</gpxtpx:hr></gpxtpx:TrackPointExtension></extensions>
      </trkpt>
      <trkpt lat="59.9846549" lon="15.8272495">
        <ele>1.6</ele>
        <time>2014-03-12T20:58:30Z</time>
        <extensions><gpxtpx:TrackPointExtension><gpxtpx:hr>157</gpxtpx:hr></gpxtpx:TrackPointExtension></extensions>
      </trkpt>
      <trkpt lat="59.9846505" lon="15.827322">
        <ele>1.8</ele>
        <time>2014-03-12T20:58:36Z</time>
        <extensions><gpxtpx:TrackPointExtension><gpxtpx:hr>157</gpxtpx:hr></gpxtpx:TrackPointExtension></extensions>
      </trkpt>
      <trkpt lat="59.9846374" lon="15.8273463">
        <ele>1.8</ele>
        <time>2014-03-12T20:58:38Z</time>
        <extensions><gpxtpx:TrackPointExtension><gpxtpx:hr>157</gpxtpx:hr></gpxtpx:TrackPointExtension></extensions>
      </trkpt>
      <trkpt lat="59.9846337" lon="15.827353">
        <ele>1.8</ele>
        <time>2014-03-12T20:58:42Z</time>
        <extensions><gpxtpx:TrackPointExtension><gpxtpx:hr>157</gpxtpx:hr></gpxtpx:TrackPointExtension></extensions>
      </trkpt>
      <trkpt lat="59.9846367" lon="15.8273613">
        <ele>1.8</ele>
        <time>2014-03-12T20:58:44Z</time>
        <extensions><gpxtpx:TrackPointExtension><gpxtpx:hr>158</gpxtpx:hr></gpxtpx:TrackPointExtension></extensions>
      </trkpt>
      <trkpt lat="59.9846238" lon="15.8274092">
        <ele>1.8</ele>
        <time>2014-03-12T20:58:47Z</time>
        <extensions><gpxtpx:TrackPointExtension><gpxtpx:hr>158</gpxtpx:hr></gpxtpx:TrackPointExtension></extensions>
      </trkpt>
      <trkpt lat="59.98461" lon="15.8274256">
        <ele>1.8</ele>
        <time>2014-03-12T20:58:48Z</time>
        <extensions><gpxtpx:TrackPointExtension><gpxtpx:hr>158</gpxtpx:hr></gpxtpx:TrackPointExtension></extensions>
      </trkpt>
      <trkpt lat="59.984593" lon="15.8274463">
        <ele>1.8</ele>
        <time>2014-03-12T20:58:51Z</time>
        <extensions><gpxtpx:TrackPointExtension><gpxtpx:hr>158</gpxtpx:hr></gpxtpx:TrackPointExtension></extensions>
      </trkpt>
      <trkpt lat="59.9845954" lon="15.8274571">
        <ele>1.8</ele>
        <time>2014-03-12T20:58:54Z</time>
        <extensions><gpxtpx:TrackPointExtension><gpxtpx:hr>158</gpxtpx:hr></gpxtpx:TrackPointExtension></extensions>
      </trkpt>
      <trkpt lat="59.9845737" lon="15.8274482">
        <ele>1.6</ele>
        <time>2014-03-12T20:58:56Z</time>
        <extensions><gpxtpx:TrackPointExtension><gpxtpx:hr>158</gpxtpx:hr></gpxtpx:TrackPointExtension></extensions>
      </trkpt>
      <trkpt lat="59.9845804" lon="15.8274483">
        <ele>1.8</ele>
        <time>2014-03-12T20:58:59Z</time>
        <extensions><gpxtpx:TrackPointExtension><gpxtpx:hr>158</gpxtpx:hr></gpxtpx:TrackPointExtension></extensions>
      </trkpt>
      <trkpt lat="59.9845741" lon="15.8274597">
        <ele>1.8</ele>
        <time>2014-03-12T20:59:05Z</time>
        <extensions><gpxtpx:TrackPointExtension><gpxtpx:hr>158</gpxtpx:hr></gpxtpx:TrackPointExtension></extensions>
      </trkpt>
      <trkpt lat="59.984576" lon="15.8274541">
        <ele>1.6</ele>
        <time>2014-03-12T20:59:08Z</time>
        <extensions><gpxtpx:TrackPointExtension><gpxtpx:hr>158</gpxtpx:hr></gpxtpx:TrackPointExtension></extensions>
      </trkpt>
      <trkpt lat="59.9845808" lon="15.8274582">
        <ele>1.6</ele>
        <time>2014-03-12T20:59:11Z</time>
        <extensions><gpxtpx:TrackPointExtension><gpxtpx:hr>158</gpxtpx:hr></gpxtpx:TrackPointExtension></extensions>
      </trkpt>
      <trkpt lat="59.9845819" lon="15.827456">
        <ele>1.8</ele>
        <time>2014-03-12T20:59:12Z</time>
        <extensions><gpxtpx:TrackPointExtension><gpxtpx:hr>158</gpxtpx:hr></gpxtpx:TrackPointExtension></extensions>
      </trkpt>
      <trkpt lat="59.9845771" lon="15.8274445">
        <ele>1.6</ele>
        <time>2014-03-12T20:59:15Z</time>
        <extensions><gpxtpx:TrackPointExtension><gpxtpx:hr>158</gpxtpx:hr></gpxtpx:TrackPointExtension></extensions>
      </trkpt>
      <trkpt lat="59.9845578" lon="15.8274402">
        <ele>1.6</ele>
        <time>2014-03-12T20:59:18Z</time>
        <extensions><gpxtpx:TrackPointExtension><gpxtpx:hr>158</gpxtpx:hr></gpxtpx:TrackPointExtension></extensions>
      </trkpt>
      <trkpt lat="59.9845206" lon="15.8274659">
        <ele>1.8</ele>
        <time>2014-03-12T20:59:23Z</time>
        <extensions><gpxtpx:TrackPointExtension><gpxtpx:hr>158</gpxtpx:hr></gpxtpx:TrackPointExtension></extensions>
      </trkpt>
      <trkpt lat="59.9845183" lon="15.8274706">
        <ele>1.8</ele>
        <time>2014-03-12T20:59:24Z</time>
        <extensions><gpxtpx:TrackPointExtension><gpxtpx:hr>158</gpxtpx:hr></gpxtpx:TrackPointExtension></extensions>
      </trkpt>
      <trkpt lat="59.9845275" lon="15.8274691">
        <ele>1.8</ele>
        <time>2014-03-12T20:59:30Z</time>
        <extensions><gpxtpx:TrackPointExtension><gpxtpx:hr>158</gpxtpx:hr></gpxtpx:TrackPointExtension></extensions>
      </trkpt>
      <trkpt lat="59.9844669" lon="15.8273709">
        <ele>1.8</ele>
        <time>2014-03-12T20:59:36Z</time>
        <extensions><gpxtpx:TrackPointExtension><gpxtpx:hr>158</gpxtpx:hr></gpxtpx:TrackPointExtension></extensions>
      </trkpt>
      <trkpt lat="59.9844426" lon="15.8273706">
        <ele>1.8</ele>
        <time>2014-03-12T20:59:43Z</time>
        <extensions><gpxtpx:TrackPointExtension><gpxtpx:hr>157</gpxtpx:hr></gpxtpx:TrackPointExtension></extensions>
      </trkpt>
      <trkpt lat="59.9844274" lon="15.8273443">
        <ele>1.8</ele>
        <time>2014-03-12T20:59:48Z</time>
        <extensions><gpxtpx:TrackPointExtension><gpxtpx:hr>154</gpxtpx:hr></gpxtpx:TrackPointExtension></extensions>
      </trkpt>
      <trkpt lat="59.9844263" lon="15.827346">
        <ele>1.8</ele>
        <time>2014-03-12T20:59:49Z</time>
        <extensions><gpxtpx:TrackPointExtension><gpxtpx:hr>153</gpxtpx:hr></gpxtpx:TrackPointExtension></extensions>
      </trkpt>
      <trkpt lat="59.9844095" lon="15.8273551">
        <ele>1.8</ele>
        <time>2014-03-12T20:59:53Z</time>
        <extensions><gpxtpx:TrackPointExtension><gpxtpx:hr>153</gpxtpx:hr></gpxtpx:TrackPointExtension></extensions>
      </trkpt>
      <trkpt lat="59.9844066" lon="15.8273503">
        <ele>1.8</ele>
        <time>2014-03-12T20:59:55Z</time>
        <extensions><gpxtpx:TrackPointExtension><gpxtpx:hr>153</gpxtpx:hr></gpxtpx:TrackPointExtension></extensions>
      </trkpt>
      <trkpt lat="59.9843913" lon="15.8273393">
        <ele>1.8</ele>
        <time>2014-03-12T21:00:00Z</time>
        <extensions><gpxtpx:TrackPointExtension><gpxtpx:hr>153</gpxtpx:hr></gpxtpx:TrackPointExtension></extensions>
      </trkpt>
      <trkpt lat="59.9843798" lon="15.827341">
        <ele>1.8</ele>
        <time>2014-03-12T21:00:01Z</time>
        <extensions><gpxtpx:TrackPointExtension><gpxtpx:hr>153</gpxtpx:hr></gpxtpx:TrackPointExtension></extensions>
      </trkpt>
      <trkpt lat="59.9843816" lon="15.8273398">
        <ele>1.8</ele>
        <time>2014-03-12T21:00:06Z</time>
        <extensions><gpxtpx:TrackPointExtension><gpxtpx:hr>153</gpxtpx:hr></gpxtpx:TrackPointExtension></extensions>
      </trkpt>
      <trkpt lat="59.984396" lon="15.8273415">
        <ele>1.8</ele>
        <time>2014-03-12T21:00:08Z</time>
        <extensions><gpxtpx:TrackPointExtension><gpxtpx:hr>153</gpxtpx:hr></gpxtpx:TrackPointExtension></extensions>
      </trkpt>
      <trkpt lat="59.9844328" lon="15.8273527">
        <ele>1.6</ele>
        <time>2014-03-12T21:00:12Z</time>
        <extensions><gpxtpx:TrackPointExtension><gpxtpx:hr>153</gpxtpx:hr></gpxtpx:TrackPointExtension></extensions>
      </trkpt>
      <trkpt lat="59.984452" lon="15.8273563">
        <ele>1.8</ele>
        <time>2014-03-12T21:00:15Z</time>
        <extensions><gpxtpx:TrackPointExtension><gpxtpx:hr>153</gpxtpx:hr></gpxtpx:TrackPointExtension></extensions>
      </trkpt>
      <trkpt lat="59.9844601" lon="15.8273545">
        <ele>1.8</ele>
        <time>2014-03-12T21:00:16Z</time>
        <extensions><gpxtpx:TrackPointExtension><gpxtpx:hr>153</gpxtpx:hr></gpxtpx:TrackPointExtension></extensions>
      </trkpt>
      <trkpt lat="59.9844666" lon="15.8273545">
        <ele>1.6</ele>
        <time>2014-03-12T21:00:17Z</time>
        <extensions><gpxtpx:TrackPointExtension><gpxtpx:hr>153</gpxtpx:hr></gpxtpx:TrackPointExtension></extensions>
      </trkpt>
      <trkpt lat="59.9844828" lon="15.8273479">
        <ele>1.8</ele>
        <time>2014-03-12T21:00:19Z</time>
        <extensions><gpxtpx:TrackPointExtension><gpxtpx:hr>153</gpxtpx:hr></gpxtpx:TrackPointExtension></extensions>
      </trkpt>
      <trkpt lat="59.9844726" lon="15.8273568">
        <ele>1.8</ele>
        <time>2014-03-12T21:00:23Z</time>
        <extensions><gpxtpx:TrackPointExtension><gpxtpx:hr>153</gpxtpx:hr></gpxtpx:TrackPointExtension></extensions>
      </trkpt>
      <trkpt lat="59.9844684" lon="15.8273123">
        <ele>1.8</ele>
        <time>2014-03-12T21:00:27Z</time>
        <extensions><gpxtpx:TrackPointExtension><gpxtpx:hr>152</gpxtpx:hr></gpxtpx:TrackPointExtension></extensions>
      </trkpt>
      <trkpt lat="59.9844335" lon="15.8273172">
        <ele>1.8</ele>
        <time>2014-03-12T21:00:30Z</time>
        <extensions><gpxtpx:TrackPointExtension><gpxtpx:hr>153</gpxtpx:hr></gpxtpx:TrackPointExtension></extensions>
      </trkpt>
      <trkpt lat="59.9844252" lon="15.8273267">
        <ele>1.8</ele>
        <time>2014-03-12T21:00:33Z</time>
        <extensions><gpxtpx:TrackPointExtension><gpxtpx:hr>153</gpxtpx:hr></gpxtpx:TrackPointExtension></extensions>
      </trkpt>
      <trkpt lat="59.9844202" lon="15.8273287">
        <ele>1.6</ele>
        <time>2014-03-12T21:00:34Z</time>
        <extensions><gpxtpx:TrackPointExtension><gpxtpx:hr>153</gpxtpx:hr></gpxtpx:TrackPointExtension></extensions>
      </trkpt>
      <trkpt lat="59.9844057" lon="15.8273224">
        <ele>1.6</ele>
        <time>2014-03-12T21:00:38Z</time>
        <extensions><gpxtpx:TrackPointExtension><gpxtpx:hr>154</gpxtpx:hr></gpxtpx:TrackPointExtension></extensions>
      </trkpt>
      <trkpt lat="59.9844026" lon="15.827322">
        <ele>1.6</ele>
        <time>2014-03-12T21:00:39Z</time>
        <extensions><gpxtpx:TrackPointExtension><gpxtpx:hr>154</gpxtpx:hr></gpxtpx:TrackPointExtension></extensions>
      </trkpt>
      <trkpt lat="59.9844024" lon="15.82732">
        <ele>1.6</ele>
        <time>2014-03-12T21:00:44Z</time>
        <extensions><gpxtpx:TrackPointExtension><gpxtpx:hr>155</gpxtpx:hr></gpxtpx:TrackPointExtension></extensions>
      </trkpt>
      <trkpt lat="59.9844023" lon="15.8271955">
        <ele>1.6</ele>
        <time>2014-03-12T21:00:50Z</time>
        <extensions><gpxtpx:TrackPointExtension><gpxtpx:hr>154</gpxtpx:hr></gpxtpx:TrackPointExtension></extensions>
      </trkpt>
      <trkpt lat="59.9843947" lon="15.8272034">
        <ele>1.6</ele>
        <time>2014-03-12T21:00:55Z</time>
        <extensions><gpxtpx:TrackPointExtension><gpxtpx:hr>153</gpxtpx:hr></gpxtpx:TrackPointExtension></extensions>
      </trkpt>
      <trkpt lat="59.9844579" lon="15.8271193">
        <ele>1.6</ele>
        <time>2014-03-12T21:01:00Z</time>
        <extensions><gpxtpx:TrackPointExtension><gpxtpx:hr>152</gpxtpx:hr></gpxtpx:TrackPointExtension></extensions>
      </trkpt>
      <trkpt lat="59.9844511" lon="15.8271251">
        <ele>1.6</ele>
        <time>2014-03-12T21:01:02Z</time>
        <extensions><gpxtpx:TrackPointExtension><gpxtpx:hr>152</gpxtpx:hr></gpxtpx:TrackPointExtension></extensions>
      </trkpt>
      <trkpt lat="59.9844586" lon="15.8271308">
        <ele>1.6</ele>
        <time>2014-03-12T21:01:03Z</time>
        <extensions><gpxtpx:TrackPointExtension><gpxtpx:hr>152</gpxtpx:hr></gpxtpx:TrackPointExtension></extensions>
      </trkpt>
      <trkpt lat="59.9844258" lon="15.8271426">
        <ele>1.6</ele>
        <time>2014-03-12T21:01:07Z</time>
        <extensions><gpxtpx:TrackPointExtension><gpxtpx:hr>152</gpxtpx:hr></gpxtpx:TrackPointExtension></extensions>
      </trkpt>
      <trkpt lat="59.9844251" lon="15.827136">
        <ele>1.6</ele>
        <time>2014-03-12T21:01:08Z</time>
        <extensions><gpxtpx:TrackPointExtension><gpxtpx:hr>152</gpxtpx:hr></gpxtpx:TrackPointExtension></extensions>
      </trkpt>
      <trkpt lat="59.9844119" lon="15.8271158">
        <ele>1.6</ele>
        <time>2014-03-12T21:01:10Z</time>
        <extensions><gpxtpx:TrackPointExtension><gpxtpx:hr>151</gpxtpx:hr></gpxtpx:TrackPointExtension></extensions>
      </trkpt>
      <trkpt lat="59.9844124" lon="15.8271266">
        <ele>1.6</ele>
        <time>2014-03-12T21:01:13Z</time>
        <extensions><gpxtpx:TrackPointExtension><gpxtpx:hr>151</gpxtpx:hr></gpxtpx:TrackPointExtension></extensions>
      </trkpt>
      <trkpt lat="59.9844796" lon="15.8270306">
        <ele>1.6</ele>
        <time>2014-03-12T21:01:18Z</time>
        <extensions><gpxtpx:TrackPointExtension><gpxtpx:hr>151</gpxtpx:hr></gpxtpx:TrackPointExtension></extensions>
      </trkpt>
      <trkpt lat="59.9844763" lon="15.8270286">
        <ele>1.6</ele>
        <time>2014-03-12T21:01:19Z</time>
        <extensions><gpxtpx:TrackPointExtension><gpxtpx:hr>151</gpxtpx:hr></gpxtpx:TrackPointExtension></extensions>
      </trkpt>
      <trkpt lat="59.9844871" lon="15.8270107">
        <ele>1.6</ele>
        <time>2014-03-12T21:01:24Z</time>
        <extensions><gpxtpx:TrackPointExtension><gpxtpx:hr>150</gpxtpx:hr></gpxtpx:TrackPointExtension></extensions>
      </trkpt>
      <trkpt lat="59.9845545" lon="15.826872">
        <ele>1.6</ele>
        <time>2014-03-12T21:01:29Z</time>
        <extensions><gpxtpx:TrackPointExtension><gpxtpx:hr>150</gpxtpx:hr></gpxtpx:TrackPointExtension></extensions>
      </trkpt>
      <trkpt lat="59.9845778" lon="15.8268746">
        <ele>1.6</ele>
        <time>2014-03-12T21:01:31Z</time>
        <extensions><gpxtpx:TrackPointExtension><gpxtpx:hr>151</gpxtpx:hr></gpxtpx:TrackPointExtension></extensions>
      </trkpt>
      <trkpt lat="59.9845765" lon="15.8269726">
        <ele>1.4</ele>
        <time>2014-03-12T21:01:37Z</time>
        <extensions><gpxtpx:TrackPointExtension><gpxtpx:hr>151</gpxtpx:hr></gpxtpx:TrackPointExtension></extensions>
      </trkpt>
      <trkpt lat="59.984558" lon="15.8269992">
        <ele>1.4</ele>
        <time>2014-03-12T21:01:38Z</time>
        <extensions><gpxtpx:TrackPointExtension><gpxtpx:hr>150</gpxtpx:hr></gpxtpx:TrackPointExtension></extensions>
      </trkpt>
      <trkpt lat="59.9845136" lon="15.8270992">
        <ele>1.4</ele>
        <time>2014-03-12T21:01:42Z</time>
        <extensions><gpxtpx:TrackPointExtension><gpxtpx:hr>151</gpxtpx:hr></gpxtpx:TrackPointExtension></extensions>
      </trkpt>
      <trkpt lat="59.9844976" lon="15.827152">
        <ele>1.4</ele>
        <time>2014-03-12T21:01:45Z</time>
        <extensions><gpxtpx:TrackPointExtension><gpxtpx:hr>151</gpxtpx:hr></gpxtpx:TrackPointExtension></extensions>
      </trkpt>
      <trkpt lat="59.9845217" lon="15.8272185">
        <ele>1.4</ele>
        <time>2014-03-12T21:01:51Z</time>
        <extensions><gpxtpx:TrackPointExtension><gpxtpx:hr>151</gpxtpx:hr></gpxtpx:TrackPointExtension></extensions>
      </trkpt>
      <trkpt lat="59.9845302" lon="15.8272405">
        <ele>1.4</ele>
        <time>2014-03-12T21:01:52Z</time>
        <extensions><gpxtpx:TrackPointExtension><gpxtpx:hr>151</gpxtpx:hr></gpxtpx:TrackPointExtension></extensions>
      </trkpt>
      <trkpt lat="59.9845364" lon="15.8272741">
        <ele>1.4</ele>
        <time>2014-03-12T21:01:56Z</time>
        <extensions><gpxtpx:TrackPointExtension><gpxtpx:hr>151</gpxtpx:hr></gpxtpx:TrackPointExtension></extensions>
      </trkpt>
      <trkpt lat="59.984541" lon="15.8272673">
        <ele>1.4</ele>
        <time>2014-03-12T21:01:58Z</time>
        <extensions><gpxtpx:TrackPointExtension><gpxtpx:hr>151</gpxtpx:hr></gpxtpx:TrackPointExtension></extensions>
      </trkpt>
      <trkpt lat="59.984535" lon="15.827331">
        <ele>1.2</ele>
        <time>2014-03-12T21:02:05Z</time>
        <extensions><gpxtpx:TrackPointExtension><gpxtpx:hr>153</gpxtpx:hr></gpxtpx:TrackPointExtension></extensions>
      </trkpt>
      <trkpt lat="59.9845349" lon="15.8273453">
        <ele>1.2</ele>
        <time>2014-03-12T21:02:09Z</time>
        <extensions><gpxtpx:TrackPointExtension><gpxtpx:hr>153</gpxtpx:hr></gpxtpx:TrackPointExtension></extensions>
      </trkpt>
      <trkpt lat="59.9845459" lon="15.8273543">
        <ele>1.2</ele>
        <time>2014-03-12T21:02:12Z</time>
        <extensions><gpxtpx:TrackPointExtension><gpxtpx:hr>153</gpxtpx:hr></gpxtpx:TrackPointExtension></extensions>
      </trkpt>
      <trkpt lat="59.9845436" lon="15.8273731">
        <ele>1.2</ele>
        <time>2014-03-12T21:02:19Z</time>
        <extensions><gpxtpx:TrackPointExtension><gpxtpx:hr>152</gpxtpx:hr></gpxtpx:TrackPointExtension></extensions>
      </trkpt>
      <trkpt lat="59.9845451" lon="15.8273851">
        <ele>1.2</ele>
        <time>2014-03-12T21:02:26Z</time>
        <extensions><gpxtpx:TrackPointExtension><gpxtpx:hr>151</gpxtpx:hr></gpxtpx:TrackPointExtension></extensions>
      </trkpt>
      <trkpt lat="59.9845333" lon="15.8274084">
        <ele>1</ele>
        <time>2014-03-12T21:02:29Z</time>
        <extensions><gpxtpx:TrackPointExtension><gpxtpx:hr>150</gpxtpx:hr></gpxtpx:TrackPointExtension></extensions>
      </trkpt>
      <trkpt lat="59.9845477" lon="15.8274095">
        <ele>1.2</ele>
        <time>2014-03-12T21:02:32Z</time>
        <extensions><gpxtpx:TrackPointExtension><gpxtpx:hr>150</gpxtpx:hr></gpxtpx:TrackPointExtension></extensions>
      </trkpt>
      <trkpt lat="59.9845205" lon="15.8274002">
        <ele>1.2</ele>
        <time>2014-03-12T21:02:35Z</time>
        <extensions><gpxtpx:TrackPointExtension><gpxtpx:hr>150</gpxtpx:hr></gpxtpx:TrackPointExtension></extensions>
      </trkpt>
      <trkpt lat="59.9845142" lon="15.8274">
        <ele>1</ele>
        <time>2014-03-12T21:02:38Z</time>
        <extensions><gpxtpx:TrackPointExtension><gpxtpx:hr>151</gpxtpx:hr></gpxtpx:TrackPointExtension></extensions>
      </trkpt>
      <trkpt lat="59.9845183" lon="15.8274048">
        <ele>1</ele>
        <time>2014-03-12T21:02:45Z</time>
        <extensions><gpxtpx:TrackPointExtension><gpxtpx:hr>151</gpxtpx:hr></gpxtpx:TrackPointExtension></extensions>
      </trkpt>
      <trkpt lat="59.9845331" lon="15.8273985">
        <ele>1</ele>
        <time>2014-03-12T21:02:50Z</time>
        <extensions><gpxtpx:TrackPointExtension><gpxtpx:hr>152</gpxtpx:hr></gpxtpx:TrackPointExtension></extensions>
      </trkpt>
      <trkpt lat="59.9845329" lon="15.8273933">
        <ele>1</ele>
        <time>2014-03-12T21:02:56Z</time>
        <extensions><gpxtpx:TrackPointExtension><gpxtpx:hr>151</gpxtpx:hr></gpxtpx:TrackPointExtension></extensions>
      </trkpt>
      <trkpt lat="59.9844988" lon="15.8273962">
        <ele>1</ele>
        <time>2014-03-12T21:02:59Z</time>
        <extensions><gpxtpx:TrackPointExtension><gpxtpx:hr>152</gpxtpx:hr></gpxtpx:TrackPointExtension></extensions>
      </trkpt>
      <trkpt lat="59.9844974" lon="15.8273987">
        <ele>1</ele>
        <time>2014-03-12T21:03:02Z</time>
        <extensions><gpxtpx:TrackPointExtension><gpxtpx:hr>152</gpxtpx:hr></gpxtpx:TrackPointExtension></extensions>
      </trkpt>
      <trkpt lat="59.9844979" lon="15.8273834">
        <ele>1</ele>
        <time>2014-03-12T21:03:03Z</time>
        <extensions><gpxtpx:TrackPointExtension><gpxtpx:hr>152</gpxtpx:hr></gpxtpx:TrackPointExtension></extensions>
      </trkpt>
      <trkpt lat="59.9844911" lon="15.827394">
        <ele>1</ele>
        <time>2014-03-12T21:03:06Z</time>
        <extensions><gpxtpx:TrackPointExtension><gpxtpx:hr>151</gpxtpx:hr></gpxtpx:TrackPointExtension></extensions>
      </trkpt>
      <trkpt lat="59.984486" lon="15.8274022">
        <ele>1</ele>
        <time>2014-03-12T21:03:08Z</time>
        <extensions><gpxtpx:TrackPointExtension><gpxtpx:hr>151</gpxtpx:hr></gpxtpx:TrackPointExtension></extensions>
      </trkpt>
      <trkpt lat="59.9844923" lon="15.8274012">
        <ele>1</ele>
        <time>2014-03-12T21:03:11Z</time>
        <extensions><gpxtpx:TrackPointExtension><gpxtpx:hr>152</gpxtpx:hr></gpxtpx:TrackPointExtension></extensions>
      </trkpt>
      <trkpt lat="59.9844926" lon="15.8274022">
        <ele>1</ele>
        <time>2014-03-12T21:03:13Z</time>
        <extensions><gpxtpx:TrackPointExtension><gpxtpx:hr>152</gpxtpx:hr></gpxtpx:TrackPointExtension></extensions>
      </trkpt>
      <trkpt lat="59.9844874" lon="15.8273862">
        <ele>1</ele>
        <time>2014-03-12T21:03:15Z</time>
        <extensions><gpxtpx:TrackPointExtension><gpxtpx:hr>152</gpxtpx:hr></gpxtpx:TrackPointExtension></extensions>
      </trkpt>
      <trkpt lat="59.984484" lon="15.8273709">
        <ele>1</ele>
        <time>2014-03-12T21:03:19Z</time>
        <extensions><gpxtpx:TrackPointExtension><gpxtpx:hr>152</gpxtpx:hr></gpxtpx:TrackPointExtension></extensions>
      </trkpt>
      <trkpt lat="59.9844733" lon="15.8273722">
        <ele>1</ele>
        <time>2014-03-12T21:03:21Z</time>
        <extensions><gpxtpx:TrackPointExtension><gpxtpx:hr>152</gpxtpx:hr></gpxtpx:TrackPointExtension></extensions>
      </trkpt>
      <trkpt lat="59.9844733" lon="15.8273449">
        <ele>1</ele>
        <time>2014-03-12T21:03:24Z</time>
        <extensions><gpxtpx:TrackPointExtension><gpxtpx:hr>153</gpxtpx:hr></gpxtpx:TrackPointExtension></extensions>
      </trkpt>
      <trkpt lat="59.9844586" lon="15.827333">
        <ele>1</ele>
        <time>2014-03-12T21:03:30Z</time>
        <extensions><gpxtpx:TrackPointExtension><gpxtpx:hr>153</gpxtpx:hr></gpxtpx:TrackPointExtension></extensions>
      </trkpt>
      <trkpt lat="59.9844508" lon="15.8273385">
        <ele>1</ele>
        <time>2014-03-12T21:03:31Z</time>
        <extensions><gpxtpx:TrackPointExtension><gpxtpx:hr>153</gpxtpx:hr></gpxtpx:TrackPointExtension></extensions>
      </trkpt>
      <trkpt lat="59.9844461" lon="15.8273652">
        <ele>0.8</ele>
        <time>2014-03-12T21:03:34Z</time>
        <extensions><gpxtpx:TrackPointExtension><gpxtpx:hr>154</gpxtpx:hr></gpxtpx:TrackPointExtension></extensions>
      </trkpt>
      <trkpt lat="59.9844482" lon="15.8273769">
        <ele>0.8</ele>
        <time>2014-03-12T21:03:37Z</time>
        <extensions><gpxtpx:TrackPointExtension><gpxtpx:hr>154</gpxtpx:hr></gpxtpx:TrackPointExtension></extensions>
      </trkpt>
      <trkpt lat="59.9844399" lon="15.8273948">
        <ele>0.8</ele>
        <time>2014-03-12T21:03:43Z</time>
        <extensions><gpxtpx:TrackPointExtension><gpxtpx:hr>154</gpxtpx:hr></gpxtpx:TrackPointExtension></extensions>
      </trkpt>
      <trkpt lat="59.9844337" lon="15.8274078">
        <ele>0.8</ele>
        <time>2014-03-12T21:03:50Z</time>
        <extensions><gpxtpx:TrackPointExtension><gpxtpx:hr>155</gpxtpx:hr></gpxtpx:TrackPointExtension></extensions>
      </trkpt>
      <trkpt lat="59.9844385" lon="15.8274073">
        <ele>0.8</ele>
        <time>2014-03-12T21:03:54Z</time>
        <extensions><gpxtpx:TrackPointExtension><gpxtpx:hr>155</gpxtpx:hr></gpxtpx:TrackPointExtension></extensions>
      </trkpt>
      <trkpt lat="59.984446" lon="15.8274167">
        <ele>0.8</ele>
        <time>2014-03-12T21:03:56Z</time>
        <extensions><gpxtpx:TrackPointExtension><gpxtpx:hr>155</gpxtpx:hr></gpxtpx:TrackPointExtension></extensions>
      </trkpt>
      <trkpt lat="59.9844482" lon="15.8274131">
        <ele>0.8</ele>
        <time>2014-03-12T21:03:57Z</time>
        <extensions><gpxtpx:TrackPointExtension><gpxtpx:hr>156</gpxtpx:hr></gpxtpx:TrackPointExtension></extensions>
      </trkpt>
      <trkpt lat="59.9844637" lon="15.8274046">
        <ele>0.8</ele>
        <time>2014-03-12T21:03:59Z</time>
        <extensions><gpxtpx:TrackPointExtension><gpxtpx:hr>156</gpxtpx:hr></gpxtpx:TrackPointExtension></extensions>
      </trkpt>
      <trkpt lat="59.9844777" lon="15.8273809">
        <ele>0.8</ele>
        <time>2014-03-12T21:04:02Z</time>
        <extensions><gpxtpx:TrackPointExtension><gpxtpx:hr>156</gpxtpx:hr></gpxtpx:TrackPointExtension></extensions>
      </trkpt>
      <trkpt lat="59.9844865" lon="15.8273607">
        <ele>0.8</ele>
        <time>2014-03-12T21:04:03Z</time>
        <extensions><gpxtpx:TrackPointExtension><gpxtpx:hr>156</gpxtpx:hr></gpxtpx:TrackPointExtension></extensions>
      </trkpt>
      <trkpt lat="59.9845158" lon="15.8273225">
        <ele>0.8</ele>
        <time>2014-03-12T21:04:07Z</time>
        <extensions><gpxtpx:TrackPointExtension><gpxtpx:hr>156</gpxtpx:hr></gpxtpx:TrackPointExtension></extensions>
      </trkpt>
      <trkpt lat="59.9845197" lon="15.8273142">
        <ele>0.8</ele>
        <time>2014-03-12T21:04:08Z</time>
        <extensions><gpxtpx:TrackPointExtension><gpxtpx:hr>157</gpxtpx:hr></gpxtpx:TrackPointExtension></extensions>
      </trkpt>
      <trkpt lat="59.9845256" lon="15.8273142">
        <ele>0.8</ele>
        <time>2014-03-12T21:04:09Z</time>
        <extensions><gpxtpx:TrackPointExtension><gpxtpx:hr>157</gpxtpx:hr></gpxtpx:TrackPointExtension></extensions>
      </trkpt>
      <trkpt lat="59.9845326" lon="15.8273081">
        <ele>0.8</ele>
        <time>2014-03-12T21:04:11Z</time>
        <extensions><gpxtpx:TrackPointExtension><gpxtpx:hr>157</gpxtpx:hr></gpxtpx:TrackPointExtension></extensions>
      </trkpt>
      <trkpt lat="59.9845395" lon="15.8273132">
        <ele>0.8</ele>
        <time>2014-03-12T21:04:13Z</time>
        <extensions><gpxtpx:TrackPointExtension><gpxtpx:hr>157</gpxtpx:hr></gpxtpx:TrackPointExtension></extensions>
      </trkpt>
      <trkpt lat="59.9845267" lon="15.8273242">
        <ele>0.8</ele>
        <time>2014-03-12T21:04:16Z</time>
        <extensions><gpxtpx:TrackPointExtension><gpxtpx:hr>157</gpxtpx:hr></gpxtpx:TrackPointExtension></extensions>
      </trkpt>
      <trkpt lat="59.9845212" lon="15.8273416">
        <ele>0.8</ele>
        <time>2014-03-12T21:04:18Z</time>
        <extensions><gpxtpx:TrackPointExtension><gpxtpx:hr>157</gpxtpx:hr></gpxtpx:TrackPointExtension></extensions>
      </trkpt>
      <trkpt lat="59.9845147" lon="15.8273499">
        <ele>0.8</ele>
        <time>2014-03-12T21:04:19Z</time>
        <extensions><gpxtpx:TrackPointExtension><gpxtpx:hr>158</gpxtpx:hr></gpxtpx:TrackPointExtension></extensions>
      </trkpt>
      <trkpt lat="59.9845031" lon="15.8273645">
        <ele>0.8</ele>
        <time>2014-03-12T21:04:23Z</time>
        <extensions><gpxtpx:TrackPointExtension><gpxtpx:hr>157</gpxtpx:hr></gpxtpx:TrackPointExtension></extensions>
      </trkpt>
      <trkpt lat="59.9845023" lon="15.8273741">
        <ele>0.8</ele>
        <time>2014-03-12T21:04:24Z</time>
        <extensions><gpxtpx:TrackPointExtension><gpxtpx:hr>158</gpxtpx:hr></gpxtpx:TrackPointExtension></extensions>
      </trkpt>
      <trkpt lat="59.9844757" lon="15.8273873">
        <ele>0.6</ele>
        <time>2014-03-12T21:04:27Z</time>
        <extensions><gpxtpx:TrackPointExtension><gpxtpx:hr>158</gpxtpx:hr></gpxtpx:TrackPointExtension></extensions>
      </trkpt>
      <trkpt lat="59.9844692" lon="15.8273899">
        <ele>0.8</ele>
        <time>2014-03-12T21:04:29Z</time>
        <extensions><gpxtpx:TrackPointExtension><gpxtpx:hr>158</gpxtpx:hr></gpxtpx:TrackPointExtension></extensions>
      </trkpt>
      <trkpt lat="59.9844686" lon="15.8273936">
        <ele>0.6</ele>
        <time>2014-03-12T21:04:30Z</time>
        <extensions><gpxtpx:TrackPointExtension><gpxtpx:hr>157</gpxtpx:hr></gpxtpx:TrackPointExtension></extensions>
      </trkpt>
      <trkpt lat="59.9844738" lon="15.8274023">
        <ele>0.8</ele>
        <time>2014-03-12T21:04:31Z</time>
        <extensions><gpxtpx:TrackPointExtension><gpxtpx:hr>157</gpxtpx:hr></gpxtpx:TrackPointExtension></extensions>
      </trkpt>
      <trkpt lat="59.98449" lon="15.8274038">
        <ele>0.8</ele>
        <time>2014-03-12T21:04:33Z</time>
        <extensions><gpxtpx:TrackPointExtension><gpxtpx:hr>157</gpxtpx:hr></gpxtpx:TrackPointExtension></extensions>
      </trkpt>
      <trkpt lat="59.9845031" lon="15.8273839">
        <ele>0.8</ele>
        <time>2014-03-12T21:04:35Z</time>
        <extensions><gpxtpx:TrackPointExtension><gpxtpx:hr>156</gpxtpx:hr></gpxtpx:TrackPointExtension></extensions>
      </trkpt>
      <trkpt lat="59.9845258" lon="15.8273708">
        <ele>0.8</ele>
        <time>2014-03-12T21:04:39Z</time>
        <extensions><gpxtpx:TrackPointExtension><gpxtpx:hr>155</gpxtpx:hr></gpxtpx:TrackPointExtension></extensions>
      </trkpt>
      <trkpt lat="59.9845281" lon="15.8273696">
        <ele>0.8</ele>
        <time>2014-03-12T21:04:41Z</time>
        <extensions><gpxtpx:TrackPointExtension><gpxtpx:hr>155</gpxtpx:hr></gpxtpx:TrackPointExtension></extensions>
      </trkpt>
      <trkpt lat="59.9844954" lon="15.8273769">
        <ele>0.8</ele>
        <time>2014-03-12T21:04:42Z</time>
        <extensions><gpxtpx:TrackPointExtension><gpxtpx:hr>155</gpxtpx:hr></gpxtpx:TrackPointExtension></extensions>
      </trkpt>
      <trkpt lat="59.9844775" lon="15.8274203">
        <ele>0.8</ele>
        <time>2014-03-12T21:04:46Z</time>
        <extensions><gpxtpx:TrackPointExtension><gpxtpx:hr>156</gpxtpx:hr></gpxtpx:TrackPointExtension></extensions>
      </trkpt>
      <trkpt lat="59.9844755" lon="15.8274022">
        <ele>0.8</ele>
        <time>2014-03-12T21:04:49Z</time>
        <extensions><gpxtpx:TrackPointExtension><gpxtpx:hr>156</gpxtpx:hr></gpxtpx:TrackPointExtension></extensions>
      </trkpt>
      <trkpt lat="59.9844694" lon="15.8274012">
        <ele>0.8</ele>
        <time>2014-03-12T21:04:51Z</time>
        <extensions><gpxtpx:TrackPointExtension><gpxtpx:hr>156</gpxtpx:hr></gpxtpx:TrackPointExtension></extensions>
      </trkpt>
      <trkpt lat="59.984398" lon="15.8274242">
        <ele>0.8</ele>
        <time>2014-03-12T21:04:55Z</time>
        <extensions><gpxtpx:TrackPointExtension><gpxtpx:hr>156</gpxtpx:hr></gpxtpx:TrackPointExtension></extensions>
      </trkpt>
      <trkpt lat="59.9843579" lon="15.8274532">
        <ele>0.8</ele>
        <time>2014-03-12T21:05:00Z</time>
        <extensions><gpxtpx:TrackPointExtension><gpxtpx:hr>156</gpxtpx:hr></gpxtpx:TrackPointExtension></extensions>
      </trkpt>
      <trkpt lat="59.9843538" lon="15.8274594">
        <ele>0.8</ele>
        <time>2014-03-12T21:05:01Z</time>
        <extensions><gpxtpx:TrackPointExtension><gpxtpx:hr>156</gpxtpx:hr></gpxtpx:TrackPointExtension></extensions>
      </trkpt>
      <trkpt lat="59.9843872" lon="15.8274523">
        <ele>0.8</ele>
        <time>2014-03-12T21:05:03Z</time>
        <extensions><gpxtpx:TrackPointExtension><gpxtpx:hr>156</gpxtpx:hr></gpxtpx:TrackPointExtension></extensions>
      </trkpt>
      <trkpt lat="59.9844298" lon="15.8274538">
        <ele>0.8</ele>
        <time>2014-03-12T21:05:06Z</time>
        <extensions><gpxtpx:TrackPointExtension><gpxtpx:hr>157</gpxtpx:hr></gpxtpx:TrackPointExtension></extensions>
      </trkpt>
      <trkpt lat="59.98445" lon="15.8274636">
        <ele>0.8</ele>
        <time>2014-03-12T21:05:11Z</time>
        <extensions><gpxtpx:TrackPointExtension><gpxtpx:hr>159</gpxtpx:hr></gpxtpx:TrackPointExtension></extensions>
      </trkpt>
      <trkpt lat="59.9844876" lon="15.827463">
        <ele>0.8</ele>
        <time>2014-03-12T21:05:17Z</time>
        <extensions><gpxtpx:TrackPointExtension><gpxtpx:hr>159</gpxtpx:hr></gpxtpx:TrackPointExtension></extensions>
      </trkpt>
      <trkpt lat="59.9844833" lon="15.8274747">
        <ele>0.8</ele>
        <time>2014-03-12T21:05:20Z</time>
        <extensions><gpxtpx:TrackPointExtension><gpxtpx:hr>158</gpxtpx:hr></gpxtpx:TrackPointExtension></extensions>
      </trkpt>
      <trkpt lat="59.9844804" lon="15.8274715">
        <ele>0.8</ele>
        <time>2014-03-12T21:05:22Z</time>
        <extensions><gpxtpx:TrackPointExtension><gpxtpx:hr>158</gpxtpx:hr></gpxtpx:TrackPointExtension></extensions>
      </trkpt>
      <trkpt lat="59.9844734" lon="15.8274696">
        <ele>0.8</ele>
        <time>2014-03-12T21:05:23Z</time>
        <extensions><gpxtpx:TrackPointExtension><gpxtpx:hr>157</gpxtpx:hr></gpxtpx:TrackPointExtension></extensions>
      </trkpt>
      <trkpt lat="59.9844839" lon="15.8274829">
        <ele>0.8</ele>
        <time>2014-03-12T21:05:26Z</time>
        <extensions><gpxtpx:TrackPointExtension><gpxtpx:hr>157</gpxtpx:hr></gpxtpx:TrackPointExtension></extensions>
      </trkpt>
      <trkpt lat="59.9844927" lon="15.8274874">
        <ele>0.8</ele>
        <time>2014-03-12T21:05:28Z</time>
        <extensions><gpxtpx:TrackPointExtension><gpxtpx:hr>157</gpxtpx:hr></gpxtpx:TrackPointExtension></extensions>
      </trkpt>
      <trkpt lat="59.9844836" lon="15.8274907">
        <ele>0.8</ele>
        <time>2014-03-12T21:05:31Z</time>
        <extensions><gpxtpx:TrackPointExtension><gpxtpx:hr>157</gpxtpx:hr></gpxtpx:TrackPointExtension></extensions>
      </trkpt>
      <trkpt lat="59.984472" lon="15.8274789">
        <ele>0.8</ele>
        <time>2014-03-12T21:05:33Z</time>
        <extensions><gpxtpx:TrackPointExtension><gpxtpx:hr>157</gpxtpx:hr></gpxtpx:TrackPointExtension></extensions>
      </trkpt>
      <trkpt lat="59.9844662" lon="15.8274701">
        <ele>0.8</ele>
        <time>2014-03-12T21:05:35Z</time>
        <extensions><gpxtpx:TrackPointExtension><gpxtpx:hr>157</gpxtpx:hr></gpxtpx:TrackPointExtension></extensions>
      </trkpt>
      <trkpt lat="59.9844632" lon="15.8274463">
        <ele>0.8</ele>
        <time>2014-03-12T21:05:39Z</time>
        <extensions><gpxtpx:TrackPointExtension><gpxtpx:hr>157</gpxtpx:hr></gpxtpx:TrackPointExtension></extensions>
      </trkpt>
      <trkpt lat="59.9844826" lon="15.8274723">
        <ele>0.8</ele>
        <time>2014-03-12T21:05:43Z</time>
        <extensions><gpxtpx:TrackPointExtension><gpxtpx:hr>157</gpxtpx:hr></gpxtpx:TrackPointExtension></extensions>
      </trkpt>
      <trkpt lat="59.9844878" lon="15.8274963">
        <ele>0.8</ele>
        <time>2014-03-12T21:05:45Z</time>
        <extensions><gpxtpx:TrackPointExtension><gpxtpx:hr>157</gpxtpx:hr></gpxtpx:TrackPointExtension></extensions>
      </trkpt>
      <trkpt lat="59.9844991" lon="15.8275085">
        <ele>0.8</ele>
        <time>2014-03-12T21:05:47Z</time>
        <extensions><gpxtpx:TrackPointExtension><gpxtpx:hr>157</gpxtpx:hr></gpxtpx:TrackPointExtension></extensions>
      </trkpt>
      <trkpt lat="59.9845" lon="15.8275068">
        <ele>0.8</ele>
        <time>2014-03-12T21:05:50Z</time>
        <extensions><gpxtpx:TrackPointExtension><gpxtpx:hr>158</gpxtpx:hr></gpxtpx:TrackPointExtension></extensions>
      </trkpt>
      <trkpt lat="59.984496" lon="15.8275131">
        <ele>0.8</ele>
        <time>2014-03-12T21:05:57Z</time>
        <extensions><gpxtpx:TrackPointExtension><gpxtpx:hr>158</gpxtpx:hr></gpxtpx:TrackPointExtension></extensions>
      </trkpt>
      <trkpt lat="59.9845115" lon="15.8275508">
        <ele>0.8</ele>
        <time>2014-03-12T21:05:59Z</time>
        <extensions><gpxtpx:TrackPointExtension><gpxtpx:hr>158</gpxtpx:hr></gpxtpx:TrackPointExtension></extensions>
      </trkpt>
      <trkpt lat="59.9845067" lon="15.8275744">
        <ele>0.8</ele>
        <time>2014-03-12T21:06:04Z</time>
        <extensions><gpxtpx:TrackPointExtension><gpxtpx:hr>158</gpxtpx:hr></gpxtpx:TrackPointExtension></extensions>
      </trkpt>
      <trkpt lat="59.9845018" lon="15.8275423">
        <ele>0.8</ele>
        <time>2014-03-12T21:06:10Z</time>
        <extensions><gpxtpx:TrackPointExtension><gpxtpx:hr>158</gpxtpx:hr></gpxtpx:TrackPointExtension></extensions>
      </trkpt>
      <trkpt lat="59.9844974" lon="15.8275359">
        <ele>0.8</ele>
        <time>2014-03-12T21:06:11Z</time>
        <extensions><gpxtpx:TrackPointExtension><gpxtpx:hr>158</gpxtpx:hr></gpxtpx:TrackPointExtension></extensions>
      </trkpt>
      <trkpt lat="59.9844862" lon="15.8275256">
        <ele>0.8</ele>
        <time>2014-03-12T21:06:17Z</time>
        <extensions><gpxtpx:TrackPointExtension><gpxtpx:hr>158</gpxtpx:hr></gpxtpx:TrackPointExtension></extensions>
      </trkpt>
      <trkpt lat="59.9844827" lon="15.8275494">
        <ele>0.8</ele>
        <time>2014-03-12T21:06:18Z</time>
        <extensions><gpxtpx:TrackPointExtension><gpxtpx:hr>158</gpxtpx:hr></gpxtpx:TrackPointExtension></extensions>
      </trkpt>
      <trkpt lat="59.984506" lon="15.8275801">
        <ele>0.8</ele>
        <time>2014-03-12T21:06:22Z</time>
        <extensions><gpxtpx:TrackPointExtension><gpxtpx:hr>158</gpxtpx:hr></gpxtpx:TrackPointExtension></extensions>
      </trkpt>
      <trkpt lat="59.9845065" lon="15.8275914">
        <ele>0.8</ele>
        <time>2014-03-12T21:06:23Z</time>
        <extensions><gpxtpx:TrackPointExtension><gpxtpx:hr>158</gpxtpx:hr></gpxtpx:TrackPointExtension></extensions>
      </trkpt>
      <trkpt lat="59.984521" lon="15.8276596">
        <ele>0.8</ele>
        <time>2014-03-12T21:06:26Z</time>
        <extensions><gpxtpx:TrackPointExtension><gpxtpx:hr>159</gpxtpx:hr></gpxtpx:TrackPointExtension></extensions>
      </trkpt>
      <trkpt lat="59.9845215" lon="15.8276638">
        <ele>0.8</ele>
        <time>2014-03-12T21:06:27Z</time>
        <extensions><gpxtpx:TrackPointExtension><gpxtpx:hr>159</gpxtpx:hr></gpxtpx:TrackPointExtension></extensions>
      </trkpt>
      <trkpt lat="59.9845324" lon="15.82764">
        <ele>0.8</ele>
        <time>2014-03-12T21:06:30Z</time>
        <extensions><gpxtpx:TrackPointExtension><gpxtpx:hr>159</gpxtpx:hr></gpxtpx:TrackPointExtension></extensions>
      </trkpt>
      <trkpt lat="59.9845346" lon="15.8276461">
        <ele>0.8</ele>
        <time>2014-03-12T21:06:32Z</time>
        <extensions><gpxtpx:TrackPointExtension><gpxtpx:hr>159</gpxtpx:hr></gpxtpx:TrackPointExtension></extensions>
      </trkpt>
      <trkpt lat="59.9845267" lon="15.8276607">
        <ele>0.8</ele>
        <time>2014-03-12T21:06:36Z</time>
        <extensions><gpxtpx:TrackPointExtension><gpxtpx:hr>158</gpxtpx:hr></gpxtpx:TrackPointExtension></extensions>
      </trkpt>
      <trkpt lat="59.9845184" lon="15.8276459">
        <ele>0.8</ele>
        <time>2014-03-12T21:06:40Z</time>
        <extensions><gpxtpx:TrackPointExtension><gpxtpx:hr>159</gpxtpx:hr></gpxtpx:TrackPointExtension></extensions>
      </trkpt>
      <trkpt lat="59.9845259" lon="15.8276309">
        <ele>0.8</ele>
        <time>2014-03-12T21:06:43Z</time>
        <extensions><gpxtpx:TrackPointExtension><gpxtpx:hr>159</gpxtpx:hr></gpxtpx:TrackPointExtension></extensions>
      </trkpt>
      <trkpt lat="59.9845323" lon="15.8276637">
        <ele>0.6</ele>
        <time>2014-03-12T21:06:46Z</time>
        <extensions><gpxtpx:TrackPointExtension><gpxtpx:hr>159</gpxtpx:hr></gpxtpx:TrackPointExtension></extensions>
      </trkpt>
      <trkpt lat="59.9845313" lon="15.8276653">
        <ele>0.8</ele>
        <time>2014-03-12T21:06:47Z</time>
        <extensions><gpxtpx:TrackPointExtension><gpxtpx:hr>159</gpxtpx:hr></gpxtpx:TrackPointExtension></extensions>
      </trkpt>
      <trkpt lat="59.9845301" lon="15.8276427">
        <ele>0.8</ele>
        <time>2014-03-12T21:06:50Z</time>
        <extensions><gpxtpx:TrackPointExtension><gpxtpx:hr>159</gpxtpx:hr></gpxtpx:TrackPointExtension></extensions>
      </trkpt>
      <trkpt lat="59.9845273" lon="15.827641">
        <ele>0.8</ele>
        <time>2014-03-12T21:06:52Z</time>
        <extensions><gpxtpx:TrackPointExtension><gpxtpx:hr>160</gpxtpx:hr></gpxtpx:TrackPointExtension></extensions>
      </trkpt>
      <trkpt lat="59.9845453" lon="15.8276385">
        <ele>0.6</ele>
        <time>2014-03-12T21:06:56Z</time>
        <extensions><gpxtpx:TrackPointExtension><gpxtpx:hr>159</gpxtpx:hr></gpxtpx:TrackPointExtension></extensions>
      </trkpt>
      <trkpt lat="59.9845523" lon="15.8276683">
        <ele>0.6</ele>
        <time>2014-03-12T21:06:58Z</time>
        <extensions><gpxtpx:TrackPointExtension><gpxtpx:hr>159</gpxtpx:hr></gpxtpx:TrackPointExtension></extensions>
      </trkpt>
      <trkpt lat="59.9845518" lon="15.8276858">
        <ele>0.6</ele>
        <time>2014-03-12T21:07:01Z</time>
        <extensions><gpxtpx:TrackPointExtension><gpxtpx:hr>159</gpxtpx:hr></gpxtpx:TrackPointExtension></extensions>
      </trkpt>
      <trkpt lat="59.9845617" lon="15.8276558">
        <ele>0.6</ele>
        <time>2014-03-12T21:07:03Z</time>
        <extensions><gpxtpx:TrackPointExtension><gpxtpx:hr>160</gpxtpx:hr></gpxtpx:TrackPointExtension></extensions>
      </trkpt>
      <trkpt lat="59.9845653" lon="15.8276526">
        <ele>0.6</ele>
        <time>2014-03-12T21:07:04Z</time>
        <extensions><gpxtpx:TrackPointExtension><gpxtpx:hr>160</gpxtpx:hr></gpxtpx:TrackPointExtension></extensions>
      </trkpt>
      <trkpt lat="59.9845667" lon="15.8276293">
        <ele>0.6</ele>
        <time>2014-03-12T21:07:11Z</time>
        <extensions><gpxtpx:TrackPointExtension><gpxtpx:hr>161</gpxtpx:hr></gpxtpx:TrackPointExtension></extensions>
      </trkpt>
      <trkpt lat="59.9845641" lon="15.8276285">
        <ele>0.6</ele>
        <time>2014-03-12T21:07:12Z</time>
        <extensions><gpxtpx:TrackPointExtension><gpxtpx:hr>161</gpxtpx:hr></gpxtpx:TrackPointExtension></extensions>
      </trkpt>
      <trkpt lat="59.984558" lon="15.827613">
        <ele>0.6</ele>
        <time>2014-03-12T21:07:13Z</time>
        <extensions><gpxtpx:TrackPointExtension><gpxtpx:hr>161</gpxtpx:hr></gpxtpx:TrackPointExtension></extensions>
      </trkpt>
      <trkpt lat="59.9845532" lon="15.8276158">
        <ele>0.6</ele>
        <time>2014-03-12T21:07:17Z</time>
        <extensions><gpxtpx:TrackPointExtension><gpxtpx:hr>162</gpxtpx:hr></gpxtpx:TrackPointExtension></extensions>
      </trkpt>
      <trkpt lat="59.9845508" lon="15.8275812">
        <ele>0.6</ele>
        <time>2014-03-12T21:07:21Z</time>
        <extensions><gpxtpx:TrackPointExtension><gpxtpx:hr>162</gpxtpx:hr></gpxtpx:TrackPointExtension></extensions>
      </trkpt>
      <trkpt lat="59.9845549" lon="15.827577">
        <ele>0.6</ele>
        <time>2014-03-12T21:07:23Z</time>
        <extensions><gpxtpx:TrackPointExtension><gpxtpx:hr>161</gpxtpx:hr></gpxtpx:TrackPointExtension></extensions>
      </trkpt>
      <trkpt lat="59.984551" lon="15.8275714">
        <ele>0.6</ele>
        <time>2014-03-12T21:07:26Z</time>
        <extensions><gpxtpx:TrackPointExtension><gpxtpx:hr>162</gpxtpx:hr></gpxtpx:TrackPointExtension></extensions>
      </trkpt>
      <trkpt lat="59.9845422" lon="15.8275582">
        <ele>0.6</ele>
        <time>2014-03-12T21:07:29Z</time>
        <extensions><gpxtpx:TrackPointExtension><gpxtpx:hr>162</gpxtpx:hr></gpxtpx:TrackPointExtension></extensions>
      </trkpt>
      <trkpt lat="59.984538" lon="15.8275263">
        <ele>0.6</ele>
        <time>2014-03-12T21:07:36Z</time>
        <extensions><gpxtpx:TrackPointExtension><gpxtpx:hr>162</gpxtpx:hr></gpxtpx:TrackPointExtension></extensions>
      </trkpt>
      <trkpt lat="59.9845434" lon="15.8274863">
        <ele>0.6</ele>
        <time>2014-03-12T21:07:39Z</time>
        <extensions><gpxtpx:TrackPointExtension><gpxtpx:hr>162</gpxtpx:hr></gpxtpx:TrackPointExtension></extensions>
      </trkpt>
      <trkpt lat="59.9845456" lon="15.827486">
        <ele>0.6</ele>
        <time>2014-03-12T21:07:41Z</time>
        <extensions><gpxtpx:TrackPointExtension><gpxtpx:hr>162</gpxtpx:hr></gpxtpx:TrackPointExtension></extensions>
      </trkpt>
      <trkpt lat="59.9845366" lon="15.8274999">
        <ele>0.6</ele>
        <time>2014-03-12T21:07:42Z</time>
        <extensions><gpxtpx:TrackPointExtension><gpxtpx:hr>163</gpxtpx:hr></gpxtpx:TrackPointExtension></extensions>
      </trkpt>
      <trkpt lat="59.9845363" lon="15.8275134">
        <ele>0.6</ele>
        <time>2014-03-12T21:07:45Z</time>
        <extensions><gpxtpx:TrackPointExtension><gpxtpx:hr>163</gpxtpx:hr></gpxtpx:TrackPointExtension></extensions>
      </trkpt>
      <trkpt lat="59.9845382" lon="15.8275386">
        <ele>0.6</ele>
        <time>2014-03-12T21:07:47Z</time>
        <extensions><gpxtpx:TrackPointExtension><gpxtpx:hr>163</gpxtpx:hr></gpxtpx:TrackPointExtension></extensions>
      </trkpt>
      <trkpt lat="59.984552" lon="15.8275457">
        <ele>0.6</ele>
        <time>2014-03-12T21:07:49Z</time>
        <extensions><gpxtpx:TrackPointExtension><gpxtpx:hr>163</gpxtpx:hr></gpxtpx:TrackPointExtension></extensions>
      </trkpt>
      <trkpt lat="59.9845615" lon="15.8275838">
        <ele>0.6</ele>
        <time>2014-03-12T21:07:51Z</time>
        <extensions><gpxtpx:TrackPointExtension><gpxtpx:hr>163</gpxtpx:hr></gpxtpx:TrackPointExtension></extensions>
      </trkpt>
      <trkpt lat="59.9845681" lon="15.827593">
        <ele>0.6</ele>
        <time>2014-03-12T21:07:53Z</time>
        <extensions><gpxtpx:TrackPointExtension><gpxtpx:hr>163</gpxtpx:hr></gpxtpx:TrackPointExtension></extensions>
      </trkpt>
      <trkpt lat="59.9845559" lon="15.8275933">
        <ele>0.6</ele>
        <time>2014-03-12T21:07:54Z</time>
        <extensions><gpxtpx:TrackPointExtension><gpxtpx:hr>163</gpxtpx:hr></gpxtpx:TrackPointExtension></extensions>
      </trkpt>
      <trkpt lat="59.9845478" lon="15.8275809">
        <ele>0.6</ele>
        <time>2014-03-12T21:07:55Z</time>
        <extensions><gpxtpx:TrackPointExtension><gpxtpx:hr>163</gpxtpx:hr></gpxtpx:TrackPointExtension></extensions>
      </trkpt>
      <trkpt lat="59.9845474" lon="15.8274955">
        <ele>0.6</ele>
        <time>2014-03-12T21:08:01Z</time>
        <extensions><gpxtpx:TrackPointExtension><gpxtpx:hr>163</gpxtpx:hr></gpxtpx:TrackPointExtension></extensions>
      </trkpt>
      <trkpt lat="59.9845564" lon="15.8274889">
        <ele>0.6</ele>
        <time>2014-03-12T21:08:02Z</time>
        <extensions><gpxtpx:TrackPointExtension><gpxtpx:hr>163</gpxtpx:hr></gpxtpx:TrackPointExtension></extensions>
      </trkpt>
      <trkpt lat="59.9845527" lon="15.8275188">
        <ele>0.6</ele>
        <time>2014-03-12T21:08:05Z</time>
        <extensions><gpxtpx:TrackPointExtension><gpxtpx:hr>163</gpxtpx:hr></gpxtpx:TrackPointExtension></extensions>
      </trkpt>
      <trkpt lat="59.9845624" lon="15.827503">
        <ele>0.6</ele>
        <time>2014-03-12T21:08:07Z</time>
        <extensions><gpxtpx:TrackPointExtension><gpxtpx:hr>163</gpxtpx:hr></gpxtpx:TrackPointExtension></extensions>
      </trkpt>
      <trkpt lat="59.9845715" lon="15.8274915">
        <ele>0.6</ele>
        <time>2014-03-12T21:08:10Z</time>
        <extensions><gpxtpx:TrackPointExtension><gpxtpx:hr>163</gpxtpx:hr></gpxtpx:TrackPointExtension></extensions>
      </trkpt>
      <trkpt lat="59.9845768" lon="15.8274887">
        <ele>0.6</ele>
        <time>2014-03-12T21:08:12Z</time>
        <extensions><gpxtpx:TrackPointExtension><gpxtpx:hr>162</gpxtpx:hr></gpxtpx:TrackPointExtension></extensions>
      </trkpt>
      <trkpt lat="59.9845777" lon="15.8274888">
        <ele>0.6</ele>
        <time>2014-03-12T21:08:13Z</time>
        <extensions><gpxtpx:TrackPointExtension><gpxtpx:hr>163</gpxtpx:hr></gpxtpx:TrackPointExtension></extensions>
      </trkpt>
      <trkpt lat="59.9845603" lon="15.8274864">
        <ele>0.6</ele>
        <time>2014-03-12T21:08:16Z</time>
        <extensions><gpxtpx:TrackPointExtension><gpxtpx:hr>163</gpxtpx:hr></gpxtpx:TrackPointExtension></extensions>
      </trkpt>
      <trkpt lat="59.9845449" lon="15.8274732">
        <ele>0.6</ele>
        <time>2014-03-12T21:08:17Z</time>
        <extensions><gpxtpx:TrackPointExtension><gpxtpx:hr>163</gpxtpx:hr></gpxtpx:TrackPointExtension></extensions>
      </trkpt>
      <trkpt lat="59.9845382" lon="15.827474">
        <ele>0.6</ele>
        <time>2014-03-12T21:08:18Z</time>
        <extensions><gpxtpx:TrackPointExtension><gpxtpx:hr>163</gpxtpx:hr></gpxtpx:TrackPointExtension></extensions>
      </trkpt>
      <trkpt lat="59.9845468" lon="15.8275027">
        <ele>0.8</ele>
        <time>2014-03-12T21:08:21Z</time>
        <extensions><gpxtpx:TrackPointExtension><gpxtpx:hr>163</gpxtpx:hr></gpxtpx:TrackPointExtension></extensions>
      </trkpt>
      <trkpt lat="59.9845515" lon="15.8275168">
        <ele>0.8</ele>
        <time>2014-03-12T21:08:22Z</time>
        <extensions><gpxtpx:TrackPointExtension><gpxtpx:hr>164</gpxtpx:hr></gpxtpx:TrackPointExtension></extensions>
      </trkpt>
      <trkpt lat="59.9845748" lon="15.8275437">
        <ele>0.8</ele>
        <time>2014-03-12T21:08:26Z</time>
        <extensions><gpxtpx:TrackPointExtension><gpxtpx:hr>165</gpxtpx:hr></gpxtpx:TrackPointExtension></extensions>
      </trkpt>
      <trkpt lat="59.9845788" lon="15.8275529">
        <ele>0.8</ele>
        <time>2014-03-12T21:08:27Z</time>
        <extensions><gpxtpx:TrackPointExtension><gpxtpx:hr>164</gpxtpx:hr></gpxtpx:TrackPointExtension></extensions>
      </trkpt>
      <trkpt lat="59.9845807" lon="15.8275542">
        <ele>0.8</ele>
        <time>2014-03-12T21:08:28Z</time>
        <extensions><gpxtpx:TrackPointExtension><gpxtpx:hr>165</gpxtpx:hr></gpxtpx:TrackPointExtension></extensions>
      </trkpt>
      <trkpt lat="59.9845793" lon="15.8275702">
        <ele>0.6</ele>
        <time>2014-03-12T21:08:30Z</time>
        <extensions><gpxtpx:TrackPointExtension><gpxtpx:hr>164</gpxtpx:hr></gpxtpx:TrackPointExtension></extensions>
      </trkpt>
      <trkpt lat="59.9845664" lon="15.8275639">
        <ele>0.6</ele>
        <time>2014-03-12T21:08:33Z</time>
        <extensions><gpxtpx:TrackPointExtension><gpxtpx:hr>165</gpxtpx:hr></gpxtpx:TrackPointExtension></extensions>
      </trkpt>
      <trkpt lat="59.9845626" lon="15.8275649">
        <ele>0.6</ele>
        <time>2014-03-12T21:08:34Z</time>
        <extensions><gpxtpx:TrackPointExtension><gpxtpx:hr>165</gpxtpx:hr></gpxtpx:TrackPointExtension></extensions>
      </trkpt>
      <trkpt lat="59.9845546" lon="15.8275447">
        <ele>0.6</ele>
        <time>2014-03-12T21:08:35Z</time>
        <extensions><gpxtpx:TrackPointExtension><gpxtpx:hr>165</gpxtpx:hr></gpxtpx:TrackPointExtension></extensions>
      </trkpt>
      <trkpt lat="59.9845462" lon="15.8275301">
        <ele>0.6</ele>
        <time>2014-03-12T21:08:37Z</time>
        <extensions><gpxtpx:TrackPointExtension><gpxtpx:hr>165</gpxtpx:hr></gpxtpx:TrackPointExtension></extensions>
      </trkpt>
      <trkpt lat="59.9845195" lon="15.8275224">
        <ele>0.6</ele>
        <time>2014-03-12T21:08:39Z</time>
        <extensions><gpxtpx:TrackPointExtension><gpxtpx:hr>165</gpxtpx:hr></gpxtpx:TrackPointExtension></extensions>
      </trkpt>
      <trkpt lat="59.9844869" lon="15.8274676">
        <ele>0.6</ele>
        <time>2014-03-12T21:08:44Z</time>
        <extensions><gpxtpx:TrackPointExtension><gpxtpx:hr>164</gpxtpx:hr></gpxtpx:TrackPointExtension></extensions>
      </trkpt>
      <trkpt lat="59.9844885" lon="15.8274508">
        <ele>0.6</ele>
        <time>2014-03-12T21:08:45Z</time>
        <extensions><gpxtpx:TrackPointExtension><gpxtpx:hr>164</gpxtpx:hr></gpxtpx:TrackPointExtension></extensions>
      </trkpt>
      <trkpt lat="59.9844974" lon="15.8274166">
        <ele>0.6</ele>
        <time>2014-03-12T21:08:50Z</time>
        <extensions><gpxtpx:TrackPointExtension><gpxtpx:hr>164</gpxtpx:hr></gpxtpx:TrackPointExtension></extensions>
      </trkpt>
      <trkpt lat="59.9844964" lon="15.8274172">
        <ele>0.6</ele>
        <time>2014-03-12T21:08:51Z</time>
        <extensions><gpxtpx:TrackPointExtension><gpxtpx:hr>164</gpxtpx:hr></gpxtpx:TrackPointExtension></extensions>
      </trkpt>
      <trkpt lat="59.9844549" lon="15.8274012">
        <ele>0.6</ele>
        <time>2014-03-12T21:08:56Z</time>
        <extensions><gpxtpx:TrackPointExtension><gpxtpx:hr>165</gpxtpx:hr></gpxtpx:TrackPointExtension></extensions>
      </trkpt>
      <trkpt lat="59.9844435" lon="15.8274054">
        <ele>0.6</ele>
        <time>2014-03-12T21:08:57Z</time>
        <extensions><gpxtpx:TrackPointExtension><gpxtpx:hr>165</gpxtpx:hr></gpxtpx:TrackPointExtension></extensions>
      </trkpt>
      <trkpt lat="59.9844117" lon="15.827415">
        <ele>0.6</ele>
        <time>2014-03-12T21:09:00Z</time>
        <extensions><gpxtpx:TrackPointExtension><gpxtpx:hr>165</gpxtpx:hr></gpxtpx:TrackPointExtension></extensions>
      </trkpt>
      <trkpt lat="59.9844065" lon="15.8274114">
        <ele>0.6</ele>
        <time>2014-03-12T21:09:03Z</time>
        <extensions><gpxtpx:TrackPointExtension><gpxtpx:hr>165</gpxtpx:hr></gpxtpx:TrackPointExtension></extensions>
      </trkpt>
      <trkpt lat="59.9843522" lon="15.8273416">
        <ele>0.6</ele>
        <time>2014-03-12T21:09:10Z</time>
        <extensions><gpxtpx:TrackPointExtension><gpxtpx:hr>165</gpxtpx:hr></gpxtpx:TrackPointExtension></extensions>
      </trkpt>
      <trkpt lat="59.9843351" lon="15.8273491">
        <ele>0.6</ele>
        <time>2014-03-12T21:09:17Z</time>
        <extensions><gpxtpx:TrackPointExtension><gpxtpx:hr>165</gpxtpx:hr></gpxtpx:TrackPointExtension></extensions>
      </trkpt>
      <trkpt lat="59.9843238" lon="15.8272717">
        <ele>0.6</ele>
        <time>2014-03-12T21:09:18Z</time>
        <extensions><gpxtpx:TrackPointExtension><gpxtpx:hr>165</gpxtpx:hr></gpxtpx:TrackPointExtension></extensions>
      </trkpt>
      <trkpt lat="59.9843296" lon="15.827212">
        <ele>0.6</ele>
        <time>2014-03-12T21:09:22Z</time>
        <extensions><gpxtpx:TrackPointExtension><gpxtpx:hr>165</gpxtpx:hr></gpxtpx:TrackPointExtension></extensions>
      </trkpt>
      <trkpt lat="59.9843347" lon="15.8272116">
        <ele>0.6</ele>
        <time>2014-03-12T21:09:27Z</time>
        <extensions><gpxtpx:TrackPointExtension><gpxtpx:hr>165</gpxtpx:hr></gpxtpx:TrackPointExtension></extensions>
      </trkpt>
      <trkpt lat="59.9843293" lon="15.8271684">
        <ele>0.6</ele>
        <time>2014-03-12T21:09:28Z</time>
        <extensions><gpxtpx:TrackPointExtension><gpxtpx:hr>165</gpxtpx:hr></gpxtpx:TrackPointExtension></extensions>
      </trkpt>
      <trkpt lat="59.9843391" lon="15.8271543">
        <ele>0.6</ele>
        <time>2014-03-12T21:09:33Z</time>
        <extensions><gpxtpx:TrackPointExtension><gpxtpx:hr>163</gpxtpx:hr></gpxtpx:TrackPointExtension></extensions>
      </trkpt>
      <trkpt lat="59.9843354" lon="15.827165">
        <ele>0.6</ele>
        <time>2014-03-12T21:09:40Z</time>
        <extensions><gpxtpx:TrackPointExtension><gpxtpx:hr>162</gpxtpx:hr></gpxtpx:TrackPointExtension></extensions>
      </trkpt>
      <trkpt lat="59.9843441" lon="15.827165">
        <ele>0.6</ele>
        <time>2014-03-12T21:09:46Z</time>
        <extensions><gpxtpx:TrackPointExtension><gpxtpx:hr>162</gpxtpx:hr></gpxtpx:TrackPointExtension></extensions>
      </trkpt>
      <trkpt lat="59.9843421" lon="15.8271604">
        <ele>0.4</ele>
        <time>2014-03-12T21:09:51Z</time>
        <extensions><gpxtpx:TrackPointExtension><gpxtpx:hr>162</gpxtpx:hr></gpxtpx:TrackPointExtension></extensions>
      </trkpt>
      <trkpt lat="59.984548" lon="15.8268785">
        <ele>0.6</ele>
        <time>2014-03-12T21:09:58Z</time>
        <extensions><gpxtpx:TrackPointExtension><gpxtpx:hr>161</gpxtpx:hr></gpxtpx:TrackPointExtension></extensions>
      </trkpt>
      <trkpt lat="59.9845558" lon="15.8268605">
        <ele>0.6</ele>
        <time>2014-03-12T21:10:03Z</time>
        <extensions><gpxtpx:TrackPointExtension><gpxtpx:hr>159</gpxtpx:hr></gpxtpx:TrackPointExtension></extensions>
      </trkpt>
      <trkpt lat="59.9845972" lon="15.8267746">
        <ele>0.6</ele>
        <time>2014-03-12T21:10:06Z</time>
        <extensions><gpxtpx:TrackPointExtension><gpxtpx:hr>159</gpxtpx:hr></gpxtpx:TrackPointExtension></extensions>
      </trkpt>
      <trkpt lat="59.9846095" lon="15.826783">
        <ele>0.6</ele>
        <time>2014-03-12T21:10:08Z</time>
        <extensions><gpxtpx:TrackPointExtension><gpxtpx:hr>159</gpxtpx:hr></gpxtpx:TrackPointExtension></extensions>
      </trkpt>
      <trkpt lat="59.9846113" lon="15.8267906">
        <ele>0.6</ele>
        <time>2014-03-12T21:10:09Z</time>
        <extensions><gpxtpx:TrackPointExtension><gpxtpx:hr>159</gpxtpx:hr></gpxtpx:TrackPointExtension></extensions>
      </trkpt>
      <trkpt lat="59.9846406" lon="15.8267806">
        <ele>0.6</ele>
        <time>2014-03-12T21:10:15Z</time>
        <extensions><gpxtpx:TrackPointExtension><gpxtpx:hr>159</gpxtpx:hr></gpxtpx:TrackPointExtension></extensions>
      </trkpt>
      <trkpt lat="59.9846458" lon="15.8267871">
        <ele>0.6</ele>
        <time>2014-03-12T21:10:21Z</time>
        <extensions><gpxtpx:TrackPointExtension><gpxtpx:hr>159</gpxtpx:hr></gpxtpx:TrackPointExtension></extensions>
      </trkpt>
      <trkpt lat="59.9846366" lon="15.8267756">
        <ele>0.4</ele>
        <time>2014-03-12T21:10:27Z</time>
        <extensions><gpxtpx:TrackPointExtension><gpxtpx:hr>159</gpxtpx:hr></gpxtpx:TrackPointExtension></extensions>
      </trkpt>
      <trkpt lat="59.9846414" lon="15.8266502">
        <ele>0.4</ele>
        <time>2014-03-12T21:10:28Z</time>
        <extensions><gpxtpx:TrackPointExtension><gpxtpx:hr>159</gpxtpx:hr></gpxtpx:TrackPointExtension></extensions>
      </trkpt>
      <trkpt lat="59.9846611" lon="15.8266078">
        <ele>0.6</ele>
        <time>2014-03-12T21:10:33Z</time>
        <extensions><gpxtpx:TrackPointExtension><gpxtpx:hr>158</gpxtpx:hr></gpxtpx:TrackPointExtension></extensions>
      </trkpt>
      <trkpt lat="59.9846616" lon="15.82662">
        <ele>0.6</ele>
        <time>2014-03-12T21:10:38Z</time>
        <extensions><gpxtpx:TrackPointExtension><gpxtpx:hr>157</gpxtpx:hr></gpxtpx:TrackPointExtension></extensions>
      </trkpt>
      <trkpt lat="59.9846654" lon="15.8266272">
        <ele>0.6</ele>
        <time>2014-03-12T21:10:39Z</time>
        <extensions><gpxtpx:TrackPointExtension><gpxtpx:hr>157</gpxtpx:hr></gpxtpx:TrackPointExtension></extensions>
      </trkpt>
      <trkpt lat="59.9846644" lon="15.8265646">
        <ele>0.6</ele>
        <time>2014-03-12T21:10:44Z</time>
        <extensions><gpxtpx:TrackPointExtension><gpxtpx:hr>158</gpxtpx:hr></gpxtpx:TrackPointExtension></extensions>
      </trkpt>
      <trkpt lat="59.9846694" lon="15.8265619">
        <ele>0.6</ele>
        <time>2014-03-12T21:10:45Z</time>
        <extensions><gpxtpx:TrackPointExtension><gpxtpx:hr>158</gpxtpx:hr></gpxtpx:TrackPointExtension></extensions>
      </trkpt>
      <trkpt lat="59.9846762" lon="15.8265594">
        <ele>0.6</ele>
        <time>2014-03-12T21:10:47Z</time>
        <extensions><gpxtpx:TrackPointExtension><gpxtpx:hr>157</gpxtpx:hr></gpxtpx:TrackPointExtension></extensions>
      </trkpt>
      <trkpt lat="59.984683" lon="15.8265628">
        <ele>0.6</ele>
        <time>2014-03-12T21:10:51Z</time>
        <extensions><gpxtpx:TrackPointExtension><gpxtpx:hr>156</gpxtpx:hr></gpxtpx:TrackPointExtension></extensions>
      </trkpt>
      <trkpt lat="59.9846642" lon="15.8265786">
        <ele>0.6</ele>
        <time>2014-03-12T21:10:53Z</time>
        <extensions><gpxtpx:TrackPointExtension><gpxtpx:hr>156</gpxtpx:hr></gpxtpx:TrackPointExtension></extensions>
      </trkpt>
      <trkpt lat="59.9846491" lon="15.826606">
        <ele>0.6</ele>
        <time>2014-03-12T21:10:57Z</time>
        <extensions><gpxtpx:TrackPointExtension><gpxtpx:hr>156</gpxtpx:hr></gpxtpx:TrackPointExtension></extensions>
      </trkpt>
      <trkpt lat="59.9846178" lon="15.826615">
        <ele>0.6</ele>
        <time>2014-03-12T21:10:58Z</time>
        <extensions><gpxtpx:TrackPointExtension><gpxtpx:hr>156</gpxtpx:hr></gpxtpx:TrackPointExtension></extensions>
      </trkpt>
      <trkpt lat="59.9845715" lon="15.8266354">
        <ele>0.6</ele>
        <time>2014-03-12T21:11:02Z</time>
        <extensions><gpxtpx:TrackPointExtension><gpxtpx:hr>156</gpxtpx:hr></gpxtpx:TrackPointExtension></extensions>
      </trkpt>
      <trkpt lat="59.9845459" lon="15.8266409">
        <ele>0.6</ele>
        <time>2014-03-12T21:11:04Z</time>
        <extensions><gpxtpx:TrackPointExtension><gpxtpx:hr>156</gpxtpx:hr></gpxtpx:TrackPointExtension></extensions>
      </trkpt>
      <trkpt lat="59.9845367" lon="15.8266257">
        <ele>0.6</ele>
        <time>2014-03-12T21:11:07Z</time>
        <extensions><gpxtpx:TrackPointExtension><gpxtpx:hr>155</gpxtpx:hr></gpxtpx:TrackPointExtension></extensions>
      </trkpt>
      <trkpt lat="59.9845428" lon="15.8266079">
        <ele>0.4</ele>
        <time>2014-03-12T21:11:09Z</time>
        <extensions><gpxtpx:TrackPointExtension><gpxtpx:hr>155</gpxtpx:hr></gpxtpx:TrackPointExtension></extensions>
      </trkpt>
      <trkpt lat="59.9845474" lon="15.8266056">
        <ele>0.4</ele>
        <time>2014-03-12T21:11:10Z</time>
        <extensions><gpxtpx:TrackPointExtension><gpxtpx:hr>156</gpxtpx:hr></gpxtpx:TrackPointExtension></extensions>
      </trkpt>
      <trkpt lat="59.9845499" lon="15.8265736">
        <ele>0.6</ele>
        <time>2014-03-12T21:11:17Z</time>
        <extensions><gpxtpx:TrackPointExtension><gpxtpx:hr>156</gpxtpx:hr></gpxtpx:TrackPointExtension></extensions>
      </trkpt>
      <trkpt lat="59.9845593" lon="15.8265119">
        <ele>0.6</ele>
        <time>2014-03-12T21:11:22Z</time>
        <extensions><gpxtpx:TrackPointExtension><gpxtpx:hr>156</gpxtpx:hr></gpxtpx:TrackPointExtension></extensions>
      </trkpt>
      <trkpt lat="59.9845627" lon="15.8265127">
        <ele>0.6</ele>
        <time>2014-03-12T21:11:23Z</time>
        <extensions><gpxtpx:TrackPointExtension><gpxtpx:hr>155</gpxtpx:hr></gpxtpx:TrackPointExtension></extensions>
      </trkpt>
      <trkpt lat="59.9845547" lon="15.8265192">
        <ele>0.6</ele>
        <time>2014-03-12T21:11:29Z</time>
        <extensions><gpxtpx:TrackPointExtension><gpxtpx:hr>156</gpxtpx:hr></gpxtpx:TrackPointExtension></extensions>
      </trkpt>
      <trkpt lat="59.9845777" lon="15.8264641">
        <ele>0.6</ele>
        <time>2014-03-12T21:11:31Z</time>
        <extensions><gpxtpx:TrackPointExtension><gpxtpx:hr>156</gpxtpx:hr></gpxtpx:TrackPointExtension></extensions>
      </trkpt>
      <trkpt lat="59.9845922" lon="15.8264066">
        <ele>0.6</ele>
        <time>2014-03-12T21:11:34Z</time>
        <extensions><gpxtpx:TrackPointExtension><gpxtpx:hr>156</gpxtpx:hr></gpxtpx:TrackPointExtension></extensions>
      </trkpt>
      <trkpt lat="59.9846007" lon="15.8263834">
        <ele>0.6</ele>
        <time>2014-03-12T21:11:36Z</time>
        <extensions><gpxtpx:TrackPointExtension><gpxtpx:hr>156</gpxtpx:hr></gpxtpx:TrackPointExtension></extensions>
      </trkpt>
      <trkpt lat="59.9846107" lon="15.8263688">
        <ele>0.6</ele>
        <time>2014-03-12T21:11:40Z</time>
        <extensions><gpxtpx:TrackPointExtension><gpxtpx:hr>156</gpxtpx:hr></gpxtpx:TrackPointExtension></extensions>
      </trkpt>
      <trkpt lat="59.9845902" lon="15.8263175">
        <ele>0.6</ele>
        <time>2014-03-12T21:11:41Z</time>
        <extensions><gpxtpx:TrackPointExtension><gpxtpx:hr>156</gpxtpx:hr></gpxtpx:TrackPointExtension></extensions>
      </trkpt>
      <trkpt lat="59.9845944" lon="15.8263015">
        <ele>0.6</ele>
        <time>2014-03-12T21:11:43Z</time>
        <extensions><gpxtpx:TrackPointExtension><gpxtpx:hr>156</gpxtpx:hr></gpxtpx:TrackPointExtension></extensions>
      </trkpt>
      <trkpt lat="59.9846087" lon="15.826265">
        <ele>0.6</ele>
        <time>2014-03-12T21:11:46Z</time>
        <extensions><gpxtpx:TrackPointExtension><gpxtpx:hr>155</gpxtpx:hr></gpxtpx:TrackPointExtension></extensions>
      </trkpt>
      <trkpt lat="59.9846121" lon="15.8262474">
        <ele>0.6</ele>
        <time>2014-03-12T21:11:48Z</time>
        <extensions><gpxtpx:TrackPointExtension><gpxtpx:hr>155</gpxtpx:hr></gpxtpx:TrackPointExtension></extensions>
      </trkpt>
      <trkpt lat="59.9846114" lon="15.8262431">
        <ele>0.6</ele>
        <time>2014-03-12T21:11:52Z</time>
        <extensions><gpxtpx:TrackPointExtension><gpxtpx:hr>156</gpxtpx:hr></gpxtpx:TrackPointExtension></extensions>
      </trkpt>
      <trkpt lat="59.9846079" lon="15.8262518">
        <ele>0.6</ele>
        <time>2014-03-12T21:11:58Z</time>
        <extensions><gpxtpx:TrackPointExtension><gpxtpx:hr>157</gpxtpx:hr></gpxtpx:TrackPointExtension></extensions>
      </trkpt>
      <trkpt lat="59.9845955" lon="15.8260948">
        <ele>0.8</ele>
        <time>2014-03-12T21:12:03Z</time>
        <extensions><gpxtpx:TrackPointExtension><gpxtpx:hr>157</gpxtpx:hr></gpxtpx:TrackPointExtension></extensions>
      </trkpt>
      <trkpt lat="59.9845974" lon="15.8260795">
        <ele>0.8</ele>
        <time>2014-03-12T21:12:04Z</time>
        <extensions><gpxtpx:TrackPointExtension><gpxtpx:hr>157</gpxtpx:hr></gpxtpx:TrackPointExtension></extensions>
      </trkpt>
      <trkpt lat="59.9846075" lon="15.8260699">
        <ele>0.8</ele>
        <time>2014-03-12T21:12:09Z</time>
        <extensions><gpxtpx:TrackPointExtension><gpxtpx:hr>158</gpxtpx:hr></gpxtpx:TrackPointExtension></extensions>
      </trkpt>
      <trkpt lat="59.984604" lon="15.8260786">
        <ele>0.8</ele>
        <time>2014-03-12T21:12:14Z</time>
        <extensions><gpxtpx:TrackPointExtension><gpxtpx:hr>158</gpxtpx:hr></gpxtpx:TrackPointExtension></extensions>
      </trkpt>
      <trkpt lat="59.9845869" lon="15.8261127">
        <ele>0.8</ele>
        <time>2014-03-12T21:12:19Z</time>
        <extensions><gpxtpx:TrackPointExtension><gpxtpx:hr>157</gpxtpx:hr></gpxtpx:TrackPointExtension></extensions>
      </trkpt>
      <trkpt lat="59.9845903" lon="15.826106">
        <ele>0.8</ele>
        <time>2014-03-12T21:12:25Z</time>
        <extensions><gpxtpx:TrackPointExtension><gpxtpx:hr>158</gpxtpx:hr></gpxtpx:TrackPointExtension></extensions>
      </trkpt>
      <trkpt lat="59.9844969" lon="15.8259595">
        <ele>0.8</ele>
        <time>2014-03-12T21:12:30Z</time>
        <extensions><gpxtpx:TrackPointExtension><gpxtpx:hr>158</gpxtpx:hr></gpxtpx:TrackPointExtension></extensions>
      </trkpt>
      <trkpt lat="59.9845136" lon="15.8259371">
        <ele>0.8</ele>
        <time>2014-03-12T21:12:31Z</time>
        <extensions><gpxtpx:TrackPointExtension><gpxtpx:hr>158</gpxtpx:hr></gpxtpx:TrackPointExtension></extensions>
      </trkpt>
      <trkpt lat="59.9845637" lon="15.8258671">
        <ele>0.8</ele>
        <time>2014-03-12T21:12:34Z</time>
        <extensions><gpxtpx:TrackPointExtension><gpxtpx:hr>158</gpxtpx:hr></gpxtpx:TrackPointExtension></extensions>
      </trkpt>
      <trkpt lat="59.9845737" lon="15.8258633">
        <ele>0.8</ele>
        <time>2014-03-12T21:12:36Z</time>
        <extensions><gpxtpx:TrackPointExtension><gpxtpx:hr>159</gpxtpx:hr></gpxtpx:TrackPointExtension></extensions>
      </trkpt>
      <trkpt lat="59.9845557" lon="15.8258741">
        <ele>0.8</ele>
        <time>2014-03-12T21:12:41Z</time>
        <extensions><gpxtpx:TrackPointExtension><gpxtpx:hr>159</gpxtpx:hr></gpxtpx:TrackPointExtension></extensions>
      </trkpt>
      <trkpt lat="59.9845556" lon="15.8258582">
        <ele>0.8</ele>
        <time>2014-03-12T21:12:45Z</time>
        <extensions><gpxtpx:TrackPointExtension><gpxtpx:hr>158</gpxtpx:hr></gpxtpx:TrackPointExtension></extensions>
      </trkpt>
      <trkpt lat="59.9845548" lon="15.825869">
        <ele>0.8</ele>
        <time>2014-03-12T21:12:46Z</time>
        <extensions><gpxtpx:TrackPointExtension><gpxtpx:hr>158</gpxtpx:hr></gpxtpx:TrackPointExtension></extensions>
      </trkpt>
      <trkpt lat="59.984542" lon="15.8258811">
        <ele>0.8</ele>
        <time>2014-03-12T21:12:52Z</time>
        <extensions><gpxtpx:TrackPointExtension><gpxtpx:hr>159</gpxtpx:hr></gpxtpx:TrackPointExtension></extensions>
      </trkpt>
      <trkpt lat="59.9845677" lon="15.8258779">
        <ele>0.8</ele>
        <time>2014-03-12T21:12:58Z</time>
        <extensions><gpxtpx:TrackPointExtension><gpxtpx:hr>159</gpxtpx:hr></gpxtpx:TrackPointExtension></extensions>
      </trkpt>
      <trkpt lat="59.9846902" lon="15.825698">
        <ele>0.8</ele>
        <time>2014-03-12T21:13:01Z</time>
        <extensions><gpxtpx:TrackPointExtension><gpxtpx:hr>159</gpxtpx:hr></gpxtpx:TrackPointExtension></extensions>
      </trkpt>
      <trkpt lat="59.9846906" lon="15.825702">
        <ele>1</ele>
        <time>2014-03-12T21:13:02Z</time>
        <extensions><gpxtpx:TrackPointExtension><gpxtpx:hr>159</gpxtpx:hr></gpxtpx:TrackPointExtension></extensions>
      </trkpt>
      <trkpt lat="59.9847084" lon="15.8256951">
        <ele>1</ele>
        <time>2014-03-12T21:13:06Z</time>
        <extensions><gpxtpx:TrackPointExtension><gpxtpx:hr>159</gpxtpx:hr></gpxtpx:TrackPointExtension></extensions>
      </trkpt>
      <trkpt lat="59.9847019" lon="15.8257084">
        <ele>0.8</ele>
        <time>2014-03-12T21:13:08Z</time>
        <extensions><gpxtpx:TrackPointExtension><gpxtpx:hr>160</gpxtpx:hr></gpxtpx:TrackPointExtension></extensions>
      </trkpt>
      <trkpt lat="59.9847172" lon="15.8257182">
        <ele>1</ele>
        <time>2014-03-12T21:13:14Z</time>
        <extensions><gpxtpx:TrackPointExtension><gpxtpx:hr>161</gpxtpx:hr></gpxtpx:TrackPointExtension></extensions>
      </trkpt>
      <trkpt lat="59.9847764" lon="15.8256159">
        <ele>1</ele>
        <time>2014-03-12T21:13:16Z</time>
        <extensions><gpxtpx:TrackPointExtension><gpxtpx:hr>161</gpxtpx:hr></gpxtpx:TrackPointExtension></extensions>
      </trkpt>
      <trkpt lat="59.9847529" lon="15.825625">
        <ele>1</ele>
        <time>2014-03-12T21:13:19Z</time>
        <extensions><gpxtpx:TrackPointExtension><gpxtpx:hr>160</gpxtpx:hr></gpxtpx:TrackPointExtension></extensions>
      </trkpt>
      <trkpt lat="59.9847637" lon="15.8256222">
        <ele>1</ele>
        <time>2014-03-12T21:13:24Z</time>
        <extensions><gpxtpx:TrackPointExtension><gpxtpx:hr>161</gpxtpx:hr></gpxtpx:TrackPointExtension></extensions>
      </trkpt>
      <trkpt lat="59.9847549" lon="15.8256415">
        <ele>1</ele>
        <time>2014-03-12T21:13:30Z</time>
        <extensions><gpxtpx:TrackPointExtension><gpxtpx:hr>161</gpxtpx:hr></gpxtpx:TrackPointExtension></extensions>
      </trkpt>
      <trkpt lat="59.9847738" lon="15.825492">
        <ele>1</ele>
        <time>2014-03-12T21:13:35Z</time>
        <extensions><gpxtpx:TrackPointExtension><gpxtpx:hr>162</gpxtpx:hr></gpxtpx:TrackPointExtension></extensions>
      </trkpt>
      <trkpt lat="59.9847655" lon="15.825511">
        <ele>1</ele>
        <time>2014-03-12T21:13:37Z</time>
        <extensions><gpxtpx:TrackPointExtension><gpxtpx:hr>162</gpxtpx:hr></gpxtpx:TrackPointExtension></extensions>
      </trkpt>
      <trkpt lat="59.9847633" lon="15.8255262">
        <ele>1</ele>
        <time>2014-03-12T21:13:44Z</time>
        <extensions><gpxtpx:TrackPointExtension><gpxtpx:hr>162</gpxtpx:hr></gpxtpx:TrackPointExtension></extensions>
      </trkpt>
      <trkpt lat="59.9847305" lon="15.8256716">
        <ele>1</ele>
        <time>2014-03-12T21:13:45Z</time>
        <extensions><gpxtpx:TrackPointExtension><gpxtpx:hr>163</gpxtpx:hr></gpxtpx:TrackPointExtension></extensions>
      </trkpt>
      <trkpt lat="59.9846877" lon="15.8257826">
        <ele>1</ele>
        <time>2014-03-12T21:13:49Z</time>
        <extensions><gpxtpx:TrackPointExtension><gpxtpx:hr>163</gpxtpx:hr></gpxtpx:TrackPointExtension></extensions>
      </trkpt>
      <trkpt lat="59.9846534" lon="15.8259216">
        <ele>1</ele>
        <time>2014-03-12T21:13:55Z</time>
        <extensions><gpxtpx:TrackPointExtension><gpxtpx:hr>162</gpxtpx:hr></gpxtpx:TrackPointExtension></extensions>
      </trkpt>
      <trkpt lat="59.9846561" lon="15.8259462">
        <ele>1</ele>
        <time>2014-03-12T21:13:56Z</time>
        <extensions><gpxtpx:TrackPointExtension><gpxtpx:hr>163</gpxtpx:hr></gpxtpx:TrackPointExtension></extensions>
      </trkpt>
      <trkpt lat="59.9846554" lon="15.8259798">
        <ele>1.2</ele>
        <time>2014-03-12T21:13:58Z</time>
        <extensions><gpxtpx:TrackPointExtension><gpxtpx:hr>162</gpxtpx:hr></gpxtpx:TrackPointExtension></extensions>
      </trkpt>
      <trkpt lat="59.9846405" lon="15.826032">
        <ele>1.2</ele>
        <time>2014-03-12T21:14:01Z</time>
        <extensions><gpxtpx:TrackPointExtension><gpxtpx:hr>162</gpxtpx:hr></gpxtpx:TrackPointExtension></extensions>
      </trkpt>
      <trkpt lat="59.984624" lon="15.8260213">
        <ele>1.2</ele>
        <time>2014-03-12T21:14:05Z</time>
        <extensions><gpxtpx:TrackPointExtension><gpxtpx:hr>163</gpxtpx:hr></gpxtpx:TrackPointExtension></extensions>
      </trkpt>
      <trkpt lat="59.9846362" lon="15.8260062">
        <ele>1.2</ele>
        <time>2014-03-12T21:14:06Z</time>
        <extensions><gpxtpx:TrackPointExtension><gpxtpx:hr>162</gpxtpx:hr></gpxtpx:TrackPointExtension></extensions>
      </trkpt>
      <trkpt lat="59.9846745" lon="15.8259736">
        <ele>1.2</ele>
        <time>2014-03-12T21:14:09Z</time>
        <extensions><gpxtpx:TrackPointExtension><gpxtpx:hr>163</gpxtpx:hr></gpxtpx:TrackPointExtension></extensions>
      </trkpt>
      <trkpt lat="59.9846782" lon="15.8259723">
        <ele>1.2</ele>
        <time>2014-03-12T21:14:11Z</time>
        <extensions><gpxtpx:TrackPointExtension><gpxtpx:hr>163</gpxtpx:hr></gpxtpx:TrackPointExtension></extensions>
      </trkpt>
      <trkpt lat="59.9846914" lon="15.8259777">
        <ele>1.2</ele>
        <time>2014-03-12T21:14:14Z</time>
        <extensions><gpxtpx:TrackPointExtension><gpxtpx:hr>163</gpxtpx:hr></gpxtpx:TrackPointExtension></extensions>
      </trkpt>
      <trkpt lat="59.9847061" lon="15.8259463">
        <ele>1.2</ele>
        <time>2014-03-12T21:14:18Z</time>
        <extensions><gpxtpx:TrackPointExtension><gpxtpx:hr>163</gpxtpx:hr></gpxtpx:TrackPointExtension></extensions>
      </trkpt>
      <trkpt lat="59.9847191" lon="15.8259369">
        <ele>1.2</ele>
        <time>2014-03-12T21:14:19Z</time>
        <extensions><gpxtpx:TrackPointExtension><gpxtpx:hr>163</gpxtpx:hr></gpxtpx:TrackPointExtension></extensions>
      </trkpt>
      <trkpt lat="59.9847228" lon="15.8259294">
        <ele>1.2</ele>
        <time>2014-03-12T21:14:20Z</time>
        <extensions><gpxtpx:TrackPointExtension><gpxtpx:hr>163</gpxtpx:hr></gpxtpx:TrackPointExtension></extensions>
      </trkpt>
      <trkpt lat="59.9847378" lon="15.8259334">
        <ele>1.2</ele>
        <time>2014-03-12T21:14:23Z</time>
        <extensions><gpxtpx:TrackPointExtension><gpxtpx:hr>164</gpxtpx:hr></gpxtpx:TrackPointExtension></extensions>
      </trkpt>
      <trkpt lat="59.9847585" lon="15.8259109">
        <ele>1.2</ele>
        <time>2014-03-12T21:14:26Z</time>
        <extensions><gpxtpx:TrackPointExtension><gpxtpx:hr>164</gpxtpx:hr></gpxtpx:TrackPointExtension></extensions>
      </trkpt>
      <trkpt lat="59.9847751" lon="15.8258789">
        <ele>1.2</ele>
        <time>2014-03-12T21:14:29Z</time>
        <extensions><gpxtpx:TrackPointExtension><gpxtpx:hr>163</gpxtpx:hr></gpxtpx:TrackPointExtension></extensions>
      </trkpt>
      <trkpt lat="59.9847712" lon="15.8259052">
        <ele>1.2</ele>
        <time>2014-03-12T21:14:32Z</time>
        <extensions><gpxtpx:TrackPointExtension><gpxtpx:hr>164</gpxtpx:hr></gpxtpx:TrackPointExtension></extensions>
      </trkpt>
      <trkpt lat="59.9847689" lon="15.825906">
        <ele>1.2</ele>
        <time>2014-03-12T21:14:33Z</time>
        <extensions><gpxtpx:TrackPointExtension><gpxtpx:hr>164</gpxtpx:hr></gpxtpx:TrackPointExtension></extensions>
      </trkpt>
      <trkpt lat="59.9846846" lon="15.8259343">
        <ele>1.2</ele>
        <time>2014-03-12T21:14:36Z</time>
        <extensions><gpxtpx:TrackPointExtension><gpxtpx:hr>164</gpxtpx:hr></gpxtpx:TrackPointExtension></extensions>
      </trkpt>
      <trkpt lat="59.984658" lon="15.8259603">
        <ele>1.2</ele>
        <time>2014-03-12T21:14:39Z</time>
        <extensions><gpxtpx:TrackPointExtension><gpxtpx:hr>165</gpxtpx:hr></gpxtpx:TrackPointExtension></extensions>
      </trkpt>
      <trkpt lat="59.9846539" lon="15.8259645">
        <ele>1.2</ele>
        <time>2014-03-12T21:14:40Z</time>
        <extensions><gpxtpx:TrackPointExtension><gpxtpx:hr>165</gpxtpx:hr></gpxtpx:TrackPointExtension></extensions>
      </trkpt>
      <trkpt lat="59.9846803" lon="15.8259705">
        <ele>1.2</ele>
        <time>2014-03-12T21:14:44Z</time>
        <extensions><gpxtpx:TrackPointExtension><gpxtpx:hr>165</gpxtpx:hr></gpxtpx:TrackPointExtension></extensions>
      </trkpt>
      <trkpt lat="59.9847057" lon="15.8259546">
        <ele>1.2</ele>
        <time>2014-03-12T21:14:46Z</time>
        <extensions><gpxtpx:TrackPointExtension><gpxtpx:hr>165</gpxtpx:hr></gpxtpx:TrackPointExtension></extensions>
      </trkpt>
      <trkpt lat="59.9847114" lon="15.8259383">
        <ele>1.2</ele>
        <time>2014-03-12T21:14:47Z</time>
        <extensions><gpxtpx:TrackPointExtension><gpxtpx:hr>165</gpxtpx:hr></gpxtpx:TrackPointExtension></extensions>
      </trkpt>
      <trkpt lat="59.9847131" lon="15.825921">
        <ele>1.2</ele>
        <time>2014-03-12T21:14:52Z</time>
        <extensions><gpxtpx:TrackPointExtension><gpxtpx:hr>165</gpxtpx:hr></gpxtpx:TrackPointExtension></extensions>
      </trkpt>
      <trkpt lat="59.984713" lon="15.8258667">
        <ele>1.2</ele>
        <time>2014-03-12T21:14:54Z</time>
        <extensions><gpxtpx:TrackPointExtension><gpxtpx:hr>165</gpxtpx:hr></gpxtpx:TrackPointExtension></extensions>
      </trkpt>
      <trkpt lat="59.9847089" lon="15.8258793">
        <ele>1.2</ele>
        <time>2014-03-12T21:14:58Z</time>
        <extensions><gpxtpx:TrackPointExtension><gpxtpx:hr>165</gpxtpx:hr></gpxtpx:TrackPointExtension></extensions>
      </trkpt>
      <trkpt lat="59.9847051" lon="15.8258855">
        <ele>1.2</ele>
        <time>2014-03-12T21:15:04Z</time>
        <extensions><gpxtpx:TrackPointExtension><gpxtpx:hr>165</gpxtpx:hr></gpxtpx:TrackPointExtension></extensions>
      </trkpt>
      <trkpt lat="59.9847224" lon="15.825794">
        <ele>1.2</ele>
        <time>2014-03-12T21:15:07Z</time>
        <extensions><gpxtpx:TrackPointExtension><gpxtpx:hr>165</gpxtpx:hr></gpxtpx:TrackPointExtension></extensions>
      </trkpt>
      <trkpt lat="59.984743" lon="15.825781">
        <ele>1.2</ele>
        <time>2014-03-12T21:15:10Z</time>
        <extensions><gpxtpx:TrackPointExtension><gpxtpx:hr>165</gpxtpx:hr></gpxtpx:TrackPointExtension></extensions>
      </trkpt>
      <trkpt lat="59.984733" lon="15.8257462">
        <ele>1.2</ele>
        <time>2014-03-12T21:15:13Z</time>
        <extensions><gpxtpx:TrackPointExtension><gpxtpx:hr>165</gpxtpx:hr></gpxtpx:TrackPointExtension></extensions>
      </trkpt>
      <trkpt lat="59.98473" lon="15.8257461">
        <ele>1.2</ele>
        <time>2014-03-12T21:15:15Z</time>
        <extensions><gpxtpx:TrackPointExtension><gpxtpx:hr>165</gpxtpx:hr></gpxtpx:TrackPointExtension></extensions>
      </trkpt>
      <trkpt lat="59.984729" lon="15.8258668">
        <ele>1.2</ele>
        <time>2014-03-12T21:15:21Z</time>
        <extensions><gpxtpx:TrackPointExtension><gpxtpx:hr>165</gpxtpx:hr></gpxtpx:TrackPointExtension></extensions>
      </trkpt>
      <trkpt lat="59.9847209" lon="15.8258999">
        <ele>1.2</ele>
        <time>2014-03-12T21:15:22Z</time>
        <extensions><gpxtpx:TrackPointExtension><gpxtpx:hr>166</gpxtpx:hr></gpxtpx:TrackPointExtension></extensions>
      </trkpt>
      <trkpt lat="59.9847129" lon="15.8259054">
        <ele>1.2</ele>
        <time>2014-03-12T21:15:27Z</time>
        <extensions><gpxtpx:TrackPointExtension><gpxtpx:hr>165</gpxtpx:hr></gpxtpx:TrackPointExtension></extensions>
      </trkpt>
      <trkpt lat="59.98469" lon="15.8260934">
        <ele>1.2</ele>
        <time>2014-03-12T21:15:32Z</time>
        <extensions><gpxtpx:TrackPointExtension><gpxtpx:hr>165</gpxtpx:hr></gpxtpx:TrackPointExtension></extensions>
      </trkpt>
      <trkpt lat="59.9846733" lon="15.8261461">
        <ele>1.2</ele>
        <time>2014-03-12T21:15:34Z</time>
        <extensions><gpxtpx:TrackPointExtension><gpxtpx:hr>164</gpxtpx:hr></gpxtpx:TrackPointExtension></extensions>
      </trkpt>
      <trkpt lat="59.9846623" lon="15.826175">
        <ele>1.4</ele>
        <time>2014-03-12T21:15:38Z</time>
        <extensions><gpxtpx:TrackPointExtension><gpxtpx:hr>163</gpxtpx:hr></gpxtpx:TrackPointExtension></extensions>
      </trkpt>
      <trkpt lat="59.9846628" lon="15.8261729">
        <ele>1.4</ele>
        <time>2014-03-12T21:15:39Z</time>
        <extensions><gpxtpx:TrackPointExtension><gpxtpx:hr>162</gpxtpx:hr></gpxtpx:TrackPointExtension></extensions>
      </trkpt>
      <trkpt lat="59.9846291" lon="15.8262727">
        <ele>1.2</ele>
        <time>2014-03-12T21:15:45Z</time>
        <extensions><gpxtpx:TrackPointExtension><gpxtpx:hr>161</gpxtpx:hr></gpxtpx:TrackPointExtension></extensions>
      </trkpt>
      <trkpt lat="59.9846315" lon="15.826276">
        <ele>1.2</ele>
        <time>2014-03-12T21:15:46Z</time>
        <extensions><gpxtpx:TrackPointExtension><gpxtpx:hr>161</gpxtpx:hr></gpxtpx:TrackPointExtension></extensions>
      </trkpt>
      <trkpt lat="59.9846321" lon="15.8263066">
        <ele>1.2</ele>
        <time>2014-03-12T21:15:48Z</time>
        <extensions><gpxtpx:TrackPointExtension><gpxtpx:hr>161</gpxtpx:hr></gpxtpx:TrackPointExtension></extensions>
      </trkpt>
      <trkpt lat="59.9846399" lon="15.8263107">
        <ele>1.2</ele>
        <time>2014-03-12T21:15:52Z</time>
        <extensions><gpxtpx:TrackPointExtension><gpxtpx:hr>161</gpxtpx:hr></gpxtpx:TrackPointExtension></extensions>
      </trkpt>
      <trkpt lat="59.9846229" lon="15.8264112">
        <ele>1.2</ele>
        <time>2014-03-12T21:15:53Z</time>
        <extensions><gpxtpx:TrackPointExtension><gpxtpx:hr>160</gpxtpx:hr></gpxtpx:TrackPointExtension></extensions>
      </trkpt>
      <trkpt lat="59.9846" lon="15.8264967">
        <ele>1.2</ele>
        <time>2014-03-12T21:15:57Z</time>
        <extensions><gpxtpx:TrackPointExtension><gpxtpx:hr>159</gpxtpx:hr></gpxtpx:TrackPointExtension></extensions>
      </trkpt>
      <trkpt lat="59.9845982" lon="15.8264917">
        <ele>1.2</ele>
        <time>2014-03-12T21:15:58Z</time>
        <extensions><gpxtpx:TrackPointExtension><gpxtpx:hr>159</gpxtpx:hr></gpxtpx:TrackPointExtension></extensions>
      </trkpt>
      <trkpt lat="59.9845869" lon="15.8265468">
        <ele>1.4</ele>
        <time>2014-03-12T21:16:00Z</time>
        <extensions><gpxtpx:TrackPointExtension><gpxtpx:hr>159</gpxtpx:hr></gpxtpx:TrackPointExtension></extensions>
      </trkpt>
      <trkpt lat="59.9845776" lon="15.8265764">
        <ele>1.4</ele>
        <time>2014-03-12T21:16:04Z</time>
        <extensions><gpxtpx:TrackPointExtension><gpxtpx:hr>159</gpxtpx:hr></gpxtpx:TrackPointExtension></extensions>
      </trkpt>
      <trkpt lat="59.9845654" lon="15.8266799">
        <ele>1.4</ele>
        <time>2014-03-12T21:16:06Z</time>
        <extensions><gpxtpx:TrackPointExtension><gpxtpx:hr>159</gpxtpx:hr></gpxtpx:TrackPointExtension></extensions>
      </trkpt>
      <trkpt lat="59.9845781" lon="15.826754">
        <ele>1.4</ele>
        <time>2014-03-12T21:16:09Z</time>
        <extensions><gpxtpx:TrackPointExtension><gpxtpx:hr>158</gpxtpx:hr></gpxtpx:TrackPointExtension></extensions>
      </trkpt>
      <trkpt lat="59.9845803" lon="15.826779">
        <ele>1.4</ele>
        <time>2014-03-12T21:16:10Z</time>
        <extensions><gpxtpx:TrackPointExtension><gpxtpx:hr>158</gpxtpx:hr></gpxtpx:TrackPointExtension></extensions>
      </trkpt>
      <trkpt lat="59.9845856" lon="15.8268592">
        <ele>1.4</ele>
        <time>2014-03-12T21:16:14Z</time>
        <extensions><gpxtpx:TrackPointExtension><gpxtpx:hr>158</gpxtpx:hr></gpxtpx:TrackPointExtension></extensions>
      </trkpt>
      <trkpt lat="59.9845774" lon="15.826939">
        <ele>1.4</ele>
        <time>2014-03-12T21:16:18Z</time>
        <extensions><gpxtpx:TrackPointExtension><gpxtpx:hr>158</gpxtpx:hr></gpxtpx:TrackPointExtension></extensions>
      </trkpt>
      <trkpt lat="59.9845836" lon="15.8269343">
        <ele>1.4</ele>
        <time>2014-03-12T21:16:21Z</time>
        <extensions><gpxtpx:TrackPointExtension><gpxtpx:hr>158</gpxtpx:hr></gpxtpx:TrackPointExtension></extensions>
      </trkpt>
      <trkpt lat="59.984587" lon="15.8269222">
        <ele>1.4</ele>
        <time>2014-03-12T21:16:27Z</time>
        <extensions><gpxtpx:TrackPointExtension><gpxtpx:hr>158</gpxtpx:hr></gpxtpx:TrackPointExtension></extensions>
      </trkpt>
      <trkpt lat="59.9845647" lon="15.8270811">
        <ele>1.4</ele>
        <time>2014-03-12T21:16:29Z</time>
        <extensions><gpxtpx:TrackPointExtension><gpxtpx:hr>158</gpxtpx:hr></gpxtpx:TrackPointExtension></extensions>
      </trkpt>
      <trkpt lat="59.984572" lon="15.827137">
        <ele>1.4</ele>
        <time>2014-03-12T21:16:34Z</time>
        <extensions><gpxtpx:TrackPointExtension><gpxtpx:hr>158</gpxtpx:hr></gpxtpx:TrackPointExtension></extensions>
      </trkpt>
      <trkpt lat="59.9845099" lon="15.827229">
        <ele>1.4</ele>
        <time>2014-03-12T21:16:41Z</time>
        <extensions><gpxtpx:TrackPointExtension><gpxtpx:hr>159</gpxtpx:hr></gpxtpx:TrackPointExtension></extensions>
      </trkpt>
      <trkpt lat="59.9844805" lon="15.8273028">
        <ele>1.4</ele>
        <time>2014-03-12T21:16:47Z</time>
        <extensions><gpxtpx:TrackPointExtension><gpxtpx:hr>159</gpxtpx:hr></gpxtpx:TrackPointExtension></extensions>
      </trkpt>
      <trkpt lat="59.984455" lon="15.8273097">
        <ele>1.4</ele>
        <time>2014-03-12T21:16:51Z</time>
        <extensions><gpxtpx:TrackPointExtension><gpxtpx:hr>160</gpxtpx:hr></gpxtpx:TrackPointExtension></extensions>
      </trkpt>
      <trkpt lat="59.9844711" lon="15.8273162">
        <ele>1.4</ele>
        <time>2014-03-12T21:16:53Z</time>
        <extensions><gpxtpx:TrackPointExtension><gpxtpx:hr>161</gpxtpx:hr></gpxtpx:TrackPointExtension></extensions>
      </trkpt>
      <trkpt lat="59.984484" lon="15.8273473">
        <ele>1.4</ele>
        <time>2014-03-12T21:16:58Z</time>
        <extensions><gpxtpx:TrackPointExtension><gpxtpx:hr>162</gpxtpx:hr></gpxtpx:TrackPointExtension></extensions>
      </trkpt>
      <trkpt lat="59.9844986" lon="15.8273962">
        <ele>1.4</ele>
        <time>2014-03-12T21:17:01Z</time>
        <extensions><gpxtpx:TrackPointExtension><gpxtpx:hr>163</gpxtpx:hr></gpxtpx:TrackPointExtension></extensions>
      </trkpt>
      <trkpt lat="59.9845171" lon="15.8273974">
        <ele>1.4</ele>
        <time>2014-03-12T21:17:04Z</time>
        <extensions><gpxtpx:TrackPointExtension><gpxtpx:hr>163</gpxtpx:hr></gpxtpx:TrackPointExtension></extensions>
      </trkpt>
      <trkpt lat="59.9845317" lon="15.8273384">
        <ele>1.4</ele>
        <time>2014-03-12T21:17:09Z</time>
        <extensions><gpxtpx:TrackPointExtension><gpxtpx:hr>164</gpxtpx:hr></gpxtpx:TrackPointExtension></extensions>
      </trkpt>
      <trkpt lat="59.9845306" lon="15.8273326">
        <ele>1.4</ele>
        <time>2014-03-12T21:17:10Z</time>
        <extensions><gpxtpx:TrackPointExtension><gpxtpx:hr>164</gpxtpx:hr></gpxtpx:TrackPointExtension></extensions>
      </trkpt>
      <trkpt lat="59.9845607" lon="15.8273106">
        <ele>1.4</ele>
        <time>2014-03-12T21:17:14Z</time>
        <extensions><gpxtpx:TrackPointExtension><gpxtpx:hr>164</gpxtpx:hr></gpxtpx:TrackPointExtension></extensions>
      </trkpt>
      <trkpt lat="59.9845654" lon="15.8273055">
        <ele>1.4</ele>
        <time>2014-03-12T21:17:15Z</time>
        <extensions><gpxtpx:TrackPointExtension><gpxtpx:hr>164</gpxtpx:hr></gpxtpx:TrackPointExtension></extensions>
      </trkpt>
      <trkpt lat="59.9845746" lon="15.827286">
        <ele>1.4</ele>
        <time>2014-03-12T21:17:19Z</time>
        <extensions><gpxtpx:TrackPointExtension><gpxtpx:hr>164</gpxtpx:hr></gpxtpx:TrackPointExtension></extensions>
      </trkpt>
      <trkpt lat="59.9845853" lon="15.8272455">
        <ele>1.4</ele>
        <time>2014-03-12T21:17:21Z</time>
        <extensions><gpxtpx:TrackPointExtension><gpxtpx:hr>165</gpxtpx:hr></gpxtpx:TrackPointExtension></extensions>
      </trkpt>
      <trkpt lat="59.9846207" lon="15.827207">
        <ele>1.4</ele>
        <time>2014-03-12T21:17:27Z</time>
        <extensions><gpxtpx:TrackPointExtension><gpxtpx:hr>166</gpxtpx:hr></gpxtpx:TrackPointExtension></extensions>
      </trkpt>
      <trkpt lat="59.9846146" lon="15.8272887">
        <ele>1.4</ele>
        <time>2014-03-12T21:17:33Z</time>
        <extensions><gpxtpx:TrackPointExtension><gpxtpx:hr>167</gpxtpx:hr></gpxtpx:TrackPointExtension></extensions>
      </trkpt>
      <trkpt lat="59.9846106" lon="15.8273061">
        <ele>1.4</ele>
        <time>2014-03-12T21:17:34Z</time>
        <extensions><gpxtpx:TrackPointExtension><gpxtpx:hr>167</gpxtpx:hr></gpxtpx:TrackPointExtension></extensions>
      </trkpt>
      <trkpt lat="59.984598" lon="15.8273584">
        <ele>1.4</ele>
        <time>2014-03-12T21:17:38Z</time>
        <extensions><gpxtpx:TrackPointExtension><gpxtpx:hr>167</gpxtpx:hr></gpxtpx:TrackPointExtension></extensions>
      </trkpt>
      <trkpt lat="59.9845855" lon="15.8273966">
        <ele>1.4</ele>
        <time>2014-03-12T21:17:41Z</time>
        <extensions><gpxtpx:TrackPointExtension><gpxtpx:hr>168</gpxtpx:hr></gpxtpx:TrackPointExtension></extensions>
      </trkpt>
      <trkpt lat="59.9845864" lon="15.8273953">
        <ele>1.4</ele>
        <time>2014-03-12T21:17:46Z</time>
        <extensions><gpxtpx:TrackPointExtension><gpxtpx:hr>168</gpxtpx:hr></gpxtpx:TrackPointExtension></extensions>
      </trkpt>
      <trkpt lat="59.9845882" lon="15.8274375">
        <ele>1.4</ele>
        <time>2014-03-12T21:17:47Z</time>
        <extensions><gpxtpx:TrackPointExtension><gpxtpx:hr>169</gpxtpx:hr></gpxtpx:TrackPointExtension></extensions>
      </trkpt>
      <trkpt lat="59.9845943" lon="15.8274476">
        <ele>1.4</ele>
        <time>2014-03-12T21:17:48Z</time>
        <extensions><gpxtpx:TrackPointExtension><gpxtpx:hr>169</gpxtpx:hr></gpxtpx:TrackPointExtension></extensions>
      </trkpt>
      <trkpt lat="59.9846077" lon="15.8274769">
        <ele>1.4</ele>
        <time>2014-03-12T21:17:51Z</time>
        <extensions><gpxtpx:TrackPointExtension><gpxtpx:hr>169</gpxtpx:hr></gpxtpx:TrackPointExtension></extensions>
      </trkpt>
      <trkpt lat="59.9846058" lon="15.8274665">
        <ele>1.6</ele>
        <time>2014-03-12T21:17:55Z</time>
        <extensions><gpxtpx:TrackPointExtension><gpxtpx:hr>169</gpxtpx:hr></gpxtpx:TrackPointExtension></extensions>
      </trkpt>
      <trkpt lat="59.9846044" lon="15.8274913">
        <ele>1.4</ele>
        <time>2014-03-12T21:18:00Z</time>
        <extensions><gpxtpx:TrackPointExtension><gpxtpx:hr>169</gpxtpx:hr></gpxtpx:TrackPointExtension></extensions>
      </trkpt>
      <trkpt lat="59.9846058" lon="15.8275043">
        <ele>1.6</ele>
        <time>2014-03-12T21:18:02Z</time>
        <extensions><gpxtpx:TrackPointExtension><gpxtpx:hr>169</gpxtpx:hr></gpxtpx:TrackPointExtension></extensions>
      </trkpt>
      <trkpt lat="59.9846118" lon="15.8275125">
        <ele>1.6</ele>
        <time>2014-03-12T21:18:04Z</time>
        <extensions><gpxtpx:TrackPointExtension><gpxtpx:hr>170</gpxtpx:hr></gpxtpx:TrackPointExtension></extensions>
      </trkpt>
      <trkpt lat="59.9846089" lon="15.8275219">
        <ele>1.4</ele>
        <time>2014-03-12T21:18:06Z</time>
        <extensions><gpxtpx:TrackPointExtension><gpxtpx:hr>170</gpxtpx:hr></gpxtpx:TrackPointExtension></extensions>
      </trkpt>
      <trkpt lat="59.9846016" lon="15.8275055">
        <ele>1.6</ele>
        <time>2014-03-12T21:18:08Z</time>
        <extensions><gpxtpx:TrackPointExtension><gpxtpx:hr>170</gpxtpx:hr></gpxtpx:TrackPointExtension></extensions>
      </trkpt>
      <trkpt lat="59.9846176" lon="15.8274991">
        <ele>1.6</ele>
        <time>2014-03-12T21:18:13Z</time>
        <extensions><gpxtpx:TrackPointExtension><gpxtpx:hr>170</gpxtpx:hr></gpxtpx:TrackPointExtension></extensions>
      </trkpt>
      <trkpt lat="59.984614" lon="15.8274753">
        <ele>1.6</ele>
        <time>2014-03-12T21:18:14Z</time>
        <extensions><gpxtpx:TrackPointExtension><gpxtpx:hr>170</gpxtpx:hr></gpxtpx:TrackPointExtension></extensions>
      </trkpt>
      <trkpt lat="59.9846178" lon="15.8274578">
        <ele>1.6</ele>
        <time>2014-03-12T21:18:19Z</time>
        <extensions><gpxtpx:TrackPointExtension><gpxtpx:hr>171</gpxtpx:hr></gpxtpx:TrackPointExtension></extensions>
      </trkpt>
      <trkpt lat="59.9846168" lon="15.8274608">
        <ele>1.6</ele>
        <time>2014-03-12T21:18:20Z</time>
        <extensions><gpxtpx:TrackPointExtension><gpxtpx:hr>171</gpxtpx:hr></gpxtpx:TrackPointExtension></extensions>
      </trkpt>
      <trkpt lat="59.9846249" lon="15.8274813">
        <ele>1.6</ele>
        <time>2014-03-12T21:18:22Z</time>
        <extensions><gpxtpx:TrackPointExtension><gpxtpx:hr>170</gpxtpx:hr></gpxtpx:TrackPointExtension></extensions>
      </trkpt>
      <trkpt lat="59.9846165" lon="15.8275103">
        <ele>1.6</ele>
        <time>2014-03-12T21:18:25Z</time>
        <extensions><gpxtpx:TrackPointExtension><gpxtpx:hr>170</gpxtpx:hr></gpxtpx:TrackPointExtension></extensions>
      </trkpt>
      <trkpt lat="59.9846378" lon="15.8274671">
        <ele>1.6</ele>
        <time>2014-03-12T21:18:29Z</time>
        <extensions><gpxtpx:TrackPointExtension><gpxtpx:hr>170</gpxtpx:hr></gpxtpx:TrackPointExtension></extensions>
      </trkpt>
      <trkpt lat="59.9846453" lon="15.8274437">
        <ele>1.6</ele>
        <time>2014-03-12T21:18:31Z</time>
        <extensions><gpxtpx:TrackPointExtension><gpxtpx:hr>170</gpxtpx:hr></gpxtpx:TrackPointExtension></extensions>
      </trkpt>
      <trkpt lat="59.9846549" lon="15.8274402">
        <ele>1.6</ele>
        <time>2014-03-12T21:18:34Z</time>
        <extensions><gpxtpx:TrackPointExtension><gpxtpx:hr>171</gpxtpx:hr></gpxtpx:TrackPointExtension></extensions>
      </trkpt>
      <trkpt lat="59.9846549" lon="15.8274416">
        <ele>1.6</ele>
        <time>2014-03-12T21:18:37Z</time>
        <extensions><gpxtpx:TrackPointExtension><gpxtpx:hr>171</gpxtpx:hr></gpxtpx:TrackPointExtension></extensions>
      </trkpt>
      <trkpt lat="59.984648" lon="15.8274448">
        <ele>1.4</ele>
        <time>2014-03-12T21:18:39Z</time>
        <extensions><gpxtpx:TrackPointExtension><gpxtpx:hr>171</gpxtpx:hr></gpxtpx:TrackPointExtension></extensions>
      </trkpt>
      <trkpt lat="59.9846383" lon="15.8274274">
        <ele>1.6</ele>
        <time>2014-03-12T21:18:41Z</time>
        <extensions><gpxtpx:TrackPointExtension><gpxtpx:hr>171</gpxtpx:hr></gpxtpx:TrackPointExtension></extensions>
      </trkpt>
      <trkpt lat="59.9846313" lon="15.8274255">
        <ele>1.6</ele>
        <time>2014-03-12T21:18:42Z</time>
        <extensions><gpxtpx:TrackPointExtension><gpxtpx:hr>171</gpxtpx:hr></gpxtpx:TrackPointExtension></extensions>
      </trkpt>
      <trkpt lat="59.9846278" lon="15.8274344">
        <ele>1.4</ele>
        <time>2014-03-12T21:18:48Z</time>
        <extensions><gpxtpx:TrackPointExtension><gpxtpx:hr>171</gpxtpx:hr></gpxtpx:TrackPointExtension></extensions>
      </trkpt>
      <trkpt lat="59.9846264" lon="15.8274471">
        <ele>1.6</ele>
        <time>2014-03-12T21:18:54Z</time>
        <extensions><gpxtpx:TrackPointExtension><gpxtpx:hr>172</gpxtpx:hr></gpxtpx:TrackPointExtension></extensions>
      </trkpt>
      <trkpt lat="59.9846209" lon="15.8272821">
        <ele>1.6</ele>
        <time>2014-03-12T21:18:55Z</time>
        <extensions><gpxtpx:TrackPointExtension><gpxtpx:hr>172</gpxtpx:hr></gpxtpx:TrackPointExtension></extensions>
      </trkpt>
      <trkpt lat="59.9846356" lon="15.8272441">
        <ele>1.6</ele>
        <time>2014-03-12T21:19:00Z</time>
        <extensions><gpxtpx:TrackPointExtension><gpxtpx:hr>172</gpxtpx:hr></gpxtpx:TrackPointExtension></extensions>
      </trkpt>
      <trkpt lat="59.9846475" lon="15.8272264">
        <ele>1.4</ele>
        <time>2014-03-12T21:19:04Z</time>
        <extensions><gpxtpx:TrackPointExtension><gpxtpx:hr>173</gpxtpx:hr></gpxtpx:TrackPointExtension></extensions>
      </trkpt>
      <trkpt lat="59.9846535" lon="15.8272182">
        <ele>1.6</ele>
        <time>2014-03-12T21:19:06Z</time>
        <extensions><gpxtpx:TrackPointExtension><gpxtpx:hr>172</gpxtpx:hr></gpxtpx:TrackPointExtension></extensions>
      </trkpt>
      <trkpt lat="59.9846451" lon="15.8272409">
        <ele>1.6</ele>
        <time>2014-03-12T21:19:08Z</time>
        <extensions><gpxtpx:TrackPointExtension><gpxtpx:hr>173</gpxtpx:hr></gpxtpx:TrackPointExtension></extensions>
      </trkpt>
      <trkpt lat="59.9846375" lon="15.8272708">
        <ele>1.6</ele>
        <time>2014-03-12T21:19:11Z</time>
        <extensions><gpxtpx:TrackPointExtension><gpxtpx:hr>173</gpxtpx:hr></gpxtpx:TrackPointExtension></extensions>
      </trkpt>
      <trkpt lat="59.9846362" lon="15.8272758">
        <ele>1.6</ele>
        <time>2014-03-12T21:19:12Z</time>
        <extensions><gpxtpx:TrackPointExtension><gpxtpx:hr>173</gpxtpx:hr></gpxtpx:TrackPointExtension></extensions>
      </trkpt>
      <trkpt lat="59.9846419" lon="15.8272765">
        <ele>1.6</ele>
        <time>2014-03-12T21:19:17Z</time>
        <extensions><gpxtpx:TrackPointExtension><gpxtpx:hr>174</gpxtpx:hr></gpxtpx:TrackPointExtension></extensions>
      </trkpt>
      <trkpt lat="59.9846404" lon="15.8272706">
        <ele>1.6</ele>
        <time>2014-03-12T21:19:19Z</time>
        <extensions><gpxtpx:TrackPointExtension><gpxtpx:hr>174</gpxtpx:hr></gpxtpx:TrackPointExtension></extensions>
      </trkpt>
      <trkpt lat="59.9846552" lon="15.8272223">
        <ele>1.6</ele>
        <time>2014-03-12T21:19:22Z</time>
        <extensions><gpxtpx:TrackPointExtension><gpxtpx:hr>175</gpxtpx:hr></gpxtpx:TrackPointExtension></extensions>
      </trkpt>
      <trkpt lat="59.9846675" lon="15.8272014">
        <ele>1.6</ele>
        <time>2014-03-12T21:19:28Z</time>
        <extensions><gpxtpx:TrackPointExtension><gpxtpx:hr>175</gpxtpx:hr></gpxtpx:TrackPointExtension></extensions>
      </trkpt>
    </trkseg>
  </trk>
</gpx>